Provisional Data: South Branch Tunkhannock Creek near La Plume, PA


Please select a monitoring station.
Please select start date.
Please select start date.

Toggle Unit: C/F Toggle Unit: C/F
Sample Time Temperature (C) Temperature (F) Specific Conductivity (mS/cm) pH   Turbidity (NTU+) DO (mg/L)
3/7/2021 12:00:00 AM 0.65 33.17 0.338 7.46 6.04 13.36
3/7/2021 12:15:00 AM 0.62 33.116 0.337 7.45 5.89 13.35
3/7/2021 12:30:00 AM 0.59 33.062 0.337 7.45 6.13 13.4
3/7/2021 12:45:00 AM 0.57 33.026 0.338 7.44 5.81 13.38
3/7/2021 1:00:00 AM 0.54 32.972 0.338 7.45 6.11 13.41
3/7/2021 1:15:00 AM 0.51 32.918 0.337 7.45 6.14 13.37
3/7/2021 1:30:00 AM 0.5 32.9 0.337 7.45 7 13.41
3/7/2021 1:45:00 AM 0.49 32.882 0.337 7.45 7.02 13.44
3/7/2021 2:00:00 AM 0.48 32.864 0.337 7.44 6.8 13.42
3/7/2021 2:15:00 AM 0.48 32.864 0.337 7.44 6.77 13.42
3/7/2021 2:30:00 AM 0.48 32.864 0.337 7.45 6.79 13.45
3/7/2021 2:45:00 AM 0.47 32.846 0.336 7.44 6.8 13.41
3/7/2021 3:00:00 AM 0.46 32.828 0.336 7.44 6.8 13.45
3/7/2021 3:15:00 AM 0.44 32.792 0.337 7.44 6.76 13.46
3/7/2021 3:30:00 AM 0.41 32.738 0.337 7.44 6.59 13.48
3/7/2021 3:45:00 AM 0.39 32.702 0.337 7.44 6.71 13.45
3/7/2021 4:00:00 AM 0.36 32.648 0.336 7.43 6.79 13.34
3/7/2021 4:15:00 AM 0.34 32.612 0.336 7.44 6.94 13.46
3/7/2021 4:30:00 AM 0.33 32.594 0.335 7.44 6.79 13.46
3/7/2021 4:45:00 AM 0.31 32.558 0.335 7.44 7.29 13.48
3/7/2021 5:00:00 AM 0.31 32.558 0.335 7.44 7.03 13.5
3/7/2021 5:15:00 AM 0.32 32.576 0.334 7.43 8.11 13.47
3/7/2021 5:30:00 AM 0.33 32.594 0.334 7.44 7.49 13.48
3/7/2021 5:45:00 AM 0.33 32.594 0.334 7.43 7.33 13.48
3/7/2021 6:00:00 AM 0.32 32.576 0.333 7.44 6.97 13.49
3/7/2021 6:15:00 AM 0.32 32.576 0.333 7.43 6.81 13.48
3/7/2021 6:30:00 AM 0.32 32.576 0.332 7.43 6.87 13.52
3/7/2021 6:45:00 AM 0.3 32.54 0.332 7.43 6.88 13.57
3/7/2021 7:00:00 AM 0.28 32.504 0.331 7.44 6.81 13.62
3/7/2021 7:15:00 AM 0.28 32.504 0.33 7.46 6.77 13.62
3/7/2021 7:30:00 AM 0.27 32.486 0.33 7.48 6.75 13.79
3/7/2021 7:45:00 AM 0.26 32.468 0.33 7.51 6.8 13.9
3/7/2021 8:00:00 AM 0.28 32.504 0.33 7.51 6.82 13.94
3/7/2021 8:15:00 AM 0.31 32.558 0.33 7.55 6.87 14.06
3/7/2021 8:30:00 AM 0.35 32.63 0.33 7.57 6.75 14.13
3/7/2021 8:45:00 AM 0.39 32.702 0.33 7.61 6.94 14.21
3/7/2021 9:00:00 AM 0.44 32.792 0.33 7.63 6.83 14.3
3/7/2021 9:15:00 AM 0.49 32.882 0.331 7.66 7 14.35
3/7/2021 9:30:00 AM 0.54 32.972 0.332 7.68 6.88 14.43
3/7/2021 9:45:00 AM 0.6 33.08 0.334 7.69 6.71 14.45
3/7/2021 10:00:00 AM 0.67 33.206 0.336 7.72 6.9 14.44
3/7/2021 10:15:00 AM 0.75 33.35 0.336 7.67 7.01 14.47
3/7/2021 10:30:00 AM 0.86 33.548 0.336 7.77 6.84 14.45
3/7/2021 10:45:00 AM 1 33.8 0.334 7.78 7.02 14.47
3/7/2021 11:00:00 AM 1.15 34.07 0.333 7.79 7.1 14.48
3/7/2021 11:15:00 AM 1.29 34.322 0.332 7.83 7.01 14.46
3/7/2021 11:30:00 AM 1.46 34.628 0.332 7.81 6.91 14.39
3/7/2021 11:45:00 AM 1.62 34.916 0.333 7.87 7.57 14.42
3/7/2021 12:00:00 PM 1.75 35.15 0.333 7.87 9.19 14.4
3/7/2021 12:15:00 PM 1.87 35.366 0.331 7.88 7.05 14.35
3/7/2021 12:30:00 PM 2.01 35.618 0.33 7.91 7.61 14.31
3/7/2021 12:45:00 PM 2.24 36.032 0.33 7.94 8.02 14.25
3/7/2021 1:00:00 PM 2.44 36.392 0.33 7.97 7.83 14.17
3/7/2021 1:15:00 PM 2.52 36.536 0.329 7.97 8.12 14.22
3/7/2021 1:30:00 PM 2.54 36.572 0.329 7.98 8.62 14.15
3/7/2021 1:45:00 PM 2.57 36.626 0.329 7.99 7.76 14.16
3/7/2021 2:00:00 PM 2.66 36.788 0.329 7.98 6.59 14.03
3/7/2021 2:15:00 PM 2.8 37.04 0.329 7.99 7.6 14
3/7/2021 2:30:00 PM 2.87 37.166 0.329 7.99 6.76 13.94
3/7/2021 2:45:00 PM 2.92 37.256 0.328 7.99 6.43 13.86
3/7/2021 3:00:00 PM 2.9 37.22 0.328 7.98 6.37 13.84
3/7/2021 3:15:00 PM 2.91 37.238 0.328 7.98 6.32 13.81
3/7/2021 3:30:00 PM 2.87 37.166 0.328 7.94 6.3 13.73
3/7/2021 3:45:00 PM 2.82 37.076 0.328 7.93 6.38 13.72
3/7/2021 4:00:00 PM 2.78 37.004 0.328 7.9 6.53 13.67
3/7/2021 4:15:00 PM 2.71 36.878 0.328 7.87 6.71 13.61
3/7/2021 4:30:00 PM 2.63 36.734 0.328 7.84 7.36 13.57
3/7/2021 4:45:00 PM 2.55 36.59 0.328 7.83 7.42 13.59
3/7/2021 5:00:00 PM 2.47 36.446 0.328 7.77 6.16 13.51
3/7/2021 5:15:00 PM 2.37 36.266 0.328 7.74 6.31 13.48
3/7/2021 5:30:00 PM 2.25 36.05 0.328 7.69 6.28 13.36
3/7/2021 5:45:00 PM 2.13 35.834 0.329 7.65 6.92 13.35
3/7/2021 6:00:00 PM 2.02 35.636 0.329 7.64 6.48 13.31
3/7/2021 6:15:00 PM 1.9 35.42 0.328 7.6 6.37 13.25
3/7/2021 6:30:00 PM 1.79 35.222 0.329 7.56 6.73 13.23
3/7/2021 6:45:00 PM 1.68 35.024 0.33 7.55 6.81 13.16
3/7/2021 7:00:00 PM 1.57 34.826 0.331 7.51 6.63 13.09
3/7/2021 7:15:00 PM 1.48 34.664 0.331 7.49 6.64 13.15
3/7/2021 7:30:00 PM 1.38 34.484 0.331 7.51 7.04 13.22
3/7/2021 7:45:00 PM 1.29 34.322 0.331 7.5 6.95 13.19
3/7/2021 8:00:00 PM 1.21 34.178 0.331 7.48 7.09 13.23
3/7/2021 8:15:00 PM 1.12 34.016 0.331 7.48 7.04 13.26
3/7/2021 8:30:00 PM 1.05 33.89 0.331 7.47 6.87 13.24
3/7/2021 8:45:00 PM 0.98 33.764 0.331 7.46 6.98 13.2
3/7/2021 9:00:00 PM 0.92 33.656 0.331 7.46 6.21 13.3
3/7/2021 9:15:00 PM 0.86 33.548 0.331 7.47 6.23 13.33
3/7/2021 9:30:00 PM 0.8 33.44 0.331 7.45 6.12 13.33
3/7/2021 9:45:00 PM 0.74 33.332 0.331 7.45 6.13 13.36
3/7/2021 10:00:00 PM 0.7 33.26 0.33 7.45 6.07 13.37
3/7/2021 10:15:00 PM 0.64 33.152 0.331 7.45 6.08 13.42
3/7/2021 10:30:00 PM 0.59 33.062 0.331 7.45 6.1 13.42
3/7/2021 10:45:00 PM 0.55 32.99 0.33 7.45 6.1 13.43
3/7/2021 11:00:00 PM 0.5 32.9 0.33 7.44 6.16 13.41
3/7/2021 11:15:00 PM 0.46 32.828 0.329 7.45 6.1 13.48
3/7/2021 11:30:00 PM 0.41 32.738 0.33 7.45 6.17 13.43
3/7/2021 11:45:00 PM 0.37 32.666 0.33 7.44 6.25 13.51
3/8/2021 12:00:00 AM 0.33 32.594 0.33 7.44 6.23 13.48
3/8/2021 12:15:00 AM 0.28 32.504 0.331 7.44 6.2 13.53
3/8/2021 12:30:00 AM 0.24 32.432 0.331 7.42 6.26 13.54
3/8/2021 12:45:00 AM 0.2 32.36 0.33 7.44 6.23 13.51
3/8/2021 1:00:00 AM 0.16 32.288 0.33 7.44 6.18 13.54
3/8/2021 1:15:00 AM 0.11 32.198 0.33 7.44 6.13 13.62
3/8/2021 1:30:00 AM 0.07 32.126 0.33 7.42 6.11 13.57
3/8/2021 1:45:00 AM 0.03 32.054 0.33 7.44 6.06 13.64
3/8/2021 2:00:00 AM -0.01 31.982 0.33 7.43 6.18 13.65
3/8/2021 2:15:00 AM -0.04 31.928 0.329 7.42 10.64 13.55
3/8/2021 2:30:00 AM -0.07 31.874 0.327 7.42 221.39 13.63
3/8/2021 2:45:00 AM -0.09 31.838 0.327 7.43 5.7 13.62
3/8/2021 3:00:00 AM -0.1 31.82 0.326 7.41 5.6 13.73
3/8/2021 3:15:00 AM -0.09 31.838 0.325 7.43 5.66 13.7
3/8/2021 3:30:00 AM -0.08 31.856 0.325 7.41 5.65 13.66
3/8/2021 3:45:00 AM -0.06 31.892 0.323 7.37 5.52 12.94
3/8/2021 4:00:00 AM -0.05 31.91 0.322 7.38 5.7 13.05
3/8/2021 4:15:00 AM -0.04 31.928 0.32 7.41 6.02 13.37
3/8/2021 4:30:00 AM -0.05 31.91 0.32 7.39 6 13.2
3/8/2021 4:45:00 AM -0.04 31.928 0.318 7.4 6 13.52
3/8/2021 5:00:00 AM -0.06 31.892 0.319 7.41 6.11 13.59
3/8/2021 5:15:00 AM -0.06 31.892 0.319 7.41 6.01 13.6
3/8/2021 5:30:00 AM -0.06 31.892 0.318 7.4 6.03 13.62
3/8/2021 5:45:00 AM -0.06 31.892 0.318 7.39 5.97 13.6
3/8/2021 6:00:00 AM -0.06 31.892 0.317 7.41 5.98 13.59
3/8/2021 6:15:00 AM -0.06 31.892 0.317 7.4 5.96 13.65
3/8/2021 6:30:00 AM -0.06 31.892 0.316 7.38 5.94 13.56
3/8/2021 6:45:00 AM -0.06 31.892 0.316 7.41 6.21 13.64
3/8/2021 7:00:00 AM -0.06 31.892 0.316 7.41 5.88 13.61
3/8/2021 7:15:00 AM -0.06 31.892 0.316 7.44 6.05 13.88
3/8/2021 7:30:00 AM -0.06 31.892 0.315 7.45 5.94 13.99
3/8/2021 7:45:00 AM -0.06 31.892 0.314 7.47 5.87 13.98
3/8/2021 8:00:00 AM -0.06 31.892 0.313 7.44 5.79 14.08
3/8/2021 8:15:00 AM -0.06 31.892 0.312 7.45 5.83 14.14
3/8/2021 8:30:00 AM -0.06 31.892 0.313 7.54 5.9 14.33
3/8/2021 8:45:00 AM -0.06 31.892 0.313 7.55 5.91 14.25
3/8/2021 9:00:00 AM -0.06 31.892 0.313 7.55 5.57 14.45
3/8/2021 9:15:00 AM -0.06 31.892 0.313 7.58 6.42 14.53
3/8/2021 9:30:00 AM -0.05 31.91 0.314 7.57 6.02 14.52
3/8/2021 9:45:00 AM -0.05 31.91 0.316 7.64 5.97 14.59
3/8/2021 10:00:00 AM -0.05 31.91 0.318 7.67 5.84 14.56
3/8/2021 10:15:00 AM -0.06 31.892 0.322 7.68 5.86 14.64
3/8/2021 10:30:00 AM -0.05 31.91 0.325 7.69 5.58 14.56
3/8/2021 10:45:00 AM -0.05 31.91 0.329 7.73 5.67 14.73
3/8/2021 11:00:00 AM -0.03 31.946 0.334 7.7 5.88 14.59
3/8/2021 11:15:00 AM 0.11 32.198 0.338 7.73 5.74 14.59
3/8/2021 11:30:00 AM 0.45 32.81 0.342 7.78 6.29 14.68
3/8/2021 11:45:00 AM 0.81 33.458 0.343 7.85 5.77 14.66
3/8/2021 12:00:00 PM 1.07 33.926 0.341 7.87 5.5 14.64
3/8/2021 12:15:00 PM 1.3 34.34 0.338 7.89 5.79 14.62
3/8/2021 12:30:00 PM 1.5 34.7 0.335 7.9 5.6 14.58
3/8/2021 12:45:00 PM 1.69 35.042 0.334 7.91 5.58 14.46
3/8/2021 1:00:00 PM 1.9 35.42 0.334 7.95 9.29 14.38
3/8/2021 1:15:00 PM 2.11 35.798 0.334 7.91 5.47 14.41
3/8/2021 1:30:00 PM 2.31 36.158 0.334 7.94 5.75 14.24
3/8/2021 1:45:00 PM 2.47 36.446 0.334 7.96 5.73 14.24
3/8/2021 2:00:00 PM 2.59 36.662 0.335 7.98 5.86 14.19
3/8/2021 2:15:00 PM 2.68 36.824 0.334 7.97 5.66 14.21
3/8/2021 2:30:00 PM 2.75 36.95 0.333 7.99 5.51 14.12
3/8/2021 2:45:00 PM 2.87 37.166 0.331 8.04 5.62 14.13
3/8/2021 3:00:00 PM 2.98 37.364 0.331 8.06 5.69 14.08
3/8/2021 3:15:00 PM 3.02 37.436 0.33 8.08 6.18 14.05
3/8/2021 3:30:00 PM 3.04 37.472 0.329 8.07 6.65 13.91
3/8/2021 3:45:00 PM 3.08 37.544 0.329 8.06 7.01 13.94
3/8/2021 4:00:00 PM 3.09 37.562 0.328 8.05 6.69 13.84
3/8/2021 4:15:00 PM 3.07 37.526 0.328 8 6.78 13.78
3/8/2021 4:30:00 PM 3.05 37.49 0.328 7.97 6.5 13.7
3/8/2021 4:45:00 PM 3.02 37.436 0.327 7.93 6.46 13.65
3/8/2021 5:00:00 PM 2.95 37.31 0.327 7.9 6.73 13.6
3/8/2021 5:15:00 PM 2.88 37.184 0.326 7.84 6.55 13.57
3/8/2021 5:30:00 PM 2.8 37.04 0.326 7.77 6.58 13.48
3/8/2021 5:45:00 PM 2.7 36.86 0.324 7.74 8.81 13.38
3/8/2021 6:00:00 PM 2.61 36.698 0.323 7.69 5.98 13.26
3/8/2021 6:15:00 PM 2.51 36.518 0.325 7.65 6.31 13.16
3/8/2021 6:30:00 PM 2.42 36.356 0.325 7.6 6.21 13.07
3/8/2021 6:45:00 PM 2.34 36.212 0.325 7.55 6.15 13.03
3/8/2021 7:00:00 PM 2.25 36.05 0.325 7.53 6.31 12.99
3/8/2021 7:15:00 PM 2.16 35.888 0.325 7.5 6.38 13.02
3/8/2021 7:30:00 PM 2.08 35.744 0.326 7.52 6.44 12.96
3/8/2021 7:45:00 PM 2 35.6 0.327 7.51 6.76 12.94
3/8/2021 8:00:00 PM 1.92 35.456 0.327 7.49 6.8 12.97
3/8/2021 8:15:00 PM 1.85 35.33 0.327 7.49 6.86 12.96
3/8/2021 8:30:00 PM 1.77 35.186 0.327 7.43 6.69 13
3/8/2021 8:45:00 PM 1.72 35.096 0.327 7.45 6.93 12.98
3/8/2021 9:00:00 PM 1.67 35.006 0.328 7.46 6.84 13.02
3/8/2021 9:15:00 PM 1.62 34.916 0.328 7.44 6.7 13.02
3/8/2021 9:30:00 PM 1.58 34.844 0.328 7.43 6.79 13.04
3/8/2021 9:45:00 PM 1.54 34.772 0.328 7.45 6.8 13.02
3/8/2021 10:00:00 PM 1.51 34.718 0.328 7.44 6.89 13.07
3/8/2021 10:15:00 PM 1.48 34.664 0.328 7.44 6.75 13.08
3/8/2021 10:30:00 PM 1.46 34.628 0.329 7.44 6.8 13.02
3/8/2021 10:45:00 PM 1.45 34.61 0.327 7.42 6.73 13.06
3/8/2021 11:00:00 PM 1.44 34.592 0.328 7.44 6.87 13.12
3/8/2021 11:15:00 PM 1.43 34.574 0.328 7.43 6.78 13.05
3/8/2021 11:30:00 PM 1.43 34.574 0.328 7.41 6.82 13.12
3/8/2021 11:45:00 PM 1.43 34.574 0.328 7.43 6.8 13.13
3/9/2021 12:00:00 AM 1.44 34.592 0.328 7.37 6.84 13.1
3/9/2021 12:15:00 AM 1.45 34.61 0.327 7.42 6.88 13.09
3/9/2021 12:30:00 AM 1.46 34.628 0.327 7.41 6.69 13.05
3/9/2021 12:45:00 AM 1.47 34.646 0.304 7.42 6.81 13.09
3/9/2021 1:00:00 AM 1.49 34.682 0.326 7.43 7.32 13.1
3/9/2021 1:15:00 AM 1.51 34.718 0.326 7.44 7.2 13.06
3/9/2021 1:30:00 AM 1.53 34.754 0.326 7.42 6.81 13.03
3/9/2021 1:45:00 AM 1.55 34.79 0.326 7.42 5.82 13.06
3/9/2021 2:00:00 AM 1.56 34.808 0.325 7.43 5.83 13.03
3/9/2021 2:15:00 AM 1.58 34.844 0.326 7.43 6.34 13.05
3/9/2021 2:30:00 AM 1.59 34.862 0.326 7.39 6.14 12.97
3/9/2021 2:45:00 AM 1.59 34.862 0.325 7.41 6.65 12.95
3/9/2021 3:00:00 AM 1.58 34.844 0.325 7.42 8.16 13
3/9/2021 3:15:00 AM 1.57 34.826 0.325 7.42 6.93 12.94
3/9/2021 3:30:00 AM 1.55 34.79 0.325 7.43 6.78 12.96
3/9/2021 3:45:00 AM 1.53 34.754 0.325 7.42 7.07 13.01
3/9/2021 4:00:00 AM 1.51 34.718 0.325 7.43 6.73 13
3/9/2021 4:15:00 AM 1.51 34.718 0.325 7.43 6.53 12.99
3/9/2021 4:30:00 AM 1.51 34.718 0.325 7.41 6.4 13.01
3/9/2021 4:45:00 AM 1.51 34.718 0.324 7.42 6.75 12.96
3/9/2021 5:00:00 AM 1.51 34.718 0.325 7.42 6.77 12.98
3/9/2021 5:15:00 AM 1.51 34.718 0.325 7.42 6.64 13.01
3/9/2021 5:30:00 AM 1.49 34.682 0.325 7.43 6.41 13
3/9/2021 5:45:00 AM 1.46 34.628 0.325 7.42 6.39 13.04
3/9/2021 6:00:00 AM 1.43 34.574 0.325 7.42 6.35 13
3/9/2021 6:15:00 AM 1.4 34.52 0.325 7.42 6.69 13.07
3/9/2021 6:30:00 AM 1.37 34.466 0.324 7.42 6.11 13.07
3/9/2021 6:45:00 AM 1.35 34.43 0.324 7.43 6.11 13.08
3/9/2021 7:00:00 AM 1.34 34.412 0.324 7.46 7.57 13.23
3/9/2021 7:15:00 AM 1.33 34.394 0.324 7.47 5.67 13.32
3/9/2021 7:30:00 AM 1.32 34.376 0.324 7.51 5.75 13.52
3/9/2021 7:45:00 AM 1.32 34.376 0.323 7.54 6.11 13.64
3/9/2021 8:00:00 AM 1.34 34.412 0.323 7.57 5.66 13.74
3/9/2021 8:15:00 AM 1.37 34.466 0.323 7.62 5.61 13.92
3/9/2021 8:30:00 AM 1.42 34.556 0.323 7.64 6.08 14.04
3/9/2021 8:45:00 AM 1.49 34.682 0.323 7.68 5.91 14.12
3/9/2021 9:00:00 AM 1.57 34.826 0.322 7.71 6.99 14.1
3/9/2021 9:15:00 AM 1.66 34.988 0.322 7.76 5.9 14.2
3/9/2021 9:30:00 AM 1.77 35.186 0.321 7.78 6.07 14.26
3/9/2021 9:45:00 AM 1.91 35.438 0.321 7.83 8.19 14.29
3/9/2021 10:00:00 AM 2.06 35.708 0.321 7.81 7.25 14.3
3/9/2021 10:15:00 AM 2.21 35.978 0.319 7.87 7.28 14.3
3/9/2021 10:30:00 AM 2.4 36.32 0.319 7.94 6.75 14.32
3/9/2021 10:45:00 AM 2.59 36.662 0.32 7.95 6.76 14.22
3/9/2021 11:00:00 AM 2.79 37.022 0.319 8 6.53 14.23
3/9/2021 11:15:00 AM 2.99 37.382 0.318 8.03 6.67 14.2
3/9/2021 11:30:00 AM 3.21 37.778 0.318 8.06 6.47 14.2
3/9/2021 11:45:00 AM 3.43 38.174 0.318 8.09 6.45 14.14
3/9/2021 12:00:00 PM 3.63 38.534 0.317 8.08 6.51 14.04
3/9/2021 12:15:00 PM 3.83 38.894 0.316 8.08 6.83 14
3/9/2021 12:30:00 PM 4.04 39.272 0.316 8.16 6.84 13.99
3/9/2021 12:45:00 PM 4.24 39.632 0.316 8.17 6.69 13.89
3/9/2021 1:00:00 PM 4.43 39.974 0.316 8.18 6.95 13.81
3/9/2021 1:15:00 PM 4.6 40.28 0.315 8.22 6.98 13.78
3/9/2021 1:30:00 PM 4.75 40.55 0.315 8.19 6.9 13.61
3/9/2021 1:45:00 PM 4.88 40.784 0.313 8.21 7.05 13.55
3/9/2021 2:00:00 PM 4.99 40.982 0.313 8.23 7.12 13.54
3/9/2021 2:15:00 PM 5.09 41.162 0.313 8.22 7.13 13.49
3/9/2021 2:30:00 PM 5.16 41.288 0.313 8.24 7.11 13.46
3/9/2021 2:45:00 PM 5.22 41.396 0.314 8.22 7.51 13.39
3/9/2021 3:00:00 PM 5.27 41.486 0.314 8.22 7.22 13.35
3/9/2021 3:15:00 PM 5.3 41.54 0.316 8.2 7.47 13.25
3/9/2021 3:30:00 PM 5.31 41.558 0.316 8.15 7.81 13.2
3/9/2021 3:45:00 PM 5.29 41.522 0.316 8.13 7.88 13.15
3/9/2021 4:00:00 PM 5.25 41.45 0.316 8.11 8.36 13.09
3/9/2021 4:15:00 PM 5.17 41.306 0.315 8.05 8 13.04
3/9/2021 4:30:00 PM 5.06 41.108 0.314 7.99 7.37 12.89
3/9/2021 4:45:00 PM 4.94 40.892 0.312 7.93 6.9 12.91
3/9/2021 5:00:00 PM 4.8 40.64 0.312 7.87 8.28 12.85
3/9/2021 5:15:00 PM 4.67 40.406 0.314 7.82 7.97 12.74
3/9/2021 5:30:00 PM 4.52 40.136 0.315 7.76 10 12.68
3/9/2021 5:45:00 PM 4.36 39.848 0.314 7.71 8.36 12.67
3/9/2021 6:00:00 PM 4.2 39.56 0.313 7.67 8.18 12.63
3/9/2021 6:15:00 PM 4.03 39.254 0.313 7.62 8.74 12.55
3/9/2021 6:30:00 PM 3.88 38.984 0.313 7.59 9.57 12.55
3/9/2021 6:45:00 PM 3.71 38.678 0.314 7.56 11.2 12.54
3/9/2021 7:00:00 PM 3.55 38.39 0.316 7.54 10.92 12.54
3/9/2021 7:15:00 PM 3.4 38.12 0.319 7.52 12.89 12.57
3/9/2021 7:30:00 PM 3.26 37.868 0.322 7.5 9.57 12.6
3/9/2021 7:45:00 PM 3.12 37.616 0.324 7.5 9.35 12.63
3/9/2021 8:00:00 PM 3.01 37.418 0.328 7.48 8.57 12.65
3/9/2021 8:15:00 PM 2.91 37.238 0.332 7.47 8.75 12.67
3/9/2021 8:30:00 PM 2.82 37.076 0.334 7.47 8.92 12.7
3/9/2021 8:45:00 PM 2.74 36.932 0.336 7.47 8.76 12.73
3/9/2021 9:00:00 PM 2.66 36.788 0.338 7.47 10.1 12.76
3/9/2021 9:15:00 PM 2.58 36.644 0.339 7.46 11.01 12.78
3/9/2021 9:30:00 PM 2.49 36.482 0.339 7.46 9.78 12.82
3/9/2021 9:45:00 PM 2.4 36.32 0.338 7.46 9.96 12.85
3/9/2021 10:00:00 PM 2.3 36.14 0.337 7.45 10.3 12.89
3/9/2021 10:15:00 PM 2.21 35.978 0.336 7.45 9.75 12.92
3/9/2021 10:30:00 PM 2.12 35.816 0.335 7.45 8.53 12.97
3/9/2021 10:45:00 PM 2.03 35.654 0.334 7.45 9.2 13.01
3/9/2021 11:00:00 PM 1.96 35.528 0.333 7.45 9.62 13.04
3/9/2021 11:15:00 PM 1.9 35.42 0.332 7.44 14.26 13.06
3/9/2021 11:30:00 PM 1.84 35.312 0.331 7.44 15.86 13.09
3/9/2021 11:45:00 PM 1.79 35.222 0.33 7.44 14.08 13.11
3/10/2021 12:00:00 AM 1.74 35.132 0.329 7.44 13.88 13.13
3/10/2021 12:15:00 AM 1.7 35.06 0.328 7.44 14.21 13.13
3/10/2021 12:30:00 AM 1.67 35.006 0.327 7.44 14.34 13.15
3/10/2021 12:45:00 AM 1.63 34.934 0.327 7.44 12.29 13.16
3/10/2021 1:00:00 AM 1.6 34.88 0.326 7.44 12.22 13.18
3/10/2021 1:15:00 AM 1.57 34.826 0.325 7.44 11.98 13.18
3/10/2021 1:30:00 AM 1.55 34.79 0.325 7.44 11.87 13.2
3/10/2021 1:45:00 AM 1.52 34.736 0.324 7.44 12.66 13.21
3/10/2021 2:00:00 AM 1.5 34.7 0.323 7.44 13.53 13.22
3/10/2021 2:15:00 AM 1.48 34.664 0.323 7.43 12.87 13.23
3/10/2021 2:30:00 AM 1.45 34.61 0.322 7.44 12.36 13.23
3/10/2021 2:45:00 AM 1.43 34.574 0.322 7.43 12.42 13.24
3/10/2021 3:00:00 AM 1.42 34.556 0.321 7.44 13.17 13.25
3/10/2021 3:15:00 AM 1.4 34.52 0.32 7.43 12.83 13.25
3/10/2021 3:30:00 AM 1.38 34.484 0.32 7.44 12.87 13.26
3/10/2021 3:45:00 AM 1.36 34.448 0.319 7.43 14.92 13.27
3/10/2021 4:00:00 AM 1.35 34.43 0.318 7.44 13.24 13.27
3/10/2021 4:15:00 AM 1.33 34.394 0.317 7.43 14.98 13.29
3/10/2021 4:30:00 AM 1.32 34.376 0.317 7.43 14.4 13.3
3/10/2021 4:45:00 AM 1.31 34.358 0.317 7.43 9.98 13.29
3/10/2021 5:00:00 AM 1.29 34.322 0.316 7.43 8.92 13.31
3/10/2021 5:15:00 AM 1.28 34.304 0.316 7.43 10.28 13.31
3/10/2021 5:30:00 AM 1.27 34.286 0.315 7.43 12.25 13.31
3/10/2021 5:45:00 AM 1.26 34.268 0.315 7.42 9.76 13.32
3/10/2021 6:00:00 AM 1.25 34.25 0.315 7.43 16.72 13.33
3/10/2021 6:15:00 AM 1.23 34.214 0.315 7.43 16.64 13.33
3/10/2021 6:30:00 AM 1.23 34.214 0.315 7.43 15.15 13.36
3/10/2021 6:45:00 AM 1.22 34.196 0.315 7.44 13.96 13.39
3/10/2021 7:00:00 AM 1.23 34.214 0.314 7.45 10.38 13.48
3/10/2021 7:15:00 AM 1.23 34.214 0.314 7.47 9.51 13.56
3/10/2021 7:30:00 AM 1.25 34.25 0.314 7.5 8.91 13.65
3/10/2021 7:45:00 AM 1.28 34.304 0.314 7.52 8.76 13.75
3/10/2021 8:00:00 AM 1.31 34.358 0.313 7.55 10.55 13.83
3/10/2021 8:15:00 AM 1.36 34.448 0.313 7.58 10.33 13.92
3/10/2021 8:30:00 AM 1.41 34.538 0.313 7.61 9.29 13.98
3/10/2021 8:45:00 AM 1.48 34.664 0.313 7.63 9.45 14.05
3/10/2021 9:00:00 AM 1.56 34.808 0.312 7.66 10.17 14.08
3/10/2021 9:15:00 AM 1.66 34.988 0.312 7.69 10.34 14.12
3/10/2021 9:30:00 AM 1.76 35.168 0.312 7.71 10.96 14.16
3/10/2021 9:45:00 AM 1.89 35.402 0.311 7.74 9.94 14.18
3/10/2021 10:00:00 AM 2.03 35.654 0.31 7.77 9.87 14.19
3/10/2021 10:15:00 AM 2.19 35.942 0.31 7.81 10.04 14.18
3/10/2021 10:30:00 AM 2.35 36.23 0.31 7.83 10.39 14.18
3/10/2021 10:45:00 AM 2.52 36.536 0.31 7.85 10.1 14.18
3/10/2021 11:00:00 AM 2.69 36.842 0.309 7.88 9.81 14.15
3/10/2021 11:15:00 AM 2.87 37.166 0.308 7.91 10.46 14.1
3/10/2021 11:30:00 AM 3.05 37.49 0.309 7.93 10.26 14.09
3/10/2021 11:45:00 AM 3.24 37.832 0.308 7.96 10.07 14.07
3/10/2021 12:00:00 PM 3.43 38.174 0.308 7.99 10.24 14
3/10/2021 12:15:00 PM 3.61 38.498 0.308 8.01 13.9 13.96
3/10/2021 12:30:00 PM 3.8 38.84 0.307 8.04 10 13.92
3/10/2021 12:45:00 PM 3.97 39.146 0.307 8.05 10.04 13.87
3/10/2021 1:00:00 PM 4.16 39.488 0.307 8.06 9.9 13.79
3/10/2021 1:15:00 PM 4.33 39.794 0.306 8.08 9.86 13.76
3/10/2021 1:30:00 PM 4.47 40.046 0.305 8.09 9.91 13.7
3/10/2021 1:45:00 PM 4.59 40.262 0.304 8.1 9.99 13.64
3/10/2021 2:00:00 PM 4.67 40.406 0.304 8.1 10.11 13.6
3/10/2021 2:15:00 PM 4.74 40.532 0.304 8.08 9.69 13.54
3/10/2021 2:30:00 PM 4.8 40.64 0.304 8.08 10.18 13.49
3/10/2021 2:45:00 PM 4.83 40.694 0.304 8.07 13.45 13.44
3/10/2021 3:00:00 PM 4.86 40.748 0.305 8.08 9.15 13.41
3/10/2021 3:15:00 PM 4.86 40.748 0.305 8.06 8.63 13.37
3/10/2021 3:30:00 PM 4.85 40.73 0.305 8.03 12.48 13.32
3/10/2021 3:45:00 PM 4.81 40.658 0.305 7.99 8.88 13.26
3/10/2021 4:00:00 PM 4.76 40.568 0.305 7.96 10.5 13.2
3/10/2021 4:15:00 PM 4.7 40.46 0.305 7.92 9.68 13.14
3/10/2021 4:30:00 PM 4.64 40.352 0.304 7.88 9.87 13.09
3/10/2021 4:45:00 PM 4.56 40.208 0.304 7.83 9.79 13
3/10/2021 5:00:00 PM 4.47 40.046 0.305 7.78 8.37 12.94
3/10/2021 5:15:00 PM 4.37 39.866 0.304 7.74 8.93 12.85
3/10/2021 5:30:00 PM 4.26 39.668 0.304 7.68 8.94 12.78
3/10/2021 5:45:00 PM 4.15 39.47 0.305 7.65 11.92 12.73
3/10/2021 6:00:00 PM 4.01 39.218 0.306 7.61 11.32 12.69
3/10/2021 6:15:00 PM 3.9 39.02 0.309 7.58 10.11 12.64
3/10/2021 6:30:00 PM 3.78 38.804 0.305 7.55 14.13 12.6
3/10/2021 6:45:00 PM 3.68 38.624 0.314 7.53 11.28 12.59
3/10/2021 7:00:00 PM 3.59 38.462 0.317 7.51 12.04 12.57
3/10/2021 7:15:00 PM 3.51 38.318 0.32 7.49 11.15 12.57
3/10/2021 7:30:00 PM 3.43 38.174 0.322 7.49 9.8 12.58
3/10/2021 7:45:00 PM 3.34 38.012 0.323 7.48 8.91 12.6
3/10/2021 8:00:00 PM 3.25 37.85 0.325 7.47 9.29 12.62
3/10/2021 8:15:00 PM 3.16 37.688 0.325 7.47 10.89 12.65
3/10/2021 8:30:00 PM 3.06 37.508 0.324 7.46 11.21 12.68
3/10/2021 8:45:00 PM 2.97 37.346 0.324 7.46 10.25 12.7
3/10/2021 9:00:00 PM 2.88 37.184 0.323 7.45 9.47 12.74
3/10/2021 9:15:00 PM 2.81 37.058 0.322 7.45 9.52 12.77
3/10/2021 9:30:00 PM 2.73 36.914 0.32 7.45 9.13 12.8
3/10/2021 9:45:00 PM 2.68 36.824 0.319 7.44 10.28 12.83
3/10/2021 10:00:00 PM 2.63 36.734 0.318 7.45 9.04 12.85
3/10/2021 10:15:00 PM 2.58 36.644 0.316 7.45 8.97 12.87
3/10/2021 10:30:00 PM 2.55 36.59 0.315 7.44 8.72 12.88
3/10/2021 10:45:00 PM 2.51 36.518 0.314 7.44 9.59 12.89
3/10/2021 11:00:00 PM 2.48 36.464 0.313 7.44 8.15 12.9
3/10/2021 11:15:00 PM 2.45 36.41 0.312 7.44 8.34 12.9
3/10/2021 11:30:00 PM 2.43 36.374 0.311 7.44 9.37 12.91
3/10/2021 11:45:00 PM 2.42 36.356 0.311 7.44 11.01 12.91
3/11/2021 12:00:00 AM 2.4 36.32 0.31 7.44 10.1 12.92
3/11/2021 12:15:00 AM 2.39 36.302 0.31 7.44 9.68 12.91
3/11/2021 12:30:00 AM 2.38 36.284 0.309 7.44 8.88 12.92
3/11/2021 12:45:00 AM 2.37 36.266 0.309 7.44 10.38 12.92
3/11/2021 1:00:00 AM 2.36 36.248 0.31 7.44 10.07 12.92
3/11/2021 1:15:00 AM 2.36 36.248 0.31 7.44 10.97 12.93
3/11/2021 1:30:00 AM 2.34 36.212 0.31 7.44 9.57 12.93
3/11/2021 1:45:00 AM 2.33 36.194 0.309 7.44 9.9 12.94
3/11/2021 2:00:00 AM 2.32 36.176 0.31 7.44 9.62 12.94
3/11/2021 2:15:00 AM 2.31 36.158 0.31 7.44 9.61 12.94
3/11/2021 2:30:00 AM 2.3 36.14 0.31 7.44 10.19 12.94
3/11/2021 2:45:00 AM 2.29 36.122 0.31 7.44 7.74 12.94
3/11/2021 3:00:00 AM 2.28 36.104 0.31 7.44 7.2 12.95
3/11/2021 3:15:00 AM 2.28 36.104 0.31 7.44 7.47 12.94
3/11/2021 3:30:00 AM 2.27 36.086 0.31 7.44 8.53 12.95
3/11/2021 3:45:00 AM 2.27 36.086 0.31 7.43 6.88 12.95
3/11/2021 4:00:00 AM 2.27 36.086 0.309 7.44 6.65 12.93
3/11/2021 4:15:00 AM 2.27 36.086 0.309 7.44 6.47 12.95
3/11/2021 4:30:00 AM 2.27 36.086 0.309 7.43 7.3 12.94
3/11/2021 4:45:00 AM 2.28 36.104 0.309 7.44 6.68 12.95
3/11/2021 5:00:00 AM 2.28 36.104 0.31 7.44 7.08 12.95
3/11/2021 5:15:00 AM 2.28 36.104 0.309 7.43 6.69 12.95
3/11/2021 5:30:00 AM 2.29 36.122 0.309 7.43 7.11 12.95
3/11/2021 5:45:00 AM 2.29 36.122 0.309 7.43 6.98 12.94
3/11/2021 6:00:00 AM 2.3 36.14 0.308 7.43 7 12.94
3/11/2021 6:15:00 AM 2.31 36.158 0.308 7.43 6.67 12.94
3/11/2021 6:30:00 AM 2.31 36.158 0.308 7.43 6.86 12.94
3/11/2021 6:45:00 AM 2.32 36.176 0.308 7.44 6.45 12.96
3/11/2021 7:00:00 AM 2.33 36.194 0.307 7.45 6.33 13
3/11/2021 7:15:00 AM 2.35 36.23 0.307 7.46 6.38 13.06
3/11/2021 7:30:00 AM 2.37 36.266 0.306 7.47 6.9 13.12
3/11/2021 7:45:00 AM 2.39 36.302 0.306 7.49 7.76 13.16
3/11/2021 8:00:00 AM 2.42 36.356 0.306 7.51 7.56 13.22
3/11/2021 8:15:00 AM 2.45 36.41 0.306 7.53 7.09 13.3
3/11/2021 8:30:00 AM 2.5 36.5 0.306 7.56 7.31 13.4
3/11/2021 8:45:00 AM 2.55 36.59 0.305 7.59 6.48 13.49
3/11/2021 9:00:00 AM 2.6 36.68 0.305 7.62 6.8 13.54
3/11/2021 9:15:00 AM 2.67 36.806 0.304 7.65 6.26 13.62
3/11/2021 9:30:00 AM 2.76 36.968 0.303 7.69 6.37 13.67
3/11/2021 9:45:00 AM 2.82 37.076 0.303 7.71 6.73 13.7
3/11/2021 10:00:00 AM 2.92 37.256 0.303 7.74 6.72 13.71
3/11/2021 10:15:00 AM 3.04 37.472 0.303 7.76 6.21 13.73
3/11/2021 10:30:00 AM 3.18 37.724 0.303 7.8 6.2 13.73
3/11/2021 10:45:00 AM 3.31 37.958 0.302 7.81 6.13 13.72
3/11/2021 11:00:00 AM 3.46 38.228 0.302 7.84 6.52 13.71
3/11/2021 11:15:00 AM 3.63 38.534 0.302 7.86 6.82 13.7
3/11/2021 11:30:00 AM 3.76 38.768 0.302 7.87 6.15 13.66
3/11/2021 11:45:00 AM 3.9 39.02 0.302 7.91 5.98 13.66
3/11/2021 12:00:00 PM 4.12 39.416 0.301 7.94 6 13.64
3/11/2021 12:15:00 PM 4.27 39.686 0.302 7.95 6.24 13.58
3/11/2021 12:30:00 PM 4.4 39.92 0.301 7.97 7.24 13.53
3/11/2021 12:45:00 PM 4.59 40.262 0.3 7.99 6.09 13.53
3/11/2021 1:00:00 PM 4.76 40.568 0.299 8.02 6.03 13.48
3/11/2021 1:15:00 PM 4.85 40.73 0.299 8.03 7.55 13.44
3/11/2021 1:30:00 PM 4.93 40.874 0.299 8.03 6.78 13.39
3/11/2021 1:45:00 PM 4.99 40.982 0.298 8.05 6.69 13.37
3/11/2021 2:00:00 PM 5 41 0.299 8.03 6.93 13.31
3/11/2021 2:15:00 PM 4.99 40.982 0.299 8.02 6.75 13.26
3/11/2021 2:30:00 PM 4.98 40.964 0.299 7.98 7.23 13.17
3/11/2021 2:45:00 PM 4.96 40.928 0.298 7.91 7.32 13.03
3/11/2021 3:00:00 PM 4.93 40.874 0.298 7.83 7.88 12.86
3/11/2021 3:15:00 PM 4.9 40.82 0.299 7.8 7.79 12.83
3/11/2021 3:30:00 PM 4.85 40.73 0.299 7.77 7.76 12.79
3/11/2021 3:45:00 PM 4.78 40.604 0.299 7.77 7.83 12.82
3/11/2021 4:00:00 PM 4.74 40.532 0.299 7.75 14.45 12.81
3/11/2021 4:15:00 PM 4.67 40.406 0.299 7.74 8.75 12.81
3/11/2021 4:30:00 PM 4.6 40.28 0.3 7.71 8.75 12.76
3/11/2021 4:45:00 PM 4.52 40.136 0.298 7.67 8.92 12.69
3/11/2021 5:00:00 PM 4.43 39.974 0.299 7.63 8.82 12.61
3/11/2021 5:15:00 PM 4.35 39.83 0.303 7.59 10.3 12.55
3/11/2021 5:30:00 PM 4.31 39.758 0.302 7.57 8.65 12.5
3/11/2021 5:45:00 PM 4.24 39.632 0.303 7.54 8.93 12.46
3/11/2021 6:00:00 PM 4.17 39.506 0.302 7.53 8.42 12.45
3/11/2021 6:15:00 PM 4.1 39.38 0.302 7.51 8.96 12.43
3/11/2021 6:30:00 PM 4.02 39.236 0.302 7.5 9.59 12.43
3/11/2021 6:45:00 PM 3.95 39.11 0.302 7.48 8.53 12.43
3/11/2021 7:00:00 PM 3.88 38.984 0.302 7.48 9.95 12.44
3/11/2021 7:15:00 PM 3.81 38.858 0.302 7.47 11.16 12.44
3/11/2021 7:30:00 PM 3.74 38.732 0.301 7.46 9.17 12.45
3/11/2021 7:45:00 PM 3.68 38.624 0.301 7.45 8.78 12.46
3/11/2021 8:00:00 PM 3.65 38.57 0.301 7.46 8.98 12.47
3/11/2021 8:15:00 PM 3.62 38.516 0.302 7.46 9.43 12.48
3/11/2021 8:30:00 PM 3.58 38.444 0.302 7.45 8.62 12.5
3/11/2021 8:45:00 PM 3.54 38.372 0.3 7.45 8.62 12.51
3/11/2021 9:00:00 PM 3.51 38.318 0.3 7.45 8.38 12.52
3/11/2021 9:15:00 PM 3.47 38.246 0.301 7.45 8.47 12.53
3/11/2021 9:30:00 PM 3.45 38.21 0.3 7.45 8.05 12.54
3/11/2021 9:45:00 PM 3.42 38.156 0.3 7.45 8.3 12.55
3/11/2021 10:00:00 PM 3.4 38.12 0.3 7.45 8.16 12.56
3/11/2021 10:15:00 PM 3.38 38.084 0.299 7.45 8.42 12.56
3/11/2021 10:30:00 PM 3.38 38.084 0.299 7.45 7.97 12.57
3/11/2021 10:45:00 PM 3.36 38.048 0.299 7.44 7.97 12.57
3/11/2021 11:00:00 PM 3.34 38.012 0.299 7.44 8.08 12.59
3/11/2021 11:15:00 PM 3.32 37.976 0.3 7.43 7.91 12.59
3/11/2021 11:30:00 PM 3.3 37.94 0.299 7.44 7.84 12.6
3/11/2021 11:45:00 PM 3.29 37.922 0.299 7.44 7.85 12.6
3/12/2021 12:00:00 AM 3.27 37.886 0.298 7.43 7.96 12.61
3/12/2021 12:15:00 AM 3.26 37.868 0.299 7.43 7.86 12.62
3/12/2021 12:30:00 AM 3.26 37.868 0.3 7.43 7.89 12.62
3/12/2021 12:45:00 AM 3.25 37.85 0.3 7.43 7.53 12.62
3/12/2021 1:00:00 AM 3.24 37.832 0.3 7.43 7.43 12.62
3/12/2021 1:15:00 AM 3.23 37.814 0.3 7.43 7.42 12.63
3/12/2021 1:30:00 AM 3.22 37.796 0.299 7.43 7.45 12.63
3/12/2021 1:45:00 AM 3.21 37.778 0.299 7.43 7.35 12.63
3/12/2021 2:00:00 AM 3.21 37.778 0.299 7.43 7.42 12.64
3/12/2021 2:15:00 AM 3.2 37.76 0.298 7.43 7.54 12.63
3/12/2021 2:30:00 AM 3.2 37.76 0.298 7.43 7.1 12.63
3/12/2021 2:45:00 AM 3.19 37.742 0.297 7.43 7.18 12.64
3/12/2021 3:00:00 AM 3.18 37.724 0.296 7.42 7.34 12.64
3/12/2021 3:15:00 AM 3.18 37.724 0.295 7.42 7.06 12.65
3/12/2021 3:30:00 AM 3.18 37.724 0.296 7.42 6.95 12.65
3/12/2021 3:45:00 AM 3.18 37.724 0.295 7.42 6.89 12.65
3/12/2021 4:00:00 AM 3.19 37.742 0.295 7.43 6.92 12.65
3/12/2021 4:15:00 AM 3.2 37.76 0.295 7.43 7.13 12.65
3/12/2021 4:30:00 AM 3.21 37.778 0.294 7.43 6.68 12.66
3/12/2021 4:45:00 AM 3.2 37.76 0.293 7.43 7.13 12.65
3/12/2021 5:00:00 AM 3.19 37.742 0.293 7.43 6.83 12.66
3/12/2021 5:15:00 AM 3.17 37.706 0.292 7.43 6.95 12.66
3/12/2021 5:30:00 AM 3.16 37.688 0.292 7.43 6.87 12.67
3/12/2021 5:45:00 AM 3.14 37.652 0.291 7.43 6.73 12.67
3/12/2021 6:00:00 AM 3.12 37.616 0.291 7.44 6.67 12.68
3/12/2021 6:15:00 AM 3.09 37.562 0.29 7.44 6.7 12.69
3/12/2021 6:30:00 AM 3.06 37.508 0.289 7.44 6.64 12.71
3/12/2021 6:45:00 AM 3.04 37.472 0.289 7.44 6.65 12.74
3/12/2021 7:00:00 AM 3.01 37.418 0.29 7.45 6.46 12.76
3/12/2021 7:15:00 AM 2.99 37.382 0.291 7.46 6.5 12.8
3/12/2021 7:30:00 AM 2.97 37.346 0.291 7.47 6.33 12.85
3/12/2021 7:45:00 AM 2.96 37.328 0.291 7.48 6.91 12.91
3/12/2021 8:00:00 AM 2.96 37.328 0.29 7.5 6.41 12.97
3/12/2021 8:15:00 AM 2.98 37.364 0.29 7.52 6.32 13.04
3/12/2021 8:30:00 AM 3 37.4 0.29 7.54 6.61 13.1
3/12/2021 8:45:00 AM 3.04 37.472 0.29 7.55 6.67 13.17
3/12/2021 9:00:00 AM 3.08 37.544 0.289 7.58 6.58 13.21
3/12/2021 9:15:00 AM 3.14 37.652 0.289 7.6 6.55 13.26
3/12/2021 9:30:00 AM 3.21 37.778 0.288 7.62 6.51 13.3
3/12/2021 9:45:00 AM 3.28 37.904 0.288 7.64 6.41 13.32
3/12/2021 10:00:00 AM 3.37 38.066 0.288 7.65 6.58 13.33
3/12/2021 10:15:00 AM 3.47 38.246 0.287 7.68 6.3 13.35
3/12/2021 10:30:00 AM 3.57 38.426 0.288 7.69 6.31 13.35
3/12/2021 10:45:00 AM 3.68 38.624 0.287 7.71 6.17 13.36
3/12/2021 11:00:00 AM 3.79 38.822 0.286 7.73 6.32 13.35
3/12/2021 11:15:00 AM 3.91 39.038 0.285 7.75 6.29 13.35
3/12/2021 11:30:00 AM 4.02 39.236 0.285 7.76 6.22 13.33
3/12/2021 11:45:00 AM 4.15 39.47 0.284 7.78 6.25 13.31
3/12/2021 12:00:00 PM 4.26 39.668 0.284 7.79 6.31 13.29
3/12/2021 12:15:00 PM 4.37 39.866 0.284 7.8 6.29 13.28
3/12/2021 12:30:00 PM 4.46 40.028 0.283 7.81 6.22 13.27
3/12/2021 12:45:00 PM 4.54 40.172 0.283 7.82 6.25 13.24
3/12/2021 1:00:00 PM 4.62 40.316 0.283 7.82 6.21 13.22
3/12/2021 1:15:00 PM 4.67 40.406 0.283 7.83 6.28 13.18
3/12/2021 1:30:00 PM 4.72 40.496 0.282 7.83 6.18 13.17
3/12/2021 1:45:00 PM 4.76 40.568 0.282 7.83 6.15 13.13
3/12/2021 2:00:00 PM 4.78 40.604 0.281 7.82 6.35 13.09
3/12/2021 2:15:00 PM 4.8 40.64 0.28 7.82 6.12 13.06
3/12/2021 2:30:00 PM 4.8 40.64 0.279 7.81 6.41 13.04
3/12/2021 2:45:00 PM 4.79 40.622 0.279 7.8 6.27 13.01
3/12/2021 3:00:00 PM 4.76 40.568 0.279 7.79 6.49 12.98
3/12/2021 3:15:00 PM 4.72 40.496 0.279 7.77 6.88 12.95
3/12/2021 3:30:00 PM 4.69 40.442 0.278 7.76 7.4 12.93
3/12/2021 3:45:00 PM 4.63 40.334 0.278 7.74 7.45 12.89
3/12/2021 4:00:00 PM 4.58 40.244 0.278 7.72 7.67 12.85
3/12/2021 4:15:00 PM 4.51 40.118 0.278 7.7 8.07 12.8
3/12/2021 4:30:00 PM 4.44 39.992 0.278 7.67 7.96 12.76
3/12/2021 4:45:00 PM 4.38 39.884 0.275 7.65 7.65 12.72
3/12/2021 5:00:00 PM 4.32 39.776 0.276 7.62 7.18 12.66
3/12/2021 5:15:00 PM 4.25 39.65 0.275 7.6 7.53 12.62
3/12/2021 5:30:00 PM 4.19 39.542 0.274 7.58 6.88 12.58
3/12/2021 5:45:00 PM 4.13 39.434 0.274 7.56 6.8 12.54
3/12/2021 6:00:00 PM 4.08 39.344 0.272 7.54 7.05 12.5
3/12/2021 6:15:00 PM 4.02 39.236 0.271 7.52 6.85 12.46
3/12/2021 6:30:00 PM 3.98 39.164 0.273 7.51 6.72 12.44
3/12/2021 6:45:00 PM 3.92 39.056 0.273 7.49 6.73 12.41
3/12/2021 7:00:00 PM 3.88 38.984 0.273 7.48 6.67 12.41
3/12/2021 7:15:00 PM 3.82 38.876 0.273 7.48 6.66 12.4
3/12/2021 7:30:00 PM 3.78 38.804 0.273 7.47 6.62 12.4
3/12/2021 7:45:00 PM 3.73 38.714 0.272 7.47 6.62 12.41
3/12/2021 8:00:00 PM 3.69 38.642 0.271 7.46 6.65 12.42
3/12/2021 8:15:00 PM 3.65 38.57 0.27 7.46 6.53 12.42
3/12/2021 8:30:00 PM 3.61 38.498 0.27 7.46 6.49 12.42
3/12/2021 8:45:00 PM 3.58 38.444 0.268 7.46 6.51 12.44
3/12/2021 9:00:00 PM 3.56 38.408 0.268 7.45 6.54 12.45
3/12/2021 9:15:00 PM 3.53 38.354 0.268 7.45 6.48 12.47
3/12/2021 9:30:00 PM 3.52 38.336 0.267 7.45 6.52 12.47
3/12/2021 9:45:00 PM 3.5 38.3 0.267 7.45 6.46 12.47
3/12/2021 10:00:00 PM 3.48 38.264 0.266 7.45 6.66 12.49
3/12/2021 10:15:00 PM 3.46 38.228 0.266 7.45 6.46 12.49
3/12/2021 10:30:00 PM 3.44 38.192 0.265 7.45 6.31 12.52
3/12/2021 10:45:00 PM 3.42 38.156 0.264 7.44 6.55 12.53
3/12/2021 11:00:00 PM 3.39 38.102 0.265 7.45 6.47 12.52
3/12/2021 11:15:00 PM 3.36 38.048 0.266 7.45 6.35 12.54
3/12/2021 11:30:00 PM 3.33 37.994 0.266 7.44 6.46 12.56
3/12/2021 11:45:00 PM 3.28 37.904 0.263 7.45 6.32 12.58
3/13/2021 12:00:00 AM 3.24 37.832 0.264 7.45 6.4 12.58
3/13/2021 12:15:00 AM 3.19 37.742 0.265 7.44 6.46 12.59
3/13/2021 12:30:00 AM 3.14 37.652 0.265 7.45 6.35 12.61
3/13/2021 12:45:00 AM 3.08 37.544 0.265 7.44 6.26 12.62
3/13/2021 1:00:00 AM 3.03 37.454 0.263 7.45 6.34 12.64
3/13/2021 1:15:00 AM 2.99 37.382 0.263 7.45 6.38 12.66
3/13/2021 1:30:00 AM 2.95 37.31 0.264 7.45 6.27 12.66
3/13/2021 1:45:00 AM 2.91 37.238 0.263 7.44 6.31 12.69
3/13/2021 2:00:00 AM 2.87 37.166 0.263 7.44 6.32 12.71
3/13/2021 2:15:00 AM 2.83 37.094 0.264 7.44 6.42 12.72
3/13/2021 2:30:00 AM 2.79 37.022 0.262 7.44 6.45 12.74
3/13/2021 2:45:00 AM 2.75 36.95 0.262 7.44 6.45 12.75
3/13/2021 3:00:00 AM 2.71 36.878 0.263 7.44 6.41 12.77
3/13/2021 3:15:00 AM 2.67 36.806 0.263 7.44 6.46 12.79
3/13/2021 3:30:00 AM 2.63 36.734 0.263 7.44 6.36 12.8
3/13/2021 3:45:00 AM 2.59 36.662 0.261 7.44 6.35 12.82
3/13/2021 4:00:00 AM 2.56 36.608 0.26 7.44 6.53 12.83
3/13/2021 4:15:00 AM 2.52 36.536 0.261 7.44 6.55 12.84
3/13/2021 4:30:00 AM 2.5 36.5 0.26 7.44 6.61 12.85
3/13/2021 4:45:00 AM 2.47 36.446 0.26 7.44 6.36 12.85
3/13/2021 5:00:00 AM 2.45 36.41 0.259 7.44 6.57 12.86
3/13/2021 5:15:00 AM 2.44 36.392 0.258 7.44 6.44 12.87
3/13/2021 5:30:00 AM 2.42 36.356 0.258 7.44 6.48 12.88
3/13/2021 5:45:00 AM 2.4 36.32 0.257 7.44 6.36 12.89
3/13/2021 6:00:00 AM 2.39 36.302 0.256 7.44 6.43 12.89
3/13/2021 6:15:00 AM 2.37 36.266 0.257 7.44 6.56 12.9
3/13/2021 6:30:00 AM 2.36 36.248 0.257 7.44 6.61 12.92
3/13/2021 6:45:00 AM 2.35 36.23 0.254 7.45 6.55 12.94
3/13/2021 7:00:00 AM 2.34 36.212 0.255 7.46 6.65 12.98
3/13/2021 7:15:00 AM 2.34 36.212 0.256 7.47 6.66 13.03
3/13/2021 7:30:00 AM 2.34 36.212 0.256 7.49 6.67 13.1
3/13/2021 7:45:00 AM 2.34 36.212 0.256 7.51 6.58 13.17
3/13/2021 8:00:00 AM 2.35 36.23 0.256 7.52 6.36 13.24
3/13/2021 8:15:00 AM 2.37 36.266 0.254 7.55 6.65 13.31
3/13/2021 8:30:00 AM 2.4 36.32 0.254 7.57 6.64 13.39
3/13/2021 8:45:00 AM 2.44 36.392 0.252 7.59 6.69 13.45
3/13/2021 9:00:00 AM 2.49 36.482 0.252 7.62 6.51 13.51
3/13/2021 9:15:00 AM 2.55 36.59 0.253 7.64 7.28 13.56
3/13/2021 9:30:00 AM 2.62 36.716 0.252 7.67 6.43 13.6
3/13/2021 9:45:00 AM 2.71 36.878 0.251 7.69 6.21 13.62
3/13/2021 10:00:00 AM 2.79 37.022 0.252 7.71 6.53 13.64
3/13/2021 10:15:00 AM 2.89 37.202 0.252 7.74 6.27 13.65
3/13/2021 10:30:00 AM 3 37.4 0.25 7.76 6.28 13.66
3/13/2021 10:45:00 AM 3.11 37.598 0.249 7.78 6.16 13.66
3/13/2021 11:00:00 AM 3.23 37.814 0.249 7.8 6.12 13.66
3/13/2021 11:15:00 AM 3.35 38.03 0.248 7.82 6.16 13.64
3/13/2021 11:30:00 AM 3.48 38.264 0.248 7.84 6.13 13.62
3/13/2021 11:45:00 AM 3.62 38.516 0.248 7.85 5.98 13.61
3/13/2021 12:00:00 PM 3.75 38.75 0.247 7.88 6.28 13.59
3/13/2021 12:15:00 PM 3.88 38.984 0.247 7.89 5.9 13.56
3/13/2021 12:30:00 PM 4 39.2 0.247 7.91 5.98 13.54
3/13/2021 12:45:00 PM 4.11 39.398 0.247 7.92 6.05 13.51
3/13/2021 1:00:00 PM 4.21 39.578 0.246 7.93 6.05 13.47
3/13/2021 1:15:00 PM 4.28 39.704 0.246 7.93 6.16 13.43
3/13/2021 1:30:00 PM 4.34 39.812 0.246 7.93 6.13 13.42
3/13/2021 1:45:00 PM 4.39 39.902 0.246 7.93 6.5 13.39
3/13/2021 2:00:00 PM 4.43 39.974 0.246 7.93 6.45 13.36
3/13/2021 2:15:00 PM 4.44 39.992 0.246 7.93 6.3 13.33
3/13/2021 2:30:00 PM 4.45 40.01 0.246 7.92 5.9 13.29
3/13/2021 2:45:00 PM 4.44 39.992 0.246 7.91 6.05 13.26
3/13/2021 3:00:00 PM 4.42 39.956 0.246 7.9 5.86 13.23
3/13/2021 3:15:00 PM 4.4 39.92 0.245 7.88 6.11 13.2
3/13/2021 3:30:00 PM 4.36 39.848 0.245 7.86 6.21 13.16
3/13/2021 3:45:00 PM 4.3 39.74 0.246 7.84 5.99 13.13
3/13/2021 4:00:00 PM 4.24 39.632 0.246 7.81 6.21 13.08
3/13/2021 4:15:00 PM 4.19 39.542 0.246 7.79 6.09 13.04
3/13/2021 4:30:00 PM 4.13 39.434 0.246 7.75 6.12 12.99
3/13/2021 4:45:00 PM 4.06 39.308 0.246 7.72 6.17 12.94
3/13/2021 5:00:00 PM 3.99 39.182 0.246 7.68 6.13 12.88
3/13/2021 5:15:00 PM 3.92 39.056 0.246 7.65 6.16 12.83
3/13/2021 5:30:00 PM 3.85 38.93 0.247 7.62 6.15 12.78
3/13/2021 5:45:00 PM 3.79 38.822 0.246 7.59 6.23 12.72
3/13/2021 6:00:00 PM 3.72 38.696 0.247 7.56 6.03 12.67
3/13/2021 6:15:00 PM 3.66 38.588 0.247 7.53 6.23 12.61
3/13/2021 6:30:00 PM 3.6 38.48 0.245 7.52 6.34 12.56
3/13/2021 6:45:00 PM 3.55 38.39 0.247 7.5 6.34 12.53
3/13/2021 7:00:00 PM 3.5 38.3 0.247 7.48 6.81 12.51
3/13/2021 7:15:00 PM 3.45 38.21 0.246 7.47 6.3 12.5
3/13/2021 7:30:00 PM 3.4 38.12 0.244 7.46 6.14 12.48
3/13/2021 7:45:00 PM 3.36 38.048 0.246 7.45 5.98 12.48
3/13/2021 8:00:00 PM 3.31 37.958 0.247 7.45 6.09 12.5
3/13/2021 8:15:00 PM 3.27 37.886 0.246 7.44 6.29 12.5
3/13/2021 8:30:00 PM 3.23 37.814 0.247 7.44 6.15 12.51
3/13/2021 8:45:00 PM 3.18 37.724 0.246 7.44 6.1 12.52
3/13/2021 9:00:00 PM 3.14 37.652 0.246 7.43 5.97 12.52
3/13/2021 9:15:00 PM 3.11 37.598 0.245 7.43 6.02 12.53
3/13/2021 9:30:00 PM 3.07 37.526 0.246 7.43 6.17 12.53
3/13/2021 9:45:00 PM 3.04 37.472 0.245 7.43 6.09 12.54
3/13/2021 10:00:00 PM 3 37.4 0.245 7.43 6.19 12.54
3/13/2021 10:15:00 PM 2.98 37.364 0.245 7.42 6.16 12.55
3/13/2021 10:30:00 PM 2.95 37.31 0.245 7.42 6.13 12.56
3/13/2021 10:45:00 PM 2.93 37.274 0.246 7.41 6.04 12.56
3/13/2021 11:00:00 PM 2.9 37.22 0.243 7.42 6.09 12.56
3/13/2021 11:15:00 PM 2.88 37.184 0.244 7.42 5.94 12.58
3/13/2021 11:30:00 PM 2.85 37.13 0.244 7.42 5.97 12.59
3/13/2021 11:45:00 PM 2.84 37.112 0.245 7.42 6.15 12.59
3/14/2021 12:00:00 AM 2.83 37.094 0.245 7.41 6.09 12.59
3/14/2021 12:15:00 AM 2.8 37.04 0.244 7.42 6.03 12.61
3/14/2021 12:30:00 AM 2.78 37.004 0.246 7.41 6.11 12.61
3/14/2021 12:45:00 AM 2.76 36.968 0.246 7.41 5.96 12.62
3/14/2021 1:00:00 AM 2.74 36.932 0.245 7.41 6.12 12.62
3/14/2021 1:15:00 AM 2.72 36.896 0.246 7.41 5.95 12.62
3/14/2021 1:30:00 AM 2.7 36.86 0.246 7.41 6.05 12.63
3/14/2021 1:45:00 AM 2.69 36.842 0.246 7.41 5.95 12.63
3/14/2021 3:00:00 AM 2.65 36.77 0.245 7.41 5.9 12.64
3/14/2021 3:15:00 AM 2.66 36.788 0.245 7.41 5.92 12.64
3/14/2021 3:30:00 AM 2.66 36.788 0.245 7.4 5.99 12.64
3/14/2021 3:45:00 AM 2.65 36.77 0.244 7.41 5.9 12.64
3/14/2021 4:00:00 AM 2.66 36.788 0.244 7.41 5.95 12.63
3/14/2021 4:15:00 AM 2.67 36.806 0.245 7.41 5.91 12.63
3/14/2021 4:30:00 AM 2.68 36.824 0.245 7.4 5.91 12.62
3/14/2021 4:45:00 AM 2.69 36.842 0.244 7.4 5.89 12.62
3/14/2021 5:00:00 AM 2.69 36.842 0.244 7.4 5.91 12.61
3/14/2021 5:15:00 AM 2.69 36.842 0.244 7.41 5.9 12.61
3/14/2021 5:30:00 AM 2.68 36.824 0.243 7.4 5.93 12.61
3/14/2021 5:45:00 AM 2.67 36.806 0.243 7.4 6.04 12.61
3/14/2021 6:00:00 AM 2.67 36.806 0.243 7.4 6.28 12.61
3/14/2021 6:15:00 AM 2.66 36.788 0.243 7.4 6.14 12.61
3/14/2021 6:30:00 AM 2.65 36.77 0.243 7.41 6.08 12.63
3/14/2021 6:45:00 AM 2.64 36.752 0.243 7.42 6.23 12.67
3/14/2021 7:00:00 AM 2.63 36.734 0.244 7.43 6.3 12.72
3/14/2021 7:15:00 AM 2.63 36.734 0.243 7.45 6.01 12.8
3/14/2021 7:30:00 AM 2.64 36.752 0.243 7.47 6.64 12.88
3/14/2021 7:45:00 AM 2.66 36.788 0.243 7.49 6.29 12.98
3/14/2021 8:00:00 AM 2.68 36.824 0.242 7.52 6.81 13.06
3/14/2021 8:15:00 AM 2.74 36.932 0.242 7.54 6.52 13.14
3/14/2021 8:30:00 AM 2.8 37.04 0.242 7.58 6.48 13.22
3/14/2021 8:45:00 AM 2.87 37.166 0.242 7.62 6.46 13.29
3/14/2021 9:00:00 AM 2.95 37.31 0.241 7.65 6.2 13.35
3/14/2021 9:15:00 AM 3.04 37.472 0.241 7.68 6.09 13.4
3/14/2021 9:30:00 AM 3.15 37.67 0.242 7.73 6.24 13.46
3/14/2021 9:45:00 AM 3.27 37.886 0.242 7.77 6.07 13.5
3/14/2021 10:00:00 AM 3.37 38.066 0.242 7.8 6.48 13.49
3/14/2021 11:15:00 AM 3.46 38.228 0.241 7.83 6.43 13.52
3/14/2021 11:30:00 AM 3.59 38.462 0.241 7.87 6.07 13.53
3/14/2021 11:45:00 AM 3.71 38.678 0.242 7.9 6.1 13.52
3/14/2021 12:00:00 PM 3.74 38.732 0.241 7.91 6.16 13.48
3/14/2021 12:15:00 PM 3.83 38.894 0.242 7.94 5.81 13.49
3/14/2021 12:30:00 PM 3.96 39.128 0.241 7.98 5.5 13.51
3/14/2021 12:45:00 PM 4.1 39.38 0.24 8 5.7 13.45
3/14/2021 1:00:00 PM 4.22 39.596 0.241 8.04 5.36 13.46
3/14/2021 1:15:00 PM 4.31 39.758 0.241 8.06 5.55 13.44
3/14/2021 1:30:00 PM 4.41 39.938 0.241 8.1 5.54 13.45
3/14/2021 1:45:00 PM 4.41 39.938 0.242 8.1 5.5 13.43
3/14/2021 2:00:00 PM 4.43 39.974 0.241 8.11 5.54 13.41
3/14/2021 2:15:00 PM 4.44 39.992 0.241 8.11 5.62 13.39
3/14/2021 2:30:00 PM 4.5 40.1 0.241 8.14 5.69 13.4
3/14/2021 2:45:00 PM 4.55 40.19 0.24 8.15 5.44 13.4
3/14/2021 3:00:00 PM 4.56 40.208 0.24 8.16 5.66 13.39
3/14/2021 3:15:00 PM 4.62 40.316 0.24 8.18 5.65 13.39
3/14/2021 3:30:00 PM 4.65 40.37 0.24 8.19 5.44 13.39
3/14/2021 3:45:00 PM 4.63 40.334 0.24 8.19 5.53 13.37
3/14/2021 4:00:00 PM 4.58 40.244 0.239 8.17 5.58 13.34
3/14/2021 4:15:00 PM 4.53 40.154 0.239 8.15 5.49 13.33
3/14/2021 4:30:00 PM 4.49 40.082 0.239 8.14 5.44 13.32
3/14/2021 4:45:00 PM 4.42 39.956 0.239 8.1 5.42 13.26
3/14/2021 5:00:00 PM 4.37 39.866 0.238 8.08 5.49 13.25
3/14/2021 5:15:00 PM 4.3 39.74 0.24 8.06 5.53 13.23
3/14/2021 5:30:00 PM 4.22 39.596 0.24 8 5.67 13.17
3/14/2021 5:45:00 PM 4.16 39.488 0.24 7.96 5.5 13.13
3/14/2021 6:00:00 PM 4.08 39.344 0.24 7.91 5.61 13.08
3/14/2021 6:15:00 PM 3.98 39.164 0.24 7.85 5.36 13.02
3/14/2021 6:30:00 PM 3.88 38.984 0.241 7.79 5.32 12.94
3/14/2021 6:45:00 PM 3.76 38.768 0.241 7.73 5.51 12.86
3/14/2021 7:00:00 PM 3.66 38.588 0.241 7.67 5.45 12.77
3/14/2021 7:15:00 PM 3.56 38.408 0.242 7.62 5.47 12.69
3/14/2021 7:30:00 PM 3.45 38.21 0.241 7.58 5.66 12.63
3/14/2021 7:45:00 PM 3.35 38.03 0.241 7.55 5.5 12.59
3/14/2021 8:00:00 PM 3.26 37.868 0.241 7.53 5.52 12.58
3/14/2021 8:15:00 PM 3.16 37.688 0.24 7.51 5.48 12.56
3/14/2021 8:30:00 PM 3.08 37.544 0.241 7.49 5.54 12.56
3/14/2021 8:45:00 PM 3 37.4 0.241 7.48 5.47 12.56
3/14/2021 9:00:00 PM 2.93 37.274 0.241 7.47 5.59 12.56
3/14/2021 9:15:00 PM 2.86 37.148 0.241 7.46 5.56 12.58
3/14/2021 9:30:00 PM 2.81 37.058 0.24 7.46 5.54 12.59
3/14/2021 9:45:00 PM 2.76 36.968 0.241 7.46 5.47 12.61
3/14/2021 10:00:00 PM 2.72 36.896 0.242 7.45 5.37 12.62
3/14/2021 10:15:00 PM 2.68 36.824 0.242 7.44 5.63 12.63
3/14/2021 10:30:00 PM 2.63 36.734 0.241 7.44 5.47 12.65
3/14/2021 10:45:00 PM 2.61 36.698 0.241 7.43 5.54 12.66
3/14/2021 11:00:00 PM 2.58 36.644 0.241 7.44 5.52 12.67
3/14/2021 11:15:00 PM 2.52 36.536 0.24 7.44 5.45 12.68
3/14/2021 11:30:00 PM 2.49 36.482 0.241 7.44 5.4 12.7
3/14/2021 11:45:00 PM 2.45 36.41 0.24 7.43 5.54 12.71
3/15/2021 12:00:00 AM 2.39 36.302 0.241 7.43 5.67 12.72
3/15/2021 12:15:00 AM 2.35 36.23 0.241 7.43 5.42 12.74
3/15/2021 12:30:00 AM 2.32 36.176 0.241 7.43 5.4 12.75
3/15/2021 12:45:00 AM 2.28 36.104 0.24 7.43 5.61 12.76
3/15/2021 1:00:00 AM 2.25 36.05 0.24 7.43 5.4 12.78
3/15/2021 1:15:00 AM 2.21 35.978 0.239 7.43 5.51 12.79
3/15/2021 1:30:00 AM 2.18 35.924 0.239 7.43 5.49 12.81
3/15/2021 1:45:00 AM 2.15 35.87 0.24 7.43 5.36 12.82
3/15/2021 2:00:00 AM 2.12 35.816 0.239 7.42 5.57 12.84
3/15/2021 2:15:00 AM 2.07 35.726 0.239 7.43 5.52 12.86
3/15/2021 2:30:00 AM 2.04 35.672 0.238 7.43 5.5 12.87
3/15/2021 2:45:00 AM 2.03 35.654 0.238 7.42 5.37 12.89
3/15/2021 3:00:00 AM 1.99 35.582 0.239 7.42 5.47 12.9
3/15/2021 3:15:00 AM 1.97 35.546 0.238 7.42 5.56 12.9
3/15/2021 3:30:00 AM 1.94 35.492 0.237 7.42 5.54 12.91
3/15/2021 3:45:00 AM 1.91 35.438 0.237 7.42 5.37 12.93
3/15/2021 4:00:00 AM 1.9 35.42 0.237 7.42 5.43 12.93
3/15/2021 4:15:00 AM 1.88 35.384 0.237 7.42 5.43 12.94
3/15/2021 4:30:00 AM 1.86 35.348 0.237 7.42 5.49 12.95
3/15/2021 4:45:00 AM 1.84 35.312 0.238 7.42 5.48 12.95
3/15/2021 5:00:00 AM 1.82 35.276 0.238 7.42 5.34 12.95
3/15/2021 5:15:00 AM 1.8 35.24 0.237 7.42 5.5 12.96
3/15/2021 5:30:00 AM 1.77 35.186 0.237 7.42 5.45 12.96
3/15/2021 5:45:00 AM 1.75 35.15 0.237 7.42 5.41 12.97
3/15/2021 6:00:00 AM 1.71 35.078 0.239 7.42 5.35 12.98
3/15/2021 6:15:00 AM 1.68 35.024 0.239 7.42 5.43 12.99
3/15/2021 6:30:00 AM 1.65 34.97 0.239 7.42 5.34 13.01
3/15/2021 6:45:00 AM 1.62 34.916 0.24 7.42 5.38 13.03
3/15/2021 7:00:00 AM 1.6 34.88 0.241 7.42 5.3 13.04
3/15/2021 7:15:00 AM 1.59 34.862 0.24 7.42 5.39 13.05
3/15/2021 7:30:00 AM 1.55 34.79 0.241 7.43 5.48 13.1
3/15/2021 7:45:00 AM 1.53 34.754 0.241 7.43 5.4 13.16
3/15/2021 8:00:00 AM 1.51 34.718 0.239 7.46 5.39 13.24
3/15/2021 8:15:00 AM 1.51 34.718 0.241 7.48 5.33 13.32
3/15/2021 8:30:00 AM 1.5 34.7 0.241 7.5 5.4 13.43
3/15/2021 8:45:00 AM 1.52 34.736 0.241 7.53 5.31 13.55
3/15/2021 9:00:00 AM 1.53 34.754 0.241 7.56 5.39 13.64
3/15/2021 9:15:00 AM 1.56 34.808 0.241 7.59 5.48 13.74
3/15/2021 9:30:00 AM 1.59 34.862 0.241 7.63 5.41 13.85
3/15/2021 9:45:00 AM 1.62 34.916 0.242 7.66 5.3 13.92
3/15/2021 10:00:00 AM 1.63 34.934 0.243 7.7 5.36 13.99
3/15/2021 10:15:00 AM 1.69 35.042 0.242 7.73 5.29 14.04
3/15/2021 10:30:00 AM 1.75 35.15 0.243 7.76 5.32 14.09
3/15/2021 10:45:00 AM 1.82 35.276 0.245 7.79 5.33 14.14
3/15/2021 11:00:00 AM 1.9 35.42 0.245 7.83 5.2 14.17
3/15/2021 11:15:00 AM 2 35.6 0.245 7.86 5.35 14.2
3/15/2021 11:30:00 AM 2.12 35.816 0.245 7.89 5.3 14.19
3/15/2021 11:45:00 AM 2.26 36.068 0.245 7.91 5.14 14.19
3/15/2021 12:00:00 PM 2.41 36.338 0.244 7.94 5.26 14.18
3/15/2021 12:15:00 PM 2.56 36.608 0.244 7.96 5.28 14.17
3/15/2021 12:30:00 PM 2.71 36.878 0.244 7.99 5.19 14.14
3/15/2021 12:45:00 PM 2.87 37.166 0.243 8.01 5.28 14.1
3/15/2021 1:00:00 PM 3.03 37.454 0.243 8.04 5.13 14.06
3/15/2021 1:15:00 PM 3.2 37.76 0.243 8.06 5.23 14.03
3/15/2021 1:30:00 PM 3.39 38.102 0.242 8.08 5.23 13.98
3/15/2021 1:45:00 PM 3.55 38.39 0.242 8.1 5.3 13.93
3/15/2021 2:00:00 PM 3.71 38.678 0.242 8.11 5.16 13.87
3/15/2021 2:15:00 PM 3.87 38.966 0.242 8.13 5.31 13.82
3/15/2021 2:30:00 PM 3.98 39.164 0.242 8.14 5.08 13.78
3/15/2021 2:45:00 PM 4.08 39.344 0.242 8.15 5.09 13.73
3/15/2021 3:00:00 PM 4.15 39.47 0.242 8.16 5.26 13.69
3/15/2021 3:15:00 PM 4.2 39.56 0.242 8.16 5.13 13.65
3/15/2021 3:30:00 PM 4.23 39.614 0.243 8.16 5.19 13.62
3/15/2021 3:45:00 PM 4.22 39.596 0.244 8.16 5.09 13.58
3/15/2021 4:00:00 PM 4.22 39.596 0.244 8.15 5.17 13.54
3/15/2021 4:15:00 PM 4.21 39.578 0.243 8.13 5.06 13.51
3/15/2021 4:30:00 PM 4.17 39.506 0.243 8.11 4.99 13.48
3/15/2021 4:45:00 PM 4.11 39.398 0.243 8.09 4.98 13.45
3/15/2021 5:00:00 PM 4.02 39.236 0.243 8.05 5.16 13.4
3/15/2021 5:15:00 PM 3.94 39.092 0.243 8 5.15 13.36
3/15/2021 5:30:00 PM 3.84 38.912 0.242 7.97 5.03 13.35
3/15/2021 5:45:00 PM 3.74 38.732 0.242 7.95 5.09 13.34
3/15/2021 6:00:00 PM 3.65 38.57 0.241 7.9 5.21 13.29
3/15/2021 6:15:00 PM 3.56 38.408 0.242 7.85 5.01 13.23
3/15/2021 6:30:00 PM 3.45 38.21 0.242 7.8 5.09 13.18
3/15/2021 6:45:00 PM 3.35 38.03 0.241 7.75 5.09 13.12
3/15/2021 7:00:00 PM 3.24 37.832 0.242 7.69 5.05 13.03
3/15/2021 7:15:00 PM 3.14 37.652 0.242 7.64 4.96 12.94
3/15/2021 7:30:00 PM 3.05 37.49 0.242 7.6 5.17 12.87
3/15/2021 7:45:00 PM 2.97 37.346 0.243 7.57 5.06 12.81
3/15/2021 8:00:00 PM 2.89 37.202 0.243 7.54 5.03 12.78
3/15/2021 8:15:00 PM 2.81 37.058 0.243 7.52 5.09 12.76
3/15/2021 8:30:00 PM 2.73 36.914 0.242 7.5 5.31 12.75
3/15/2021 8:45:00 PM 2.66 36.788 0.243 7.49 5.3 12.74
3/15/2021 9:00:00 PM 2.6 36.68 0.243 7.48 5 12.73
3/15/2021 9:15:00 PM 2.55 36.59 0.242 7.47 5.05 12.74
3/15/2021 9:30:00 PM 2.51 36.518 0.242 7.46 5.14 12.75
3/15/2021 9:45:00 PM 2.47 36.446 0.242 7.46 5.11 12.75
3/15/2021 10:00:00 PM 2.43 36.374 0.242 7.44 5.11 12.74
3/15/2021 10:15:00 PM 2.39 36.302 0.243 7.45 5.06 12.75
3/15/2021 10:30:00 PM 2.36 36.248 0.243 7.44 5.03 12.75
3/15/2021 10:45:00 PM 2.32 36.176 0.242 7.43 7.67 12.76
3/15/2021 11:00:00 PM 2.3 36.14 0.242 7.44 5.06 12.77
3/15/2021 11:15:00 PM 2.26 36.068 0.242 7.43 5.01 12.77
3/15/2021 11:30:00 PM 2.23 36.014 0.242 7.43 4.95 12.79
3/15/2021 11:45:00 PM 2.21 35.978 0.242 7.43 5.1 12.8
3/16/2021 12:00:00 AM 2.18 35.924 0.242 7.43 5.02 12.81
3/16/2021 12:15:00 AM 2.15 35.87 0.241 7.42 5.13 12.82
3/16/2021 12:30:00 AM 2.13 35.834 0.242 7.42 4.9 12.83
3/16/2021 12:45:00 AM 2.12 35.816 0.243 7.41 5.04 12.82
3/16/2021 1:00:00 AM 2.1 35.78 0.243 7.42 4.99 12.84
3/16/2021 1:15:00 AM 2.08 35.744 0.242 7.42 4.9 12.84
3/16/2021 1:30:00 AM 2.07 35.726 0.243 7.42 5.04 12.85
3/16/2021 1:45:00 AM 2.06 35.708 0.243 7.42 5.06 12.85
3/16/2021 2:00:00 AM 2.05 35.69 0.243 7.41 5.05 12.86
3/16/2021 2:15:00 AM 2.03 35.654 0.242 7.41 5.04 12.86
3/16/2021 2:30:00 AM 2.01 35.618 0.243 7.42 4.88 12.87
3/16/2021 2:45:00 AM 2.01 35.618 0.243 7.41 5.25 12.87
3/16/2021 3:00:00 AM 2.01 35.618 0.243 7.41 6.33 12.87
3/16/2021 3:15:00 AM 2 35.6 0.243 7.41 8.19 12.87
3/16/2021 3:30:00 AM 2 35.6 0.243 7.41 10.31 12.87
3/16/2021 3:45:00 AM 2 35.6 0.242 7.41 12.5 12.88
3/16/2021 4:00:00 AM 1.99 35.582 0.242 7.41 13.36 12.88
3/16/2021 4:15:00 AM 1.98 35.564 0.242 7.41 14.18 12.87
3/16/2021 4:30:00 AM 1.98 35.564 0.243 7.41 13.91 12.87
3/16/2021 4:45:00 AM 1.98 35.564 0.243 7.41 12.81 12.87
3/16/2021 5:00:00 AM 1.98 35.564 0.242 7.4 12.54 12.87
3/16/2021 5:15:00 AM 1.98 35.564 0.243 7.41 10.81 12.86
3/16/2021 5:30:00 AM 1.99 35.582 0.243 7.41 9.85 12.87
3/16/2021 5:45:00 AM 1.99 35.582 0.244 7.41 9.37 12.87
3/16/2021 6:00:00 AM 2 35.6 0.244 7.41 8.97 12.86
3/16/2021 6:15:00 AM 2 35.6 0.244 7.41 8.4 12.86
3/16/2021 6:30:00 AM 2 35.6 0.244 7.41 7.94 12.86
3/16/2021 6:45:00 AM 2 35.6 0.244 7.41 8.26 12.86
3/16/2021 7:00:00 AM 2 35.6 0.245 7.41 7.33 12.86
3/16/2021 7:15:00 AM 2 35.6 0.245 7.41 7.11 12.87
3/16/2021 7:30:00 AM 2 35.6 0.245 7.42 7.04 12.89
3/16/2021 7:45:00 AM 2 35.6 0.245 7.44 6.55 12.96
3/16/2021 8:00:00 AM 2.02 35.636 0.245 7.46 6.37 13.04
3/16/2021 8:15:00 AM 2.03 35.654 0.246 7.47 6.18 13.13
3/16/2021 8:30:00 AM 2.05 35.69 0.245 7.5 6.05 13.22
3/16/2021 8:45:00 AM 2.07 35.726 0.245 7.52 5.93 13.28
3/16/2021 9:00:00 AM 2.1 35.78 0.245 7.55 5.88 13.36
3/16/2021 9:15:00 AM 2.12 35.816 0.246 7.57 5.55 13.44
3/16/2021 9:30:00 AM 2.17 35.906 0.245 7.63 5.5 13.6
3/16/2021 9:45:00 AM 2.2 35.96 0.246 7.68 5.56 13.71
3/16/2021 10:00:00 AM 2.24 36.032 0.246 7.72 5.23 13.79
3/16/2021 10:15:00 AM 2.29 36.122 0.246 7.76 5.31 13.85
3/16/2021 10:30:00 AM 2.32 36.176 0.246 7.8 5.37 13.89
3/16/2021 10:45:00 AM 2.4 36.32 0.246 7.86 5.11 13.99
3/16/2021 11:00:00 AM 2.42 36.356 0.246 7.87 5.19 13.98
3/16/2021 11:15:00 AM 2.46 36.428 0.246 7.91 5.23 14.02
3/16/2021 11:30:00 AM 2.51 36.518 0.246 7.95 5.17 14.04
3/16/2021 11:45:00 AM 2.54 36.572 0.245 7.96 5.22 14
3/16/2021 12:00:00 PM 2.58 36.644 0.246 7.98 5.02 14.01
3/16/2021 12:15:00 PM 2.61 36.698 0.246 7.98 5.04 13.97
3/16/2021 12:30:00 PM 2.63 36.734 0.246 7.97 5.11 13.94
3/16/2021 12:45:00 PM 2.67 36.806 0.246 8 5.01 13.95
3/16/2021 1:00:00 PM 2.74 36.932 0.246 8.05 4.84 14
3/16/2021 1:15:00 PM 2.79 37.022 0.245 8.1 5.08 14.03
3/16/2021 1:30:00 PM 2.87 37.166 0.245 8.14 4.95 14.06
3/16/2021 1:45:00 PM 2.91 37.238 0.245 8.17 4.91 14.05
3/16/2021 2:00:00 PM 2.93 37.274 0.245 8.17 4.93 14.01
3/16/2021 2:15:00 PM 2.95 37.31 0.245 8.18 4.85 13.98
3/16/2021 2:30:00 PM 2.96 37.328 0.245 8.17 4.87 13.97
3/16/2021 2:45:00 PM 2.98 37.364 0.245 8.17 5.01 13.94
3/16/2021 3:00:00 PM 3 37.4 0.245 8.18 4.92 13.93
3/16/2021 3:15:00 PM 2.99 37.382 0.245 8.13 4.85 13.85
3/16/2021 3:30:00 PM 3 37.4 0.245 8.12 4.92 13.84
3/16/2021 3:45:00 PM 3.03 37.454 0.246 8.15 4.86 13.85
3/16/2021 4:00:00 PM 3.05 37.49 0.246 8.16 4.77 13.86
3/16/2021 4:15:00 PM 3.06 37.508 0.246 8.13 4.86 13.83
3/16/2021 4:30:00 PM 3.06 37.508 0.246 8.11 4.91 13.77
3/16/2021 4:45:00 PM 3.06 37.508 0.246 8.06 4.81 13.7
3/16/2021 5:00:00 PM 3.06 37.508 0.245 7.98 4.83 13.58
3/16/2021 5:15:00 PM 3.05 37.49 0.246 7.91 4.87 13.46
3/16/2021 5:30:00 PM 3.05 37.49 0.247 7.86 4.89 13.38
3/16/2021 5:45:00 PM 3.01 37.418 0.247 7.8 4.81 13.29
3/16/2021 6:00:00 PM 2.98 37.364 0.247 7.78 4.93 13.25
3/16/2021 6:15:00 PM 2.97 37.346 0.247 7.74 4.99 13.16
3/16/2021 6:30:00 PM 2.96 37.328 0.247 7.7 5.45 13.09
3/16/2021 6:45:00 PM 2.96 37.328 0.247 7.66 5.62 12.98
3/16/2021 7:00:00 PM 2.95 37.31 0.248 7.62 6.3 12.89
3/16/2021 7:15:00 PM 2.94 37.292 0.248 7.58 6.69 12.81
3/16/2021 7:30:00 PM 2.93 37.274 0.248 7.56 6.92 12.74
3/16/2021 7:45:00 PM 2.92 37.256 0.248 7.53 7.16 12.69
3/16/2021 8:00:00 PM 2.9 37.22 0.249 7.52 7.26 12.65
3/16/2021 8:15:00 PM 2.88 37.184 0.249 7.5 6.96 12.62
3/16/2021 8:30:00 PM 2.87 37.166 0.249 7.49 7.22 12.6
3/16/2021 8:45:00 PM 2.85 37.13 0.249 7.48 7.01 12.58
3/16/2021 9:00:00 PM 2.84 37.112 0.249 7.47 6.7 12.57
3/16/2021 9:15:00 PM 2.83 37.094 0.249 7.47 6.69 12.56
3/16/2021 9:30:00 PM 2.82 37.076 0.25 7.46 6.46 12.56
3/16/2021 9:45:00 PM 2.81 37.058 0.25 7.46 6.11 12.55
3/16/2021 10:00:00 PM 2.8 37.04 0.25 7.45 6 12.55
3/16/2021 10:15:00 PM 2.8 37.04 0.25 7.45 5.8 12.54
3/16/2021 10:30:00 PM 2.79 37.022 0.25 7.44 5.65 12.55
3/16/2021 10:45:00 PM 2.79 37.022 0.25 7.44 5.57 12.55
3/16/2021 11:00:00 PM 2.78 37.004 0.25 7.44 5.56 12.55
3/16/2021 11:15:00 PM 2.78 37.004 0.25 7.44 5.53 12.54
3/16/2021 11:30:00 PM 2.78 37.004 0.25 7.43 5.44 12.55
3/16/2021 11:45:00 PM 2.78 37.004 0.251 7.43 5.32 12.54
3/17/2021 12:00:00 AM 2.78 37.004 0.251 7.42 5.31 12.54
3/17/2021 12:15:00 AM 2.78 37.004 0.25 7.43 5.48 12.54
3/17/2021 12:30:00 AM 2.78 37.004 0.25 7.43 5.37 12.54
3/17/2021 12:45:00 AM 2.78 37.004 0.25 7.42 5.59 12.54
3/17/2021 1:00:00 AM 2.78 37.004 0.25 7.43 5.57 12.53
3/17/2021 1:15:00 AM 2.78 37.004 0.249 7.43 6.03 12.53
3/17/2021 1:30:00 AM 2.79 37.022 0.25 7.42 6.21 12.53
3/17/2021 1:45:00 AM 2.79 37.022 0.25 7.42 6.4 12.54
3/17/2021 2:00:00 AM 2.79 37.022 0.249 7.42 6.61 12.53
3/17/2021 2:15:00 AM 2.79 37.022 0.249 7.42 6.84 12.52
3/17/2021 2:30:00 AM 2.8 37.04 0.249 7.42 6.67 12.53
3/17/2021 2:45:00 AM 2.8 37.04 0.249 7.42 6.63 12.52
3/17/2021 3:00:00 AM 2.81 37.058 0.249 7.42 6.29 12.52
3/17/2021 3:15:00 AM 2.81 37.058 0.249 7.42 6.3 12.51
3/17/2021 3:30:00 AM 2.81 37.058 0.248 7.42 6.08 12.51
3/17/2021 3:45:00 AM 2.82 37.076 0.248 7.42 6.02 12.51
3/17/2021 4:00:00 AM 2.82 37.076 0.248 7.42 5.79 12.51
3/17/2021 4:15:00 AM 2.83 37.094 0.248 7.41 5.69 12.49
3/17/2021 4:30:00 AM 2.83 37.094 0.247 7.41 5.57 12.5
3/17/2021 4:45:00 AM 2.84 37.112 0.247 7.41 5.42 12.5
3/17/2021 5:00:00 AM 2.84 37.112 0.247 7.41 5.42 12.5
3/17/2021 5:15:00 AM 2.84 37.112 0.247 7.41 5.29 12.49
3/17/2021 5:30:00 AM 2.85 37.13 0.247 7.41 5.37 12.49
3/17/2021 5:45:00 AM 2.86 37.148 0.247 7.4 5.33 12.48
3/17/2021 6:00:00 AM 2.86 37.148 0.246 7.41 5.21 12.48
3/17/2021 6:15:00 AM 2.87 37.166 0.246 7.41 5.29 12.49
3/17/2021 6:30:00 AM 2.87 37.166 0.246 7.41 5.17 12.48
3/17/2021 6:45:00 AM 2.88 37.184 0.246 7.41 5.2 12.49
3/17/2021 7:00:00 AM 2.88 37.184 0.246 7.41 5.11 12.49
3/17/2021 7:15:00 AM 2.88 37.184 0.246 7.41 5.16 12.49
3/17/2021 7:30:00 AM 2.89 37.202 0.246 7.42 4.97 12.5
3/17/2021 7:45:00 AM 2.9 37.22 0.245 7.42 5 12.53
3/17/2021 8:00:00 AM 2.9 37.22 0.245 7.43 4.96 12.56
3/17/2021 8:15:00 AM 2.91 37.238 0.245 7.45 5.03 12.63
3/17/2021 8:30:00 AM 2.92 37.256 0.245 7.47 4.98 12.73
3/17/2021 8:45:00 AM 2.94 37.292 0.244 7.49 5.1 12.83
3/17/2021 9:00:00 AM 2.96 37.328 0.244 7.52 4.92 12.95
3/17/2021 9:15:00 AM 2.99 37.382 0.244 7.57 5.05 13.1
3/17/2021 9:30:00 AM 3.02 37.436 0.244 7.62 4.87 13.26
3/17/2021 9:45:00 AM 3.06 37.508 0.243 7.67 4.86 13.38
3/17/2021 10:00:00 AM 3.11 37.598 0.243 7.72 4.99 13.5
3/17/2021 10:15:00 AM 3.15 37.67 0.243 7.77 5 13.61
3/17/2021 10:30:00 AM 3.2 37.76 0.242 7.83 4.78 13.68
3/17/2021 10:45:00 AM 3.24 37.832 0.242 7.88 4.79 13.74
3/17/2021 11:00:00 AM 3.31 37.958 0.242 7.95 4.82 13.81
3/17/2021 11:15:00 AM 3.38 38.084 0.242 8.02 4.87 13.87
3/17/2021 11:30:00 AM 3.45 38.21 0.242 8.09 4.78 13.92
3/17/2021 11:45:00 AM 3.52 38.336 0.242 8.14 4.86 13.92
3/17/2021 12:00:00 PM 3.59 38.462 0.241 8.19 4.7 13.95
3/17/2021 12:15:00 PM 3.68 38.624 0.241 8.25 4.66 13.98
3/17/2021 12:30:00 PM 3.8 38.84 0.241 8.31 4.75 13.99
3/17/2021 12:45:00 PM 3.86 38.948 0.241 8.36 4.73 13.99
3/17/2021 1:00:00 PM 3.96 39.128 0.241 8.4 4.81 13.97
3/17/2021 1:15:00 PM 4.04 39.272 0.24 8.43 4.73 13.95
3/17/2021 1:30:00 PM 4.14 39.452 0.24 8.46 4.79 13.94
3/17/2021 1:45:00 PM 4.25 39.65 0.24 8.49 4.7 13.92
3/17/2021 2:00:00 PM 4.36 39.848 0.24 8.53 4.69 13.9
3/17/2021 2:15:00 PM 4.47 40.046 0.24 8.55 4.7 13.88
3/17/2021 2:30:00 PM 4.58 40.244 0.24 8.58 4.74 13.86
3/17/2021 2:45:00 PM 4.71 40.478 0.239 8.6 4.75 13.82
3/17/2021 3:00:00 PM 4.83 40.694 0.24 8.61 4.62 13.78
3/17/2021 3:15:00 PM 4.95 40.91 0.24 8.61 4.67 13.71
3/17/2021 3:30:00 PM 5.07 41.126 0.24 8.61 4.58 13.67
3/17/2021 3:45:00 PM 5.15 41.27 0.24 8.61 4.65 13.63
3/17/2021 4:00:00 PM 5.18 41.324 0.24 8.61 4.77 13.57
3/17/2021 4:15:00 PM 5.19 41.342 0.24 8.61 4.69 13.54
3/17/2021 4:30:00 PM 5.21 41.378 0.24 8.59 4.65 13.49
3/17/2021 4:45:00 PM 5.24 41.432 0.24 8.58 4.62 13.44
3/17/2021 5:00:00 PM 5.26 41.468 0.24 8.57 4.69 13.4
3/17/2021 5:15:00 PM 5.25 41.45 0.241 8.53 4.5 13.33
3/17/2021 5:30:00 PM 5.23 41.414 0.241 8.47 4.57 13.26
3/17/2021 5:45:00 PM 5.19 41.342 0.241 8.4 4.68 13.18
3/17/2021 6:00:00 PM 5.15 41.27 0.241 8.31 4.58 13.08
3/17/2021 6:15:00 PM 5.1 41.18 0.242 8.2 4.67 12.98
3/17/2021 6:30:00 PM 5.04 41.072 0.242 8.07 4.67 12.83
3/17/2021 6:45:00 PM 4.97 40.946 0.243 7.95 4.71 12.69
3/17/2021 7:00:00 PM 4.89 40.802 0.243 7.84 4.58 12.54
3/17/2021 7:15:00 PM 4.81 40.658 0.243 7.75 4.57 12.41
3/17/2021 7:30:00 PM 4.73 40.514 0.244 7.68 4.69 12.29
3/17/2021 7:45:00 PM 4.67 40.406 0.244 7.63 4.59 12.21
3/17/2021 8:00:00 PM 4.59 40.262 0.244 7.59 4.69 12.14
3/17/2021 8:15:00 PM 4.51 40.118 0.245 7.57 4.59 12.11
3/17/2021 8:30:00 PM 4.43 39.974 0.245 7.54 4.66 12.08
3/17/2021 8:45:00 PM 4.36 39.848 0.245 7.52 4.63 12.07
3/17/2021 9:00:00 PM 4.29 39.722 0.245 7.5 4.61 12.06
3/17/2021 9:15:00 PM 4.22 39.596 0.245 7.5 4.56 12.05
3/17/2021 9:30:00 PM 4.16 39.488 0.246 7.48 4.54 12.06
3/17/2021 9:45:00 PM 4.11 39.398 0.245 7.47 4.46 12.07
3/17/2021 10:00:00 PM 4.06 39.308 0.245 7.46 4.61 12.07
3/17/2021 10:15:00 PM 4.02 39.236 0.245 7.46 4.58 12.08
3/17/2021 10:30:00 PM 3.99 39.182 0.245 7.45 4.61 12.09
3/17/2021 10:45:00 PM 3.96 39.128 0.245 7.45 4.52 12.09
3/17/2021 11:00:00 PM 3.94 39.092 0.245 7.44 4.63 12.1
3/17/2021 11:15:00 PM 3.92 39.056 0.245 7.44 4.56 12.11
3/17/2021 11:30:00 PM 3.91 39.038 0.245 7.44 4.55 12.11
3/17/2021 11:45:00 PM 3.89 39.002 0.245 7.44 4.56 12.11
3/18/2021 12:00:00 AM 3.88 38.984 0.245 7.43 4.52 12.11
3/18/2021 12:15:00 AM 3.88 38.984 0.245 7.43 4.54 12.1
3/18/2021 12:30:00 AM 3.88 38.984 0.245 7.43 4.59 12.11
3/18/2021 12:45:00 AM 3.88 38.984 0.245 7.43 4.58 12.1
3/18/2021 1:00:00 AM 3.88 38.984 0.244 7.42 4.5 12.11
3/18/2021 1:15:00 AM 3.88 38.984 0.244 7.42 4.57 12.1
3/18/2021 1:30:00 AM 3.88 38.984 0.244 7.42 4.48 12.1
3/18/2021 1:45:00 AM 3.88 38.984 0.244 7.42 4.56 12.1
3/18/2021 2:00:00 AM 3.89 39.002 0.243 7.42 4.45 12.1
3/18/2021 2:15:00 AM 3.89 39.002 0.244 7.42 4.63 12.09
3/18/2021 2:30:00 AM 3.9 39.02 0.244 7.42 4.53 12.08
3/18/2021 2:45:00 AM 3.91 39.038 0.243 7.41 4.46 12.07
3/18/2021 3:00:00 AM 3.91 39.038 0.243 7.41 4.54 12.08
3/18/2021 3:15:00 AM 3.92 39.056 0.243 7.41 4.55 12.07
3/18/2021 3:30:00 AM 3.92 39.056 0.242 7.41 4.52 12.07
3/18/2021 3:45:00 AM 3.92 39.056 0.242 7.41 4.53 12.07
3/18/2021 4:00:00 AM 3.92 39.056 0.242 7.4 4.47 12.05
3/18/2021 4:15:00 AM 3.92 39.056 0.242 7.4 4.53 12.05
3/18/2021 4:30:00 AM 3.93 39.074 0.242 7.4 4.44 12.06
3/18/2021 4:45:00 AM 3.93 39.074 0.242 7.4 4.56 12.05
3/18/2021 5:00:00 AM 3.93 39.074 0.242 7.4 4.49 12.05
3/18/2021 5:15:00 AM 3.93 39.074 0.241 7.4 4.56 12.05
3/18/2021 5:30:00 AM 3.93 39.074 0.241 7.4 4.51 12.04
3/18/2021 5:45:00 AM 3.92 39.056 0.241 7.39 4.53 12.04
3/18/2021 6:00:00 AM 3.92 39.056 0.241 7.39 4.57 12.04
3/18/2021 6:15:00 AM 3.92 39.056 0.241 7.4 4.53 12.04
3/18/2021 6:30:00 AM 3.92 39.056 0.241 7.4 4.45 12.04
3/18/2021 6:45:00 AM 3.92 39.056 0.242 7.4 4.46 12.04
3/18/2021 7:00:00 AM 3.91 39.038 0.241 7.4 4.53 12.03
3/18/2021 7:15:00 AM 3.91 39.038 0.241 7.4 4.51 12.04
3/18/2021 7:30:00 AM 3.91 39.038 0.241 7.4 4.55 12.06
3/18/2021 7:45:00 AM 3.91 39.038 0.241 7.4 4.45 12.07
3/18/2021 8:00:00 AM 3.91 39.038 0.241 7.41 4.39 12.1
3/18/2021 8:15:00 AM 3.92 39.056 0.241 7.42 4.45 12.16
3/18/2021 8:30:00 AM 3.92 39.056 0.241 7.43 4.44 12.21
3/18/2021 8:45:00 AM 3.93 39.074 0.24 7.45 4.5 12.28
3/18/2021 9:00:00 AM 3.94 39.092 0.24 7.48 4.41 12.41
3/18/2021 9:15:00 AM 3.96 39.128 0.239 7.5 4.46 12.48
3/18/2021 9:30:00 AM 3.97 39.146 0.24 7.52 4.61 12.56
3/18/2021 9:45:00 AM 3.99 39.182 0.24 7.55 4.81 12.64
3/18/2021 10:00:00 AM 4.01 39.218 0.24 7.57 4.73 12.69
3/18/2021 10:15:00 AM 4.04 39.272 0.24 7.6 4.92 12.78
3/18/2021 10:30:00 AM 4.07 39.326 0.241 7.62 5.09 12.83
3/18/2021 10:45:00 AM 4.08 39.344 0.242 7.63 5.29 12.8
3/18/2021 11:00:00 AM 4.1 39.38 0.242 7.62 5.38 12.77
3/18/2021 11:15:00 AM 4.12 39.416 0.241 7.63 5.46 12.78
3/18/2021 11:30:00 AM 4.14 39.452 0.24 7.64 6.04 12.79
3/18/2021 11:45:00 AM 4.17 39.506 0.241 7.65 7.36 12.82
3/18/2021 12:00:00 PM 4.19 39.542 0.243 7.68 8.41 12.89
3/18/2021 12:15:00 PM 4.22 39.596 0.246 7.71 9.67 12.92
3/18/2021 12:30:00 PM 4.24 39.632 0.247 7.72 9.45 12.96
3/18/2021 12:45:00 PM 4.27 39.686 0.248 7.74 9.49 12.97
3/18/2021 1:00:00 PM 4.29 39.722 0.253 7.75 10.39 12.97
3/18/2021 1:15:00 PM 4.32 39.776 0.258 7.79 11.32 13.03
3/18/2021 1:30:00 PM 4.36 39.848 0.267 7.81 11.93 13.06
3/18/2021 1:45:00 PM 4.39 39.902 0.275 7.8 13.22 13.02
3/18/2021 2:00:00 PM 4.41 39.938 0.281 7.77 16.44 12.93
3/18/2021 2:15:00 PM 4.43 39.974 0.285 7.74 18.81 12.84
3/18/2021 2:30:00 PM 4.45 40.01 0.287 7.7 16.51 12.74
3/18/2021 2:45:00 PM 4.46 40.028 0.286 7.67 27.55 12.68
3/18/2021 3:00:00 PM 4.45 40.01 0.285 7.63 28.25 12.6
3/18/2021 3:15:00 PM 4.42 39.956 0.286 7.59 19.38 12.53
3/18/2021 3:30:00 PM 4.41 39.938 0.288 7.58 21.53 12.5
3/18/2021 3:45:00 PM 4.4 39.92 0.29 7.56 27.69 12.47
3/18/2021 4:00:00 PM 4.38 39.884 0.294 7.54 24.47 12.43
3/18/2021 4:15:00 PM 4.36 39.848 0.305 7.52 33.45 12.38
3/18/2021 4:30:00 PM 4.36 39.848 0.323 7.51 21.52 12.36
3/18/2021 4:45:00 PM 4.35 39.83 0.336 7.5 42.44 12.34
3/18/2021 5:00:00 PM 4.34 39.812 0.333 7.48 27.79 12.31
3/18/2021 5:15:00 PM 4.32 39.776 0.325 7.47 40.22 12.3
3/18/2021 5:30:00 PM 4.3 39.74 0.315 7.46 37.41 12.28
3/18/2021 5:45:00 PM 4.27 39.686 0.304 7.44 30.5 12.28
3/18/2021 6:00:00 PM 4.24 39.632 0.296 7.44 42.66 12.27
3/18/2021 6:15:00 PM 4.2 39.56 0.288 7.43 31.11 12.27
3/18/2021 6:30:00 PM 4.17 39.506 0.285 7.42 35.56 12.26
3/18/2021 6:45:00 PM 4.12 39.416 0.28 7.41 28.32 12.26
3/18/2021 7:00:00 PM 4.09 39.362 0.276 7.4 33.78 12.27
3/18/2021 7:15:00 PM 4.06 39.308 0.273 7.4 31.71 12.27
3/18/2021 7:30:00 PM 4.02 39.236 0.271 7.39 32.01 12.28
3/18/2021 7:45:00 PM 3.99 39.182 0.269 7.39 29.33 12.29
3/18/2021 8:00:00 PM 3.96 39.128 0.268 7.38 31.12 12.29
3/18/2021 8:15:00 PM 3.93 39.074 0.266 7.38 26.85 12.31
3/18/2021 8:30:00 PM 3.9 39.02 0.265 7.38 25.33 12.32
3/18/2021 8:45:00 PM 3.87 38.966 0.264 7.38 22.98 12.33
3/18/2021 9:00:00 PM 3.84 38.912 0.263 7.37 20.07 12.34
3/18/2021 9:15:00 PM 3.82 38.876 0.262 7.38 22.02 12.35
3/18/2021 9:30:00 PM 3.79 38.822 0.261 7.38 23.43 12.37
3/18/2021 9:45:00 PM 3.77 38.786 0.261 7.38 19.44 12.38
3/18/2021 10:00:00 PM 3.74 38.732 0.261 7.38 20.02 12.39
3/18/2021 10:15:00 PM 3.73 38.714 0.259 7.38 19.31 12.4
3/18/2021 10:30:00 PM 3.71 38.678 0.259 7.38 18.8 12.4
3/18/2021 10:45:00 PM 3.69 38.642 0.258 7.38 19.04 12.41
3/18/2021 11:00:00 PM 3.67 38.606 0.257 7.39 16.05 12.42
3/18/2021 11:15:00 PM 3.65 38.57 0.256 7.39 16.6 12.43
3/18/2021 11:30:00 PM 3.62 38.516 0.255 7.39 26.31 12.44
3/18/2021 11:45:00 PM 3.6 38.48 0.254 7.39 15.22 12.45
3/19/2021 12:00:00 AM 3.57 38.426 0.252 7.39 13.99 12.46
3/19/2021 12:15:00 AM 3.55 38.39 0.25 7.39 13.29 12.48
3/19/2021 12:30:00 AM 3.52 38.336 0.248 7.39 12.6 12.49
3/19/2021 12:45:00 AM 3.49 38.282 0.249 7.39 12.11 12.5
3/19/2021 1:00:00 AM 3.46 38.228 0.249 7.39 11.73 12.52
3/19/2021 1:15:00 AM 3.43 38.174 0.248 7.39 11.02 12.53
3/19/2021 1:30:00 AM 3.41 38.138 0.246 7.4 10.24 12.54
3/19/2021 1:45:00 AM 3.38 38.084 0.245 7.4 10.53 12.55
3/19/2021 2:00:00 AM 3.36 38.048 0.245 7.4 9.87 12.56
3/19/2021 2:15:00 AM 3.34 38.012 0.245 7.4 9.86 12.57
3/19/2021 2:30:00 AM 3.32 37.976 0.243 7.4 9.12 12.58
3/19/2021 2:45:00 AM 3.29 37.922 0.243 7.4 8.91 12.59
3/19/2021 3:00:00 AM 3.27 37.886 0.233 7.4 8.55 12.6
3/19/2021 3:15:00 AM 3.24 37.832 0.242 7.4 8.42 12.61
3/19/2021 3:30:00 AM 3.21 37.778 0.241 7.4 7.96 12.62
3/19/2021 3:45:00 AM 3.18 37.724 0.241 7.4 8.05 12.64
3/19/2021 4:00:00 AM 3.14 37.652 0.24 7.4 7.66 12.66
3/19/2021 4:15:00 AM 3.11 37.598 0.238 7.41 7.48 12.67
3/19/2021 4:30:00 AM 3.07 37.526 0.238 7.41 7.18 12.67
3/19/2021 4:45:00 AM 3.04 37.472 0.237 7.41 6.96 12.68
3/19/2021 5:00:00 AM 3 37.4 0.237 7.41 6.97 12.69
3/19/2021 5:15:00 AM 2.97 37.346 0.238 7.41 6.66 12.7
3/19/2021 5:30:00 AM 2.93 37.274 0.238 7.41 6.35 12.72
3/19/2021 5:45:00 AM 2.89 37.202 0.239 7.4 6.34 12.73
3/19/2021 6:00:00 AM 2.87 37.166 0.238 7.41 6.26 12.74
3/19/2021 6:15:00 AM 2.83 37.094 0.238 7.41 6 12.76
3/19/2021 6:30:00 AM 2.79 37.022 0.239 7.41 6.12 12.78
3/19/2021 6:45:00 AM 2.75 36.95 0.24 7.41 6.15 12.79
3/19/2021 7:00:00 AM 2.72 36.896 0.24 7.41 5.95 12.8
3/19/2021 7:15:00 AM 2.69 36.842 0.239 7.41 6.02 12.82
3/19/2021 7:30:00 AM 2.65 36.77 0.238 7.41 5.88 12.84
3/19/2021 7:45:00 AM 2.63 36.734 0.24 7.42 5.66 12.87
3/19/2021 8:00:00 AM 2.61 36.698 0.242 7.43 5.74 12.92
3/19/2021 8:15:00 AM 2.6 36.68 0.242 7.45 5.79 12.99
3/19/2021 8:30:00 AM 2.61 36.698 0.242 7.46 5.58 13.05
3/19/2021 8:45:00 AM 2.63 36.734 0.242 7.48 5.7 13.12
3/19/2021 9:00:00 AM 2.64 36.752 0.242 7.5 5.47 13.18
3/19/2021 9:15:00 AM 2.64 36.752 0.242 7.51 5.39 13.21
3/19/2021 9:30:00 AM 2.65 36.77 0.239 7.52 5.33 13.24
3/19/2021 9:45:00 AM 2.68 36.824 0.24 7.54 5.26 13.27
3/19/2021 10:00:00 AM 2.71 36.878 0.241 7.55 5.18 13.3
3/19/2021 10:15:00 AM 2.76 36.968 0.241 7.57 5.2 13.33
3/19/2021 10:30:00 AM 2.82 37.076 0.239 7.58 5.07 13.35
3/19/2021 10:45:00 AM 2.9 37.22 0.239 7.59 5.04 13.37
3/19/2021 11:00:00 AM 2.98 37.364 0.239 7.6 5.11 13.37
3/19/2021 11:15:00 AM 3.07 37.526 0.24 7.62 4.93 13.38
3/19/2021 11:30:00 AM 3.16 37.688 0.24 7.63 4.77 13.38
3/19/2021 11:45:00 AM 3.27 37.886 0.242 7.64 4.94 13.38
3/19/2021 12:00:00 PM 3.39 38.102 0.241 7.65 4.93 13.37
3/19/2021 12:15:00 PM 3.5 38.3 0.239 7.67 4.85 13.35
3/19/2021 12:30:00 PM 3.62 38.516 0.241 7.68 4.9 13.34
3/19/2021 12:45:00 PM 3.74 38.732 0.241 7.69 4.97 13.33
3/19/2021 1:00:00 PM 3.86 38.948 0.241 7.7 4.94 13.32
3/19/2021 1:15:00 PM 3.97 39.146 0.24 7.71 4.88 13.3
3/19/2021 1:30:00 PM 4.07 39.326 0.24 7.72 4.77 13.28
3/19/2021 1:45:00 PM 4.16 39.488 0.239 7.73 4.84 13.25
3/19/2021 2:00:00 PM 4.24 39.632 0.24 7.73 4.79 13.23
3/19/2021 2:15:00 PM 4.29 39.722 0.24 7.73 4.92 13.21
3/19/2021 2:30:00 PM 4.34 39.812 0.241 7.73 5 13.19
3/19/2021 2:45:00 PM 4.38 39.884 0.241 7.73 5.01 13.17
3/19/2021 3:00:00 PM 4.4 39.92 0.241 7.73 4.96 13.15
3/19/2021 3:15:00 PM 4.4 39.92 0.241 7.73 5.05 13.13
3/19/2021 3:30:00 PM 4.4 39.92 0.242 7.72 5.01 13.12
3/19/2021 3:45:00 PM 4.39 39.902 0.241 7.72 5.01 13.1
3/19/2021 4:00:00 PM 4.37 39.866 0.241 7.72 5.18 13.08
3/19/2021 4:15:00 PM 4.34 39.812 0.242 7.71 5.14 13.05
3/19/2021 4:30:00 PM 4.3 39.74 0.243 7.69 5.1 13.03
3/19/2021 4:45:00 PM 4.25 39.65 0.242 7.68 5.15 13.01
3/19/2021 5:00:00 PM 4.19 39.542 0.242 7.67 5.23 12.98
3/19/2021 5:15:00 PM 4.13 39.434 0.242 7.65 5.12 12.96
3/19/2021 5:30:00 PM 4.06 39.308 0.242 7.64 5.04 12.94
3/19/2021 5:45:00 PM 3.99 39.182 0.243 7.61 5.19 12.91
3/19/2021 6:00:00 PM 3.91 39.038 0.242 7.59 5.37 12.88
3/19/2021 6:15:00 PM 3.84 38.912 0.241 7.57 5.44 12.85
3/19/2021 6:30:00 PM 3.77 38.786 0.242 7.55 5.14 12.81
3/19/2021 6:45:00 PM 3.7 38.66 0.243 7.53 5.35 12.78
3/19/2021 7:00:00 PM 3.64 38.552 0.243 7.52 5.09 12.75
3/19/2021 7:15:00 PM 3.58 38.444 0.242 7.49 5.02 12.71
3/19/2021 7:30:00 PM 3.53 38.354 0.243 7.48 5.21 12.69
3/19/2021 7:45:00 PM 3.48 38.264 0.242 7.47 5.16 12.66
3/19/2021 8:00:00 PM 3.43 38.174 0.243 7.45 5.13 12.65
3/19/2021 8:15:00 PM 3.38 38.084 0.243 7.44 5.04 12.65
3/19/2021 8:30:00 PM 3.34 38.012 0.243 7.44 5 12.65
3/19/2021 8:45:00 PM 3.3 37.94 0.243 7.43 5.17 12.66
3/19/2021 9:00:00 PM 3.26 37.868 0.242 7.43 4.9 12.65
3/19/2021 9:15:00 PM 3.22 37.796 0.242 7.42 4.99 12.67
3/19/2021 9:30:00 PM 3.18 37.724 0.243 7.42 5.2 12.68
3/19/2021 9:45:00 PM 3.15 37.67 0.243 7.42 5.01 12.69
3/19/2021 10:00:00 PM 3.11 37.598 0.243 7.42 5.16 12.69
3/19/2021 10:15:00 PM 3.08 37.544 0.243 7.42 4.99 12.71
3/19/2021 10:30:00 PM 3.05 37.49 0.242 7.41 4.92 12.73
3/19/2021 10:45:00 PM 3.02 37.436 0.242 7.41 5 12.73
3/19/2021 11:00:00 PM 2.99 37.382 0.242 7.41 4.81 12.74
3/19/2021 11:15:00 PM 2.96 37.328 0.242 7.41 4.94 12.75
3/19/2021 11:30:00 PM 2.93 37.274 0.242 7.41 4.98 12.76
3/19/2021 11:45:00 PM 2.9 37.22 0.243 7.41 4.87 12.78
3/20/2021 12:00:00 AM 2.86 37.148 0.243 7.41 4.83 12.79
3/20/2021 12:15:00 AM 2.83 37.094 0.242 7.41 4.81 12.81
3/20/2021 12:30:00 AM 2.8 37.04 0.243 7.41 4.78 12.82
3/20/2021 12:45:00 AM 2.77 36.986 0.243 7.41 4.78 12.83
3/20/2021 1:00:00 AM 2.74 36.932 0.243 7.41 4.82 12.83
3/20/2021 1:15:00 AM 2.72 36.896 0.242 7.41 4.8 12.84
3/20/2021 1:30:00 AM 2.69 36.842 0.243 7.41 4.72 12.85
3/20/2021 1:45:00 AM 2.66 36.788 0.243 7.4 4.89 12.87
3/20/2021 2:00:00 AM 2.64 36.752 0.242 7.41 4.77 12.87
3/20/2021 2:15:00 AM 2.62 36.716 0.241 7.4 4.76 12.88
3/20/2021 2:30:00 AM 2.59 36.662 0.241 7.41 4.68 12.9
3/20/2021 2:45:00 AM 2.57 36.626 0.243 7.41 4.55 12.9
3/20/2021 3:00:00 AM 2.54 36.572 0.243 7.41 4.75 12.92
3/20/2021 3:15:00 AM 2.51 36.518 0.244 7.4 4.64 12.92
3/20/2021 3:30:00 AM 2.49 36.482 0.244 7.4 4.44 12.93
3/20/2021 3:45:00 AM 2.47 36.446 0.243 7.4 4.74 12.94
3/20/2021 4:00:00 AM 2.44 36.392 0.242 7.4 4.67 12.94
3/20/2021 4:15:00 AM 2.42 36.356 0.243 7.4 4.65 12.95
3/20/2021 4:30:00 AM 2.4 36.32 0.244 7.4 4.67 12.96
3/20/2021 4:45:00 AM 2.38 36.284 0.244 7.4 4.5 12.96
3/20/2021 5:00:00 AM 2.36 36.248 0.242 7.4 4.42 12.97
3/20/2021 5:15:00 AM 2.34 36.212 0.243 7.4 4.44 12.97
3/20/2021 5:30:00 AM 2.32 36.176 0.244 7.4 4.42 12.98
3/20/2021 5:45:00 AM 2.29 36.122 0.244 7.4 4.37 12.99
3/20/2021 6:00:00 AM 2.27 36.086 0.245 7.4 5.01 13
3/20/2021 6:15:00 AM 2.26 36.068 0.244 7.4 4.48 13
3/20/2021 6:30:00 AM 2.24 36.032 0.245 7.4 4.36 13.01
3/20/2021 6:45:00 AM 2.23 36.014 0.245 7.4 4.36 13.01
3/20/2021 7:00:00 AM 2.21 35.978 0.244 7.4 4.52 13.02
3/20/2021 7:15:00 AM 2.19 35.942 0.244 7.41 4.35 13.04
3/20/2021 7:30:00 AM 2.18 35.924 0.244 7.41 4.45 13.07
3/20/2021 7:45:00 AM 2.17 35.906 0.243 7.42 4.4 13.11
3/20/2021 8:00:00 AM 2.17 35.906 0.244 7.43 4.38 13.16
3/20/2021 8:15:00 AM 2.17 35.906 0.244 7.44 4.31 13.23
3/20/2021 8:30:00 AM 2.19 35.942 0.244 7.46 4.54 13.31
3/20/2021 8:45:00 AM 2.22 35.996 0.243 7.49 4.48 13.37
3/20/2021 9:00:00 AM 2.26 36.068 0.244 7.51 4.2 13.43
3/20/2021 9:15:00 AM 2.32 36.176 0.244 7.53 4.33 13.49
3/20/2021 9:30:00 AM 2.39 36.302 0.243 7.55 4.34 13.54
3/20/2021 9:45:00 AM 2.47 36.446 0.243 7.58 4.32 13.59
3/20/2021 10:00:00 AM 2.56 36.608 0.243 7.6 4.44 13.63
3/20/2021 10:15:00 AM 2.66 36.788 0.243 7.62 4.22 13.66
3/20/2021 10:30:00 AM 2.78 37.004 0.243 7.64 4.09 13.67
3/20/2021 10:45:00 AM 2.91 37.238 0.243 7.67 4.24 13.68
3/20/2021 11:00:00 AM 3.05 37.49 0.242 7.69 4.27 13.68
3/20/2021 11:15:00 AM 3.2 37.76 0.242 7.71 4.24 13.68
3/20/2021 11:30:00 AM 3.36 38.048 0.241 7.73 4.01 13.67
3/20/2021 11:45:00 AM 3.53 38.354 0.243 7.75 4.12 13.64
3/20/2021 12:00:00 PM 3.71 38.678 0.243 7.77 4.07 13.62
3/20/2021 12:15:00 PM 3.89 39.002 0.242 7.79 4.24 13.59
3/20/2021 12:30:00 PM 4.07 39.326 0.242 7.8 4.14 13.55
3/20/2021 12:45:00 PM 4.26 39.668 0.243 7.81 4.28 13.5
3/20/2021 1:00:00 PM 4.45 40.01 0.241 7.84 3.95 13.47
3/20/2021 1:15:00 PM 4.64 40.352 0.241 7.85 4.13 13.43
3/20/2021 1:30:00 PM 4.82 40.676 0.242 7.86 4.12 13.38
3/20/2021 1:45:00 PM 4.99 40.982 0.242 7.87 4.01 13.33
3/20/2021 2:00:00 PM 5.14 41.252 0.242 7.88 4.01 13.3
3/20/2021 2:15:00 PM 5.27 41.486 0.241 7.89 4.16 13.25
3/20/2021 2:30:00 PM 5.38 41.684 0.241 7.9 4.27 13.21
3/20/2021 2:45:00 PM 5.45 41.81 0.241 7.9 4.25 13.17
3/20/2021 3:00:00 PM 5.51 41.918 0.242 7.9 4.33 13.13
3/20/2021 3:15:00 PM 5.57 42.026 0.242 7.9 4.51 13.09
3/20/2021 3:30:00 PM 5.6 42.08 0.242 7.9 4.51 13.06
3/20/2021 3:45:00 PM 5.62 42.116 0.242 7.89 4.34 13.03
3/20/2021 4:00:00 PM 5.62 42.116 0.241 7.89 4.27 12.99
3/20/2021 4:15:00 PM 5.61 42.098 0.242 7.87 4.07 12.96
3/20/2021 4:30:00 PM 5.58 42.044 0.242 7.86 4.51 12.92
3/20/2021 4:45:00 PM 5.54 41.972 0.242 7.84 4.36 12.89
3/20/2021 5:00:00 PM 5.48 41.864 0.242 7.82 4.32 12.85
3/20/2021 5:15:00 PM 5.41 41.738 0.241 7.79 4.39 12.81
3/20/2021 5:30:00 PM 5.33 41.594 0.242 7.77 4.1 12.78
3/20/2021 5:45:00 PM 5.25 41.45 0.243 7.74 4.18 12.73
3/20/2021 6:00:00 PM 5.17 41.306 0.243 7.7 4.21 12.69
3/20/2021 6:15:00 PM 5.07 41.126 0.244 7.67 4.22 12.63
3/20/2021 6:30:00 PM 4.97 40.946 0.244 7.63 4.23 12.56
3/20/2021 6:45:00 PM 4.87 40.766 0.242 7.6 4.12 12.52
3/20/2021 7:00:00 PM 4.78 40.604 0.243 7.57 4.19 12.48
3/20/2021 7:15:00 PM 4.68 40.424 0.244 7.54 4.27 12.43
3/20/2021 7:30:00 PM 4.59 40.262 0.243 7.52 4.19 12.39
3/20/2021 7:45:00 PM 4.5 40.1 0.244 7.49 4.17 12.36
3/20/2021 8:00:00 PM 4.41 39.938 0.244 7.48 4.13 12.34
3/20/2021 8:15:00 PM 4.34 39.812 0.244 7.46 4.22 12.32
3/20/2021 8:30:00 PM 4.26 39.668 0.244 7.45 4.12 12.32
3/20/2021 8:45:00 PM 4.19 39.542 0.244 7.44 4.12 12.32
3/20/2021 9:00:00 PM 4.12 39.416 0.244 7.44 4.18 12.33
3/20/2021 9:15:00 PM 4.06 39.308 0.243 7.43 4.12 12.35
3/20/2021 9:30:00 PM 3.99 39.182 0.244 7.43 4.02 12.36
3/20/2021 9:45:00 PM 3.93 39.074 0.244 7.42 4.2 12.37
3/20/2021 10:00:00 PM 3.87 38.966 0.244 7.41 4.23 12.38
3/20/2021 10:15:00 PM 3.81 38.858 0.244 7.41 4 12.4
3/20/2021 10:30:00 PM 3.76 38.768 0.244 7.42 4.12 12.42
3/20/2021 10:45:00 PM 3.71 38.678 0.244 7.41 4.08 12.44
3/20/2021 11:00:00 PM 3.66 38.588 0.244 7.41 4.07 12.45
3/20/2021 11:15:00 PM 3.61 38.498 0.242 7.41 4.06 12.46
3/20/2021 11:30:00 PM 3.56 38.408 0.243 7.41 4.1 12.47
3/20/2021 11:45:00 PM 3.52 38.336 0.243 7.41 4.07 12.49
3/21/2021 12:00:00 AM 3.47 38.246 0.243 7.41 4.17 12.52
3/21/2021 12:15:00 AM 3.43 38.174 0.242 7.41 4.08 12.53
3/21/2021 12:30:00 AM 3.39 38.102 0.242 7.4 3.89 12.53
3/21/2021 12:45:00 AM 3.35 38.03 0.24 7.4 3.92 12.56
3/21/2021 1:00:00 AM 3.32 37.976 0.242 7.4 3.97 12.56
3/21/2021 1:15:00 AM 3.28 37.904 0.242 7.4 3.97 12.58
3/21/2021 1:30:00 AM 3.25 37.85 0.242 7.4 4.01 12.58
3/21/2021 1:45:00 AM 3.21 37.778 0.241 7.4 3.83 12.6
3/21/2021 2:00:00 AM 3.18 37.724 0.241 7.4 3.89 12.61
3/21/2021 2:15:00 AM 3.14 37.652 0.242 7.4 3.85 12.62
3/21/2021 2:30:00 AM 3.11 37.598 0.242 7.39 3.96 12.63
3/21/2021 2:45:00 AM 3.07 37.526 0.24 7.4 3.89 12.64
3/21/2021 3:00:00 AM 3.04 37.472 0.241 7.4 3.93 12.65
3/21/2021 3:15:00 AM 3 37.4 0.241 7.4 4.04 12.67
3/21/2021 3:30:00 AM 2.97 37.346 0.241 7.4 3.86 12.67
3/21/2021 3:45:00 AM 2.94 37.292 0.24 7.4 3.95 12.69
3/21/2021 4:00:00 AM 2.91 37.238 0.24 7.4 3.93 12.69
3/21/2021 4:15:00 AM 2.88 37.184 0.241 7.39 4.04 12.7
3/21/2021 4:30:00 AM 2.85 37.13 0.24 7.4 3.87 12.72
3/21/2021 4:45:00 AM 2.82 37.076 0.239 7.39 3.89 12.72
3/21/2021 5:00:00 AM 2.79 37.022 0.239 7.39 3.93 12.74
3/21/2021 5:15:00 AM 2.77 36.986 0.24 7.39 3.94 12.75
3/21/2021 5:30:00 AM 2.74 36.932 0.238 7.39 3.94 12.76
3/21/2021 5:45:00 AM 2.72 36.896 0.239 7.39 3.99 12.77
3/21/2021 6:00:00 AM 2.69 36.842 0.239 7.39 3.89 12.78
3/21/2021 6:15:00 AM 2.66 36.788 0.239 7.39 3.89 12.78
3/21/2021 6:30:00 AM 2.64 36.752 0.239 7.39 3.96 12.8
3/21/2021 6:45:00 AM 2.61 36.698 0.239 7.39 4.12 12.81
3/21/2021 7:00:00 AM 2.59 36.662 0.238 7.39 3.99 12.82
3/21/2021 7:15:00 AM 2.57 36.626 0.238 7.39 3.91 12.84
3/21/2021 7:30:00 AM 2.55 36.59 0.239 7.4 4.09 12.88
3/21/2021 7:45:00 AM 2.54 36.572 0.238 7.41 4 12.94
3/21/2021 8:00:00 AM 2.53 36.554 0.239 7.43 3.91 13.01
3/21/2021 8:15:00 AM 2.54 36.572 0.239 7.44 3.95 13.09
3/21/2021 8:30:00 AM 2.56 36.608 0.238 7.47 3.89 13.2
3/21/2021 8:45:00 AM 2.59 36.662 0.237 7.49 4.09 13.28
3/21/2021 9:00:00 AM 2.64 36.752 0.238 7.52 4.39 13.35
3/21/2021 9:15:00 AM 2.71 36.878 0.238 7.55 4 13.43
3/21/2021 9:30:00 AM 2.79 37.022 0.237 7.58 3.89 13.49
3/21/2021 9:45:00 AM 2.87 37.166 0.237 7.6 4.11 13.54
3/21/2021 10:00:00 AM 2.98 37.364 0.237 7.64 4.03 13.58
3/21/2021 10:15:00 AM 3.1 37.58 0.237 7.66 4.12 13.62
3/21/2021 10:30:00 AM 3.24 37.832 0.235 7.7 3.93 13.65
3/21/2021 10:45:00 AM 3.39 38.102 0.234 7.72 4.09 13.66
3/21/2021 11:00:00 AM 3.56 38.408 0.236 7.76 4.19 13.66
3/21/2021 11:15:00 AM 3.74 38.732 0.236 7.78 3.95 13.66
3/21/2021 11:30:00 AM 3.93 39.074 0.235 7.81 4.09 13.64
3/21/2021 11:45:00 AM 4.14 39.452 0.235 7.83 4.03 13.6
3/21/2021 12:00:00 PM 4.34 39.812 0.235 7.86 4.08 13.57
3/21/2021 12:15:00 PM 4.55 40.19 0.234 7.88 3.9 13.55
3/21/2021 12:30:00 PM 4.78 40.604 0.233 7.91 4.06 13.49
3/21/2021 12:45:00 PM 5 41 0.233 7.93 3.96 13.44
3/21/2021 1:00:00 PM 5.22 41.396 0.234 7.95 4.04 13.4
3/21/2021 1:15:00 PM 5.44 41.792 0.234 7.97 4.15 13.33
3/21/2021 1:30:00 PM 5.66 42.188 0.234 7.99 4.02 13.28
3/21/2021 1:45:00 PM 5.86 42.548 0.233 8.01 4.12 13.23
3/21/2021 2:00:00 PM 6.05 42.89 0.233 8.02 4.09 13.17
3/21/2021 2:15:00 PM 6.21 43.178 0.234 8.03 4.17 13.11
3/21/2021 2:30:00 PM 6.34 43.412 0.234 8.04 4.2 13.07
3/21/2021 2:45:00 PM 6.45 43.61 0.234 8.06 4.09 13.03
3/21/2021 3:00:00 PM 6.53 43.754 0.233 8.06 4.07 12.98
3/21/2021 3:15:00 PM 6.59 43.862 0.232 8.06 4.08 12.94
3/21/2021 3:30:00 PM 6.62 43.916 0.233 8.04 4.13 12.89
3/21/2021 3:45:00 PM 6.63 43.934 0.233 8.05 4.51 12.86
3/21/2021 4:00:00 PM 6.61 43.898 0.233 8.04 4.14 12.84
3/21/2021 4:15:00 PM 6.6 43.88 0.233 8.02 4.08 12.8
3/21/2021 4:30:00 PM 6.58 43.844 0.233 8 4.11 12.75
3/21/2021 4:45:00 PM 6.56 43.808 0.233 7.98 4.08 12.7
3/21/2021 5:00:00 PM 6.52 43.736 0.233 7.95 3.97 12.66
3/21/2021 5:15:00 PM 6.46 43.628 0.234 7.92 3.89 12.62
3/21/2021 5:30:00 PM 6.38 43.484 0.233 7.87 4.09 12.56
3/21/2021 5:45:00 PM 6.3 43.34 0.234 7.83 4.16 12.51
3/21/2021 6:00:00 PM 6.2 43.16 0.234 7.79 3.98 12.43
3/21/2021 6:15:00 PM 6.09 42.962 0.234 7.74 4.16 12.37
3/21/2021 6:30:00 PM 5.99 42.782 0.232 7.68 4.1 12.29
3/21/2021 6:45:00 PM 5.88 42.584 0.232 7.64 4.23 12.22
3/21/2021 7:00:00 PM 5.76 42.368 0.233 7.6 4.22 12.17
3/21/2021 7:15:00 PM 5.65 42.17 0.234 7.57 4.11 12.11
3/21/2021 7:30:00 PM 5.53 41.954 0.234 7.53 4.25 12.05
3/21/2021 7:45:00 PM 5.41 41.738 0.234 7.51 4.4 12.02
3/21/2021 8:00:00 PM 5.3 41.54 0.233 7.48 4.29 12
3/21/2021 8:15:00 PM 5.19 41.342 0.235 7.47 4.09 11.99
3/21/2021 8:30:00 PM 5.09 41.162 0.235 7.45 4.12 12
3/21/2021 8:45:00 PM 5 41 0.235 7.44 4.16 12
3/21/2021 9:00:00 PM 4.91 40.838 0.234 7.44 4.3 11.99
3/21/2021 9:15:00 PM 4.83 40.694 0.234 7.43 4.25 12.01
3/21/2021 9:30:00 PM 4.75 40.55 0.235 7.42 4.56 12.03
3/21/2021 9:45:00 PM 4.67 40.406 0.235 7.42 4.3 12.05
3/21/2021 10:00:00 PM 4.59 40.262 0.235 7.42 4.23 12.07
3/21/2021 10:15:00 PM 4.52 40.136 0.235 7.4 4.24 12.08
3/21/2021 10:30:00 PM 4.45 40.01 0.234 7.41 4.24 12.12
3/21/2021 10:45:00 PM 4.38 39.884 0.235 7.41 4.22 12.13
3/21/2021 11:00:00 PM 4.31 39.758 0.235 7.4 4.47 12.15
3/21/2021 11:15:00 PM 4.26 39.668 0.235 7.4 4.38 12.15
3/21/2021 11:30:00 PM 4.2 39.56 0.235 7.4 4.26 12.17
3/21/2021 11:45:00 PM 4.15 39.47 0.235 7.4 4.28 12.19
3/22/2021 12:00:00 AM 4.1 39.38 0.235 7.4 4.32 12.19
3/22/2021 12:15:00 AM 4.05 39.29 0.233 7.39 4.1 12.23
3/22/2021 12:30:00 AM 4 39.2 0.234 7.4 4.06 12.23
3/22/2021 12:45:00 AM 3.95 39.11 0.234 7.39 4.1 12.25
3/22/2021 1:00:00 AM 3.9 39.02 0.234 7.39 4.26 12.27
3/22/2021 1:15:00 AM 3.85 38.93 0.234 7.39 4.31 12.28
3/22/2021 1:30:00 AM 3.8 38.84 0.234 7.39 4.16 12.31
3/22/2021 1:45:00 AM 3.76 38.768 0.234 7.39 3.93 12.32
3/22/2021 2:00:00 AM 3.71 38.678 0.234 7.39 4.15 12.33
3/22/2021 2:15:00 AM 3.67 38.606 0.234 7.39 4.15 12.34
3/22/2021 2:30:00 AM 3.62 38.516 0.235 7.38 4.14 12.35
3/22/2021 2:45:00 AM 3.58 38.444 0.234 7.39 4.57 12.37
3/22/2021 3:00:00 AM 3.54 38.372 0.233 7.39 4.02 12.38
3/22/2021 3:15:00 AM 3.49 38.282 0.234 7.38 4.16 12.39
3/22/2021 3:30:00 AM 3.45 38.21 0.235 7.38 4.24 12.42
3/22/2021 3:45:00 AM 3.41 38.138 0.235 7.39 4.03 12.43
3/22/2021 4:00:00 AM 3.37 38.066 0.235 7.38 4.25 12.44
3/22/2021 4:15:00 AM 3.33 37.994 0.235 7.39 4.34 12.45
3/22/2021 4:30:00 AM 3.3 37.94 0.236 7.38 4.05 12.47
3/22/2021 4:45:00 AM 3.26 37.868 0.236 7.38 4.4 12.47
3/22/2021 5:00:00 AM 3.23 37.814 0.235 7.39 4.05 12.49
3/22/2021 5:15:00 AM 3.2 37.76 0.235 7.38 4.16 12.5
3/22/2021 5:30:00 AM 3.16 37.688 0.236 7.39 4.11 12.51
3/22/2021 5:45:00 AM 3.13 37.634 0.236 7.38 4.31 12.53
3/22/2021 6:00:00 AM 3.1 37.58 0.236 7.38 4.27 12.52
3/22/2021 6:15:00 AM 3.07 37.526 0.235 7.38 4.05 12.54
3/22/2021 6:30:00 AM 3.04 37.472 0.236 7.38 4.18 12.55
3/22/2021 6:45:00 AM 3.01 37.418 0.236 7.37 4.33 12.56
3/22/2021 7:00:00 AM 2.99 37.382 0.236 7.38 4.26 12.57
3/22/2021 7:15:00 AM 2.96 37.328 0.236 7.39 4.37 12.6
3/22/2021 7:30:00 AM 2.94 37.292 0.235 7.4 4.04 12.65
3/22/2021 7:45:00 AM 2.92 37.256 0.235 7.41 4.08 12.72
3/22/2021 8:00:00 AM 2.92 37.256 0.235 7.43 4.35 12.8
3/22/2021 8:15:00 AM 2.92 37.256 0.234 7.45 4.16 12.9
3/22/2021 8:30:00 AM 2.94 37.292 0.234 7.48 4.16 13.02
3/22/2021 8:45:00 AM 2.97 37.346 0.235 7.51 4.24 13.14
3/22/2021 9:00:00 AM 3.02 37.436 0.235 7.53 4.08 13.22
3/22/2021 9:15:00 AM 3.08 37.544 0.235 7.58 4.05 13.32
3/22/2021 9:30:00 AM 3.17 37.706 0.235 7.61 4.13 13.41
3/22/2021 9:45:00 AM 3.26 37.868 0.234 7.64 4.18 13.47
3/22/2021 10:00:00 AM 3.38 38.084 0.235 7.68 4.12 13.52
3/22/2021 10:15:00 AM 3.51 38.318 0.234 7.71 4.25 13.55
3/22/2021 10:30:00 AM 3.65 38.57 0.234 7.75 4.12 13.58
3/22/2021 10:45:00 AM 3.82 38.876 0.234 7.79 4.18 13.6
3/22/2021 11:00:00 AM 4.01 39.218 0.234 7.83 4.08 13.61
3/22/2021 11:15:00 AM 4.21 39.578 0.234 7.87 4.25 13.59
3/22/2021 11:30:00 AM 4.42 39.956 0.234 7.91 4.04 13.58
3/22/2021 11:45:00 AM 4.64 40.352 0.233 7.94 4.34 13.56
3/22/2021 12:00:00 PM 4.86 40.748 0.232 7.97 4.28 13.52
3/22/2021 12:15:00 PM 5.08 41.144 0.232 8.01 4.09 13.49
3/22/2021 12:30:00 PM 5.31 41.558 0.233 8.04 4.11 13.44
3/22/2021 12:45:00 PM 5.54 41.972 0.232 8.07 3.98 13.38
3/22/2021 1:00:00 PM 5.78 42.404 0.232 8.1 3.98 13.33
3/22/2021 1:15:00 PM 6.02 42.836 0.232 8.13 3.99 13.26
3/22/2021 1:30:00 PM 6.25 43.25 0.232 8.15 4.06 13.2
3/22/2021 1:45:00 PM 6.48 43.664 0.232 8.18 4.03 13.15
3/22/2021 2:00:00 PM 6.68 44.024 0.232 8.2 3.85 13.08
3/22/2021 2:15:00 PM 6.88 44.384 0.232 8.22 4.06 13.01
3/22/2021 2:30:00 PM 7.04 44.672 0.232 8.23 3.91 12.97
3/22/2021 2:45:00 PM 7.17 44.906 0.231 8.24 3.98 12.91
3/22/2021 3:00:00 PM 7.27 45.086 0.232 8.25 4.27 12.85
3/22/2021 3:15:00 PM 7.34 45.212 0.232 8.25 4.09 12.8
3/22/2021 3:30:00 PM 7.39 45.302 0.231 8.25 3.98 12.75
3/22/2021 3:45:00 PM 7.42 45.356 0.232 8.24 4.02 12.7
3/22/2021 4:00:00 PM 7.43 45.374 0.232 8.23 3.96 12.66
3/22/2021 4:15:00 PM 7.43 45.374 0.232 8.21 3.95 12.62
3/22/2021 4:30:00 PM 7.41 45.338 0.231 8.19 3.98 12.58
3/22/2021 4:45:00 PM 7.39 45.302 0.23 8.16 4.19 12.53
3/22/2021 5:00:00 PM 7.34 45.212 0.23 8.12 3.97 12.48
3/22/2021 5:15:00 PM 7.27 45.086 0.232 8.08 4.06 12.43
3/22/2021 5:30:00 PM 7.18 44.924 0.232 8.02 4.02 12.39
3/22/2021 5:45:00 PM 7.08 44.744 0.232 7.97 4.22 12.33
3/22/2021 6:00:00 PM 6.98 44.564 0.232 7.91 4.12 12.26
3/22/2021 6:15:00 PM 6.86 44.348 0.232 7.84 3.93 12.17
3/22/2021 6:30:00 PM 6.74 44.132 0.232 7.77 3.99 12.08
3/22/2021 6:45:00 PM 6.61 43.898 0.232 7.71 4.08 12
3/22/2021 7:00:00 PM 6.48 43.664 0.233 7.65 4.07 11.94
3/22/2021 7:15:00 PM 6.35 43.43 0.232 7.61 4.1 11.86
3/22/2021 7:30:00 PM 6.22 43.196 0.232 7.56 4 11.78
3/22/2021 7:45:00 PM 6.09 42.962 0.233 7.53 4.02 11.73
3/22/2021 8:00:00 PM 5.97 42.746 0.233 7.5 4.03 11.71
3/22/2021 8:15:00 PM 5.85 42.53 0.233 7.48 4.05 11.7
3/22/2021 8:30:00 PM 5.74 42.332 0.234 7.46 3.95 11.69
3/22/2021 8:45:00 PM 5.62 42.116 0.234 7.45 4.02 11.7
3/22/2021 9:00:00 PM 5.51 41.918 0.233 7.44 3.92 11.69
3/22/2021 9:15:00 PM 5.41 41.738 0.233 7.43 3.83 11.71
3/22/2021 9:30:00 PM 5.32 41.576 0.233 7.43 3.86 11.74
3/22/2021 9:45:00 PM 5.23 41.414 0.233 7.42 3.99 11.76
3/22/2021 10:00:00 PM 5.15 41.27 0.233 7.41 4.18 11.77
3/22/2021 10:15:00 PM 5.07 41.126 0.233 7.41 3.88 11.79
3/22/2021 10:30:00 PM 5 41 0.233 7.4 4.12 11.8
3/22/2021 10:45:00 PM 4.93 40.874 0.233 7.4 4.03 11.81
3/22/2021 11:00:00 PM 4.86 40.748 0.234 7.4 4.09 11.83
3/22/2021 11:15:00 PM 4.79 40.622 0.234 7.4 4.18 11.85
3/22/2021 11:30:00 PM 4.73 40.514 0.233 7.4 4.18 11.88
3/22/2021 11:45:00 PM 4.66 40.388 0.233 7.39 3.88 11.89
3/23/2021 12:00:00 AM 4.6 40.28 0.234 7.38 3.86 11.93
3/23/2021 12:15:00 AM 4.54 40.172 0.233 7.39 4 11.94
3/23/2021 12:30:00 AM 4.48 40.064 0.233 7.39 4.18 11.97
3/23/2021 12:45:00 AM 4.42 39.956 0.232 7.39 4 11.97
3/23/2021 1:00:00 AM 4.37 39.866 0.231 7.39 4.13 11.99
3/23/2021 1:15:00 AM 4.32 39.776 0.232 7.39 3.89 12.01
3/23/2021 1:30:00 AM 4.26 39.668 0.233 7.38 4.04 12.02
3/23/2021 1:45:00 AM 4.21 39.578 0.232 7.38 4.18 12.03
3/23/2021 2:00:00 AM 4.16 39.488 0.232 7.38 4.1 12.06
3/23/2021 2:15:00 AM 4.11 39.398 0.232 7.38 3.96 12.07
3/23/2021 2:30:00 AM 4.06 39.308 0.23 7.38 4.4 12.09
3/23/2021 2:45:00 AM 4.01 39.218 0.232 7.38 3.96 12.12
3/23/2021 3:00:00 AM 3.96 39.128 0.232 7.38 4.01 12.13
3/23/2021 3:15:00 AM 3.91 39.038 0.232 7.38 3.96 12.14
3/23/2021 3:30:00 AM 3.87 38.966 0.232 7.37 3.99 12.17
3/23/2021 3:45:00 AM 3.82 38.876 0.232 7.38 4.12 12.17
3/23/2021 4:00:00 AM 3.78 38.804 0.233 7.38 4.2 12.18
3/23/2021 4:15:00 AM 3.73 38.714 0.233 7.38 4.23 12.21
3/23/2021 4:30:00 AM 3.68 38.624 0.233 7.38 3.89 12.22
3/23/2021 4:45:00 AM 3.64 38.552 0.232 7.38 4.02 12.22
3/23/2021 5:00:00 AM 3.6 38.48 0.233 7.38 4.07 12.24
3/23/2021 5:15:00 AM 3.56 38.408 0.234 7.37 3.94 12.24
3/23/2021 5:30:00 AM 3.51 38.318 0.233 7.38 4.06 12.27
3/23/2021 5:45:00 AM 3.47 38.246 0.233 7.38 3.96 12.29
3/23/2021 6:00:00 AM 3.43 38.174 0.235 7.38 3.85 12.3
3/23/2021 6:15:00 AM 3.39 38.102 0.235 7.38 3.76 12.33
3/23/2021 6:30:00 AM 3.34 38.012 0.235 7.38 3.84 12.34
3/23/2021 6:45:00 AM 3.31 37.958 0.235 7.37 3.77 12.36
3/23/2021 7:00:00 AM 3.27 37.886 0.235 7.38 3.89 12.38
3/23/2021 7:15:00 AM 3.23 37.814 0.236 7.39 4.03 12.41
3/23/2021 7:30:00 AM 3.2 37.76 0.236 7.4 3.83 12.49
3/23/2021 7:45:00 AM 3.17 37.706 0.236 7.41 3.92 12.58
3/23/2021 8:00:00 AM 3.16 37.688 0.236 7.43 4 12.68
3/23/2021 8:15:00 AM 3.16 37.688 0.237 7.46 3.95 12.79
3/23/2021 8:30:00 AM 3.17 37.706 0.237 7.5 3.85 12.96
3/23/2021 8:45:00 AM 3.2 37.76 0.237 7.54 3.74 13.09
3/23/2021 9:00:00 AM 3.24 37.832 0.238 7.57 3.93 13.2
3/23/2021 9:15:00 AM 3.3 37.94 0.238 7.61 4.15 13.31
3/23/2021 9:30:00 AM 3.38 38.084 0.237 7.65 4.34 13.39
3/23/2021 9:45:00 AM 3.48 38.264 0.238 7.69 4.2 13.46
3/23/2021 10:00:00 AM 3.59 38.462 0.238 7.73 3.88 13.53
3/23/2021 10:15:00 AM 3.72 38.696 0.238 7.78 3.94 13.6
3/23/2021 10:30:00 AM 3.87 38.966 0.239 7.82 3.85 13.63
3/23/2021 10:45:00 AM 4.05 39.29 0.237 7.88 3.79 13.67
3/23/2021 11:00:00 AM 4.23 39.614 0.238 7.94 3.71 13.67
3/23/2021 11:15:00 AM 4.43 39.974 0.238 7.98 3.61 13.68
3/23/2021 11:30:00 AM 4.65 40.37 0.238 8.03 3.57 13.65
3/23/2021 11:45:00 AM 4.88 40.784 0.237 8.08 3.73 13.62
3/23/2021 12:00:00 PM 5.12 41.216 0.236 8.13 3.88 13.6
3/23/2021 12:15:00 PM 5.37 41.666 0.236 8.17 3.67 13.56
3/23/2021 12:30:00 PM 5.62 42.116 0.236 8.21 3.57 13.49
3/23/2021 12:45:00 PM 5.85 42.53 0.235 8.25 3.65 13.45
3/23/2021 1:00:00 PM 6.11 42.998 0.234 8.28 3.76 13.38
3/23/2021 1:15:00 PM 6.37 43.466 0.234 8.32 4.05 13.33
3/23/2021 1:30:00 PM 6.65 43.97 0.234 8.36 3.56 13.27
3/23/2021 1:45:00 PM 6.89 44.402 0.234 8.39 3.8 13.2
3/23/2021 2:00:00 PM 7.13 44.834 0.234 8.41 3.54 13.15
3/23/2021 2:15:00 PM 7.34 45.212 0.233 8.44 3.6 13.08
3/23/2021 2:30:00 PM 7.53 45.554 0.234 8.46 3.56 13
3/23/2021 2:45:00 PM 7.67 45.806 0.234 8.49 3.67 12.95
3/23/2021 3:00:00 PM 7.81 46.058 0.233 8.51 3.45 12.91
3/23/2021 3:15:00 PM 7.89 46.202 0.234 8.52 3.51 12.85
3/23/2021 3:30:00 PM 7.97 46.346 0.234 8.53 3.68 12.8
3/23/2021 3:45:00 PM 7.99 46.382 0.234 8.53 3.54 12.74
3/23/2021 4:00:00 PM 8 46.4 0.234 8.53 3.56 12.7
3/23/2021 4:15:00 PM 8.02 46.436 0.234 8.54 3.47 12.7
3/23/2021 4:30:00 PM 8.03 46.454 0.233 8.55 3.54 12.67
3/23/2021 4:45:00 PM 8.01 46.418 0.232 8.52 3.71 12.6
3/23/2021 5:00:00 PM 7.97 46.346 0.232 8.5 3.88 12.57
3/23/2021 5:15:00 PM 7.92 46.256 0.232 8.48 3.54 12.56
3/23/2021 5:30:00 PM 7.86 46.148 0.233 8.44 3.65 12.52
3/23/2021 5:45:00 PM 7.78 46.004 0.233 8.37 3.58 12.47
3/23/2021 6:00:00 PM 7.68 45.824 0.232 8.27 3.71 12.35
3/23/2021 6:15:00 PM 7.57 45.626 0.233 8.13 3.7 12.21
3/23/2021 6:30:00 PM 7.46 45.428 0.233 7.98 3.67 12.06
3/23/2021 6:45:00 PM 7.35 45.23 0.233 7.87 3.88 11.92
3/23/2021 7:00:00 PM 7.25 45.05 0.233 7.77 4.02 11.79
3/23/2021 7:15:00 PM 7.14 44.852 0.232 7.7 3.54 11.67
3/23/2021 7:30:00 PM 7.03 44.654 0.231 7.63 3.75 11.59
3/23/2021 7:45:00 PM 6.92 44.456 0.23 7.58 3.88 11.49
3/23/2021 8:00:00 PM 6.8 44.24 0.231 7.54 3.88 11.44
3/23/2021 8:15:00 PM 6.68 44.024 0.232 7.51 3.79 11.41
3/23/2021 8:30:00 PM 6.58 43.844 0.232 7.49 3.82 11.4
3/23/2021 8:45:00 PM 6.49 43.682 0.232 7.47 3.53 11.39
3/23/2021 9:00:00 PM 6.42 43.556 0.231 7.46 3.82 11.37
3/23/2021 9:15:00 PM 6.35 43.43 0.231 7.45 3.49 11.37
3/23/2021 9:30:00 PM 6.28 43.304 0.231 7.43 3.73 11.36
3/23/2021 9:45:00 PM 6.21 43.178 0.23 7.43 3.62 11.37
3/23/2021 10:00:00 PM 6.13 43.034 0.23 7.42 3.68 11.38
3/23/2021 10:15:00 PM 6.04 42.872 0.231 7.41 3.89 11.41
3/23/2021 10:30:00 PM 5.96 42.728 0.231 7.41 3.71 11.42
3/23/2021 10:45:00 PM 5.89 42.602 0.23 7.4 3.81 11.45
3/23/2021 11:00:00 PM 5.83 42.494 0.23 7.4 3.59 11.46
3/23/2021 11:15:00 PM 5.76 42.368 0.23 7.4 3.95 11.48
3/23/2021 11:30:00 PM 5.7 42.26 0.23 7.39 3.78 11.49
3/23/2021 11:45:00 PM 5.65 42.17 0.231 7.39 3.68 11.5
3/24/2021 12:00:00 AM 5.59 42.062 0.231 7.39 3.86 11.51
3/24/2021 12:15:00 AM 5.53 41.954 0.23 7.38 3.8 11.53
3/24/2021 12:30:00 AM 5.48 41.864 0.23 7.38 3.6 11.55
3/24/2021 12:45:00 AM 5.43 41.774 0.23 7.38 3.58 11.57
3/24/2021 1:00:00 AM 5.38 41.684 0.23 7.38 3.57 11.59
3/24/2021 1:15:00 AM 5.34 41.612 0.229 7.38 3.83 11.6
3/24/2021 1:30:00 AM 5.3 41.54 0.229 7.38 3.56 11.61
3/24/2021 1:45:00 AM 5.28 41.504 0.229 7.37 3.67 11.62
3/24/2021 2:00:00 AM 5.26 41.468 0.229 7.38 3.8 11.63
3/24/2021 2:15:00 AM 5.24 41.432 0.229 7.38 3.61 11.64
3/24/2021 2:30:00 AM 5.22 41.396 0.228 7.37 3.59 11.64
3/24/2021 2:45:00 AM 5.2 41.36 0.228 7.37 3.71 11.65
3/24/2021 3:00:00 AM 5.19 41.342 0.229 7.37 3.51 11.67
3/24/2021 3:15:00 AM 5.18 41.324 0.229 7.37 3.75 11.66
3/24/2021 3:30:00 AM 5.17 41.306 0.229 7.37 3.69 11.68
3/24/2021 3:45:00 AM 5.16 41.288 0.23 7.36 3.55 11.67
3/24/2021 4:00:00 AM 5.16 41.288 0.231 7.37 3.48 11.65
3/24/2021 4:15:00 AM 5.16 41.288 0.232 7.36 3.7 11.65
3/24/2021 4:30:00 AM 5.14 41.252 0.23 7.36 3.64 11.67
3/24/2021 4:45:00 AM 5.13 41.234 0.229 7.37 3.81 11.68
3/24/2021 5:00:00 AM 5.12 41.216 0.229 7.37 3.53 11.68
3/24/2021 5:15:00 AM 5.11 41.198 0.229 7.36 3.75 11.68
3/24/2021 5:30:00 AM 5.1 41.18 0.228 7.37 3.69 11.67
3/24/2021 5:45:00 AM 5.1 41.18 0.229 7.37 3.69 11.68
3/24/2021 6:00:00 AM 5.1 41.18 0.229 7.36 3.66 11.69
3/24/2021 6:15:00 AM 5.09 41.162 0.228 7.36 3.51 11.7
3/24/2021 6:30:00 AM 5.09 41.162 0.228 7.37 3.55 11.69
3/24/2021 6:45:00 AM 5.08 41.144 0.229 7.37 3.55 11.69
3/24/2021 7:00:00 AM 5.08 41.144 0.23 7.36 3.47 11.7
3/24/2021 7:15:00 AM 5.08 41.144 0.229 7.36 3.6 11.71
3/24/2021 7:30:00 AM 5.08 41.144 0.23 7.38 3.4 11.76
3/24/2021 7:45:00 AM 5.08 41.144 0.231 7.39 3.53 11.79
3/24/2021 8:00:00 AM 5.08 41.144 0.232 7.4 3.59 11.83
3/24/2021 8:15:00 AM 5.09 41.162 0.232 7.41 3.58 11.88
3/24/2021 8:30:00 AM 5.1 41.18 0.233 7.42 3.48 11.92
3/24/2021 8:45:00 AM 5.12 41.216 0.234 7.44 3.52 11.98
3/24/2021 9:00:00 AM 5.13 41.234 0.235 7.45 3.57 12.06
3/24/2021 9:15:00 AM 5.14 41.252 0.236 7.47 3.64 12.12
3/24/2021 9:30:00 AM 5.16 41.288 0.236 7.48 3.58 12.18
3/24/2021 9:45:00 AM 5.18 41.324 0.237 7.52 3.66 12.29
3/24/2021 10:00:00 AM 5.2 41.36 0.238 7.54 3.5 12.35
3/24/2021 10:15:00 AM 5.21 41.378 0.239 7.55 3.64 12.36
3/24/2021 10:30:00 AM 5.24 41.432 0.239 7.59 3.71 12.48
3/24/2021 10:45:00 AM 5.29 41.522 0.239 7.63 3.83 12.58
3/24/2021 11:00:00 AM 5.32 41.576 0.239 7.65 3.54 12.59
3/24/2021 11:15:00 AM 5.36 41.648 0.239 7.66 3.69 12.58
3/24/2021 11:30:00 AM 5.42 41.756 0.239 7.71 3.45 12.68
3/24/2021 11:45:00 AM 5.49 41.882 0.239 7.76 3.38 12.76
3/24/2021 12:00:00 PM 5.56 42.008 0.238 7.82 3.44 12.88
3/24/2021 12:15:00 PM 5.68 42.224 0.237 7.92 3.69 13.02
3/24/2021 12:30:00 PM 5.81 42.458 0.237 8.03 3.56 13.13
3/24/2021 12:45:00 PM 5.95 42.71 0.236 8.13 3.48 13.2
3/24/2021 1:00:00 PM 6.05 42.89 0.235 8.19 3.69 13.21
3/24/2021 1:15:00 PM 6.1 42.98 0.235 8.22 3.61 13.15
3/24/2021 1:30:00 PM 6.18 43.124 0.235 8.22 3.65 13.08
3/24/2021 1:45:00 PM 6.24 43.232 0.234 8.2 3.51 13.01
3/24/2021 2:00:00 PM 6.29 43.322 0.233 8.17 3.81 12.91
3/24/2021 2:15:00 PM 6.34 43.412 0.233 8.14 3.93 12.83
3/24/2021 2:30:00 PM 6.38 43.484 0.232 8.08 4.06 12.71
3/24/2021 2:45:00 PM 6.44 43.592 0.232 7.99 4.17 12.56
3/24/2021 3:00:00 PM 6.49 43.682 0.232 7.94 4.36 12.44
3/24/2021 3:15:00 PM 6.51 43.718 0.232 7.85 5.1 12.27
3/24/2021 3:30:00 PM 6.56 43.808 0.233 7.8 5.61 12.2
3/24/2021 3:45:00 PM 6.61 43.898 0.234 7.77 6.79 12.12
3/24/2021 4:00:00 PM 6.64 43.952 0.234 7.74 6.88 12.08
3/24/2021 4:15:00 PM 6.66 43.988 0.234 7.71 6.76 11.98
3/24/2021 4:30:00 PM 6.68 44.024 0.236 7.67 6.71 11.87
3/24/2021 4:45:00 PM 6.7 44.06 0.236 7.63 6.81 11.79
3/24/2021 5:00:00 PM 6.71 44.078 0.237 7.6 7.42 11.73
3/24/2021 5:15:00 PM 6.74 44.132 0.239 7.59 8.23 11.72
3/24/2021 5:30:00 PM 6.76 44.168 0.24 7.58 8.71 11.69
3/24/2021 5:45:00 PM 6.78 44.204 0.241 7.56 8.9 11.65
3/24/2021 6:00:00 PM 6.81 44.258 0.245 7.56 9.33 11.61
3/24/2021 6:15:00 PM 6.83 44.294 0.247 7.54 9.88 11.55
3/24/2021 6:30:00 PM 6.86 44.348 0.249 7.52 11.05 11.5
3/24/2021 6:45:00 PM 6.87 44.366 0.249 7.5 11.45 11.45
3/24/2021 7:00:00 PM 6.88 44.384 0.249 7.48 11.79 11.39
3/24/2021 7:15:00 PM 6.9 44.42 0.252 7.47 11.47 11.35
3/24/2021 7:30:00 PM 6.91 44.438 0.254 7.45 11.18 11.31
3/24/2021 7:45:00 PM 6.91 44.438 0.256 7.44 11.41 11.28
3/24/2021 8:00:00 PM 6.9 44.42 0.262 7.44 11.15 11.26
3/24/2021 8:15:00 PM 6.88 44.384 0.269 7.43 10.09 11.25
3/24/2021 8:30:00 PM 6.86 44.348 0.275 7.42 10.6 11.25
3/24/2021 8:45:00 PM 6.84 44.312 0.28 7.42 9.03 11.25
3/24/2021 9:00:00 PM 6.82 44.276 0.285 7.42 8.79 11.25
3/24/2021 9:15:00 PM 6.79 44.222 0.288 7.42 8.89 11.25
3/24/2021 9:30:00 PM 6.77 44.186 0.287 7.42 8.36 11.26
3/24/2021 9:45:00 PM 6.74 44.132 0.282 7.42 8.14 11.27
3/24/2021 10:00:00 PM 6.72 44.096 0.276 7.42 8 11.28
3/24/2021 10:15:00 PM 6.7 44.06 0.27 7.41 8.38 11.28
3/24/2021 10:30:00 PM 6.68 44.024 0.264 7.41 7.74 11.29
3/24/2021 10:45:00 PM 6.65 43.97 0.26 7.41 7.17 11.3
3/24/2021 11:00:00 PM 6.63 43.934 0.256 7.4 6.96 11.31
3/24/2021 11:15:00 PM 6.61 43.898 0.253 7.41 6.7 11.31
3/24/2021 11:30:00 PM 6.59 43.862 0.25 7.4 6.76 11.32
3/24/2021 11:45:00 PM 6.56 43.808 0.247 7.4 6.26 11.34
3/25/2021 12:00:00 AM 6.53 43.754 0.245 7.39 6.3 11.35
3/25/2021 12:15:00 AM 6.5 43.7 0.242 7.39 5.92 11.36
3/25/2021 12:30:00 AM 6.46 43.628 0.241 7.39 6 11.37
3/25/2021 12:45:00 AM 6.43 43.574 0.24 7.39 5.82 11.39
3/25/2021 1:00:00 AM 6.4 43.52 0.239 7.39 5.81 11.39
3/25/2021 1:15:00 AM 6.37 43.466 0.238 7.38 5.54 11.4
3/25/2021 1:30:00 AM 6.35 43.43 0.236 7.38 5.57 11.4
3/25/2021 1:45:00 AM 6.33 43.394 0.235 7.38 5.33 11.41
3/25/2021 2:00:00 AM 6.33 43.394 0.234 7.38 5.34 11.41
3/25/2021 2:15:00 AM 6.32 43.376 0.233 7.38 5.29 11.41
3/25/2021 2:30:00 AM 6.31 43.358 0.232 7.38 5.16 11.41
3/25/2021 2:45:00 AM 6.3 43.34 0.231 7.37 4.95 11.41
3/25/2021 3:00:00 AM 6.29 43.322 0.23 7.37 4.9 11.42
3/25/2021 3:15:00 AM 6.28 43.304 0.23 7.37 5.03 11.42
3/25/2021 3:30:00 AM 6.27 43.286 0.231 7.37 5.03 11.42
3/25/2021 3:45:00 AM 6.26 43.268 0.231 7.37 4.71 11.42
3/25/2021 4:00:00 AM 6.22 43.196 0.23 7.37 4.69 11.44
3/25/2021 4:15:00 AM 6.2 43.16 0.23 7.36 4.76 11.45
3/25/2021 4:30:00 AM 6.17 43.106 0.23 7.37 4.69 11.46
3/25/2021 4:45:00 AM 6.15 43.07 0.231 7.36 4.62 11.47
3/25/2021 5:00:00 AM 6.12 43.016 0.231 7.36 4.69 11.48
3/25/2021 5:15:00 AM 6.1 42.98 0.231 7.36 4.47 11.48
3/25/2021 5:30:00 AM 6.09 42.962 0.231 7.36 4.49 11.49
3/25/2021 5:45:00 AM 6.07 42.926 0.231 7.36 4.47 11.5
3/25/2021 6:00:00 AM 6.05 42.89 0.231 7.36 4.48 11.51
3/25/2021 6:15:00 AM 6.02 42.836 0.232 7.35 4.39 11.52
3/25/2021 6:30:00 AM 6 42.8 0.232 7.36 4.56 11.53
3/25/2021 6:45:00 AM 5.98 42.764 0.232 7.36 4.39 11.54
3/25/2021 7:00:00 AM 5.95 42.71 0.233 7.36 4.41 11.55
3/25/2021 7:15:00 AM 5.94 42.692 0.233 7.37 4.46 11.57
3/25/2021 7:30:00 AM 5.93 42.674 0.233 7.37 4.34 11.61
3/25/2021 7:45:00 AM 5.93 42.674 0.233 7.39 4.11 11.68
3/25/2021 8:00:00 AM 5.94 42.692 0.233 7.41 4.28 11.75
3/25/2021 8:15:00 AM 5.95 42.71 0.233 7.43 4.09 11.81
3/25/2021 8:30:00 AM 5.98 42.764 0.232 7.45 4.33 11.92
3/25/2021 8:45:00 AM 6.02 42.836 0.232 7.5 4.69 12.03
3/25/2021 9:00:00 AM 6.06 42.908 0.232 7.53 4.64 12.12
3/25/2021 9:15:00 AM 6.12 43.016 0.232 7.58 4.43 12.24
3/25/2021 9:30:00 AM 6.17 43.106 0.232 7.62 5.06 12.32
3/25/2021 9:45:00 AM 6.22 43.196 0.232 7.66 4.55 12.39
3/25/2021 10:00:00 AM 6.27 43.286 0.232 7.71 4.26 12.47
3/25/2021 10:15:00 AM 6.31 43.358 0.232 7.75 4.31 12.52
3/25/2021 10:30:00 AM 6.37 43.466 0.232 7.79 4.22 12.58
3/25/2021 10:45:00 AM 6.46 43.628 0.232 7.85 4.08 12.65
3/25/2021 11:00:00 AM 6.57 43.826 0.231 7.92 3.94 12.72
3/25/2021 11:15:00 AM 6.67 44.006 0.231 7.99 3.84 12.76
3/25/2021 11:30:00 AM 6.77 44.186 0.23 8.04 3.82 12.79
3/25/2021 11:45:00 AM 6.88 44.384 0.229 8.09 3.87 12.79
3/25/2021 12:00:00 PM 7.01 44.618 0.23 8.15 3.95 12.81
3/25/2021 12:15:00 PM 7.24 45.032 0.23 8.2 3.86 12.81
3/25/2021 12:30:00 PM 7.4 45.32 0.229 8.23 3.91 12.77
3/25/2021 12:45:00 PM 7.59 45.662 0.229 8.24 3.79 12.73
3/25/2021 1:00:00 PM 7.75 45.95 0.229 8.27 3.85 12.7
3/25/2021 1:15:00 PM 7.91 46.238 0.228 8.29 3.87 12.66
3/25/2021 1:30:00 PM 8.09 46.562 0.228 8.32 3.66 12.62
3/25/2021 1:45:00 PM 8.22 46.796 0.228 8.34 3.88 12.59
3/25/2021 2:00:00 PM 8.36 47.048 0.228 8.36 3.98 12.57
3/25/2021 2:15:00 PM 8.51 47.318 0.228 8.38 3.99 12.53
3/25/2021 2:30:00 PM 8.67 47.606 0.228 8.39 3.96 12.47
3/25/2021 2:45:00 PM 8.8 47.84 0.228 8.39 3.85 12.43
3/25/2021 3:00:00 PM 8.92 48.056 0.228 8.42 3.83 12.39
3/25/2021 3:15:00 PM 9.01 48.218 0.229 8.42 3.72 12.37
3/25/2021 3:30:00 PM 9.06 48.308 0.229 8.43 3.94 12.33
3/25/2021 3:45:00 PM 9.07 48.326 0.229 8.44 3.72 12.31
3/25/2021 4:00:00 PM 9.05 48.29 0.229 8.43 3.7 12.28
3/25/2021 4:15:00 PM 9.04 48.272 0.23 8.42 3.57 12.25
3/25/2021 4:30:00 PM 9.01 48.218 0.231 8.4 3.8 12.22
3/25/2021 4:45:00 PM 8.95 48.11 0.232 8.37 3.63 12.18
3/25/2021 5:00:00 PM 8.89 48.002 0.231 8.32 3.77 12.13
3/25/2021 5:15:00 PM 8.83 47.894 0.231 8.28 3.66 12.08
3/25/2021 5:30:00 PM 8.76 47.768 0.231 8.22 3.74 12.02
3/25/2021 5:45:00 PM 8.66 47.588 0.231 8.14 3.81 11.97
3/25/2021 6:00:00 PM 8.57 47.426 0.232 8.04 3.77 11.88
3/25/2021 6:15:00 PM 8.47 47.246 0.232 7.94 3.68 11.79
3/25/2021 6:30:00 PM 8.37 47.066 0.233 7.86 3.8 11.67
3/25/2021 6:45:00 PM 8.27 46.886 0.233 7.78 3.64 11.58
3/25/2021 7:00:00 PM 8.16 46.688 0.233 7.7 3.64 11.45
3/25/2021 7:15:00 PM 8.05 46.49 0.233 7.63 3.5 11.35
3/25/2021 7:30:00 PM 7.95 46.31 0.234 7.58 3.71 11.26
3/25/2021 7:45:00 PM 7.86 46.148 0.234 7.53 3.68 11.18
3/25/2021 8:00:00 PM 7.77 45.986 0.234 7.5 3.84 11.13
3/25/2021 8:15:00 PM 7.68 45.824 0.235 7.47 3.6 11.09
3/25/2021 8:30:00 PM 7.58 45.644 0.235 7.45 3.6 11.07
3/25/2021 8:45:00 PM 7.49 45.482 0.236 7.43 3.64 11.06
3/25/2021 9:00:00 PM 7.42 45.356 0.236 7.41 3.5 11.06
3/25/2021 9:15:00 PM 7.35 45.23 0.237 7.4 3.67 11.07
3/25/2021 9:30:00 PM 7.29 45.122 0.239 7.4 3.67 11.07
3/25/2021 9:45:00 PM 7.25 45.05 0.24 7.4 3.59 11.09
3/25/2021 10:00:00 PM 7.2 44.96 0.24 7.39 3.55 11.1
3/25/2021 10:15:00 PM 7.15 44.87 0.24 7.39 3.71 11.09
3/25/2021 10:30:00 PM 7.08 44.744 0.24 7.39 3.45 11.11
3/25/2021 10:45:00 PM 7.03 44.654 0.241 7.39 3.65 11.12
3/25/2021 11:00:00 PM 7 44.6 0.241 7.39 3.65 11.13
3/25/2021 11:15:00 PM 6.98 44.564 0.242 7.38 3.48 11.12
3/25/2021 11:30:00 PM 6.96 44.528 0.242 7.38 3.51 11.12
3/25/2021 11:45:00 PM 6.95 44.51 0.242 7.38 3.5 11.13
3/26/2021 12:00:00 AM 6.94 44.492 0.242 7.36 3.5 11.13
3/26/2021 12:15:00 AM 6.92 44.456 0.242 7.38 3.78 11.12
3/26/2021 12:30:00 AM 6.91 44.438 0.242 7.38 3.61 11.13
3/26/2021 12:45:00 AM 6.9 44.42 0.242 7.38 3.61 11.12
3/26/2021 1:00:00 AM 6.9 44.42 0.243 7.37 3.67 11.13
3/26/2021 1:15:00 AM 6.9 44.42 0.242 7.38 3.39 11.12
3/26/2021 1:30:00 AM 6.9 44.42 0.241 7.38 3.42 11.12
3/26/2021 1:45:00 AM 6.89 44.402 0.241 7.38 3.44 11.12
3/26/2021 2:00:00 AM 6.88 44.384 0.242 7.38 3.59 11.12
3/26/2021 2:15:00 AM 6.86 44.348 0.243 7.38 3.69 11.11
3/26/2021 2:30:00 AM 6.84 44.312 0.243 7.37 3.57 11.12
3/26/2021 2:45:00 AM 6.81 44.258 0.242 7.37 3.55 11.12
3/26/2021 3:00:00 AM 6.8 44.24 0.243 7.37 3.55 11.13
3/26/2021 3:15:00 AM 6.78 44.204 0.243 7.37 3.56 11.13
3/26/2021 3:30:00 AM 6.78 44.204 0.243 7.36 3.53 11.12
3/26/2021 3:45:00 AM 6.78 44.204 0.242 7.36 3.63 11.11
3/26/2021 4:00:00 AM 6.81 44.258 0.241 7.36 3.53 11.1
3/26/2021 4:15:00 AM 6.84 44.312 0.24 7.36 3.45 11.09
3/26/2021 4:30:00 AM 6.88 44.384 0.24 7.37 3.37 11.07
3/26/2021 4:45:00 AM 6.93 44.474 0.239 7.37 3.45 11.05
3/26/2021 5:00:00 AM 6.96 44.528 0.239 7.37 3.57 11.05
3/26/2021 5:15:00 AM 7 44.6 0.238 7.37 3.39 11.03
3/26/2021 5:30:00 AM 7.03 44.654 0.236 7.37 3.52 11.01
3/26/2021 5:45:00 AM 7.05 44.69 0.236 7.37 3.6 11
3/26/2021 6:00:00 AM 7.07 44.726 0.236 7.37 3.39 10.99
3/26/2021 6:15:00 AM 7.11 44.798 0.236 7.38 3.4 10.98
3/26/2021 6:30:00 AM 7.14 44.852 0.236 7.38 3.45 10.96
3/26/2021 6:45:00 AM 7.18 44.924 0.236 7.38 3.44 10.95
3/26/2021 7:00:00 AM 7.2 44.96 0.234 7.38 3.43 10.95
3/26/2021 7:15:00 AM 7.22 44.996 0.234 7.39 3.55 10.97
3/26/2021 7:30:00 AM 7.27 45.086 0.233 7.4 3.44 11.02
3/26/2021 7:45:00 AM 7.31 45.158 0.233 7.42 3.46 11.05
3/26/2021 8:00:00 AM 7.35 45.23 0.232 7.43 3.44 11.08
3/26/2021 8:15:00 AM 7.4 45.32 0.231 7.44 3.52 11.14
3/26/2021 8:30:00 AM 7.49 45.482 0.231 7.48 3.45 11.21
3/26/2021 8:45:00 AM 7.58 45.644 0.231 7.5 3.41 11.29
3/26/2021 9:00:00 AM 7.64 45.752 0.23 7.51 3.29 11.28
3/26/2021 9:15:00 AM 7.67 45.806 0.229 7.53 3.36 11.33
3/26/2021 9:30:00 AM 7.71 45.878 0.229 7.55 3.38 11.35
3/26/2021 9:45:00 AM 7.79 46.022 0.228 7.6 3.39 11.52
3/26/2021 10:00:00 AM 7.89 46.202 0.228 7.68 3.33 11.72
3/26/2021 10:15:00 AM 8.04 46.472 0.228 7.75 3.34 11.86
3/26/2021 10:30:00 AM 8.21 46.778 0.227 7.85 3.26 11.98
3/26/2021 10:45:00 AM 8.35 47.03 0.227 7.91 3.37 12.02
3/26/2021 11:00:00 AM 8.48 47.264 0.228 7.94 3.26 12.02
3/26/2021 11:15:00 AM 8.54 47.372 0.228 7.91 3.26 11.9
3/26/2021 11:30:00 AM 8.6 47.48 0.227 7.92 3.17 11.86
3/26/2021 11:45:00 AM 8.71 47.678 0.227 7.97 3.28 11.9
3/26/2021 12:00:00 PM 8.85 47.93 0.227 8.04 3.39 11.94
3/26/2021 12:15:00 PM 8.96 48.128 0.227 8.1 3.41 11.96
3/26/2021 12:30:00 PM 9.07 48.326 0.227 8.16 3.35 11.98
3/26/2021 12:45:00 PM 9.26 48.668 0.227 8.23 3.25 12.03
3/26/2021 1:00:00 PM 9.42 48.956 0.227 8.3 3.46 12.05
3/26/2021 1:15:00 PM 9.57 49.226 0.227 8.35 3.23 12.06
3/26/2021 1:30:00 PM 9.63 49.334 0.228 8.36 3.26 12
3/26/2021 1:45:00 PM 9.64 49.352 0.228 8.29 3.19 11.87
3/26/2021 2:00:00 PM 9.65 49.37 0.228 8.26 3.23 11.81
3/26/2021 2:15:00 PM 9.65 49.37 0.228 8.23 3.22 11.75
3/26/2021 2:30:00 PM 9.66 49.388 0.228 8.22 3.26 11.74
3/26/2021 2:45:00 PM 9.66 49.388 0.229 8.2 3.16 11.68
3/26/2021 3:00:00 PM 9.66 49.388 0.229 8.2 3.22 11.67
3/26/2021 3:15:00 PM 9.63 49.334 0.229 8.17 3.14 11.64
3/26/2021 3:30:00 PM 9.58 49.244 0.229 8.09 3.3 11.56
3/26/2021 3:45:00 PM 9.5 49.1 0.23 8.01 3.17 11.44
3/26/2021 4:00:00 PM 9.42 48.956 0.231 7.97 3.15 11.46
3/26/2021 4:15:00 PM 9.32 48.776 0.232 7.98 3.14 11.52
3/26/2021 4:30:00 PM 9.24 48.632 0.232 8.03 3.11 11.63
3/26/2021 4:45:00 PM 9.15 48.47 0.232 8.01 3.06 11.63
3/26/2021 5:00:00 PM 9.06 48.308 0.232 7.99 3.15 11.61
3/26/2021 5:15:00 PM 8.96 48.128 0.234 7.95 3.23 11.59
3/26/2021 5:30:00 PM 8.86 47.948 0.235 7.94 3.18 11.62
3/26/2021 5:45:00 PM 8.71 47.678 0.237 7.91 3.13 11.61
3/26/2021 6:00:00 PM 8.59 47.462 0.238 7.88 3.25 11.62
3/26/2021 6:15:00 PM 8.44 47.192 0.24 7.82 3.37 11.55
3/26/2021 6:30:00 PM 8.3 46.94 0.242 7.74 3.23 11.44
3/26/2021 6:45:00 PM 8.16 46.688 0.244 7.69 4.02 11.34
3/26/2021 7:00:00 PM 8.02 46.436 0.246 7.64 4.94 11.27
3/26/2021 7:15:00 PM 7.87 46.166 0.249 7.59 3.41 11.22
3/26/2021 7:30:00 PM 7.73 45.914 0.251 7.56 3.2 11.19
3/26/2021 7:45:00 PM 7.61 45.698 0.254 7.53 3.19 11.15
3/26/2021 8:00:00 PM 7.49 45.482 0.258 7.51 3.31 11.11
3/26/2021 8:15:00 PM 7.37 45.266 0.263 7.5 3.31 11.11
3/26/2021 8:30:00 PM 7.26 45.068 0.269 7.48 3.22 11.12
3/26/2021 8:45:00 PM 7.15 44.87 0.273 7.47 3.31 11.12
3/26/2021 9:00:00 PM 7.05 44.69 0.275 7.46 3.28 11.14
3/26/2021 9:15:00 PM 6.98 44.564 0.278 7.46 3.31 11.14
3/26/2021 9:30:00 PM 6.91 44.438 0.279 7.45 3.26 11.16
3/26/2021 9:45:00 PM 6.84 44.312 0.28 7.44 3.31 11.16
3/26/2021 10:00:00 PM 6.78 44.204 0.281 7.44 3.4 11.19
3/26/2021 10:15:00 PM 6.72 44.096 0.282 7.43 3.31 11.2
3/26/2021 10:30:00 PM 6.66 43.988 0.283 7.43 3.33 11.22
3/26/2021 10:45:00 PM 6.61 43.898 0.285 7.43 3.22 11.23
3/26/2021 11:00:00 PM 6.57 43.826 0.286 7.43 3.25 11.24
3/26/2021 11:15:00 PM 6.54 43.772 0.285 7.43 3.4 11.24
3/26/2021 11:30:00 PM 6.51 43.718 0.284 7.43 3.88 11.25
3/26/2021 11:45:00 PM 6.47 43.646 0.283 7.43 3.38 11.26
3/27/2021 12:00:00 AM 6.44 43.592 0.281 7.42 3.4 11.26
3/27/2021 12:15:00 AM 6.41 43.538 0.278 7.41 3.3 11.27
3/27/2021 12:30:00 AM 6.38 43.484 0.278 7.42 3.48 11.28
3/27/2021 12:45:00 AM 6.35 43.43 0.275 7.42 3.48 11.28
3/27/2021 1:00:00 AM 6.33 43.394 0.274 7.41 3.23 11.28
3/27/2021 1:15:00 AM 6.31 43.358 0.272 7.41 3.18 11.29
3/27/2021 1:30:00 AM 6.29 43.322 0.27 7.41 3.18 11.28
3/27/2021 1:45:00 AM 6.26 43.268 0.269 7.41 3.2 11.29
3/27/2021 2:00:00 AM 6.24 43.232 0.267 7.41 3.21 11.3
3/27/2021 2:15:00 AM 6.22 43.196 0.266 7.41 3.21 11.3
3/27/2021 2:30:00 AM 6.19 43.142 0.265 7.41 6.95 11.31
3/27/2021 2:45:00 AM 6.16 43.088 0.264 7.41 3.17 11.31
3/27/2021 3:00:00 AM 6.13 43.034 0.265 7.41 3.19 11.32
3/27/2021 3:15:00 AM 6.1 42.98 0.263 7.4 3.18 11.33
3/27/2021 3:30:00 AM 6.06 42.908 0.263 7.4 3.23 11.33
3/27/2021 3:45:00 AM 6.04 42.872 0.263 7.4 3.28 11.34
3/27/2021 4:00:00 AM 6.03 42.854 0.263 7.4 3.22 11.35
3/27/2021 4:15:00 AM 6.02 42.836 0.262 7.4 3.21 11.36
3/27/2021 4:30:00 AM 6 42.8 0.262 7.4 3.25 11.38
3/27/2021 4:45:00 AM 5.98 42.764 0.261 7.4 3.3 11.37
3/27/2021 5:00:00 AM 5.97 42.746 0.261 7.4 3.13 11.39
3/27/2021 5:15:00 AM 5.96 42.728 0.261 7.4 3.31 11.38
3/27/2021 5:30:00 AM 5.96 42.728 0.261 7.39 3.24 11.39
3/27/2021 5:45:00 AM 5.95 42.71 0.26 7.4 3.18 11.41
3/27/2021 6:00:00 AM 5.95 42.71 0.26 7.39 3.15 11.41
3/27/2021 6:15:00 AM 5.94 42.692 0.26 7.39 3.16 11.4
3/27/2021 6:30:00 AM 5.93 42.674 0.261 7.4 3.19 11.41
3/27/2021 6:45:00 AM 5.93 42.674 0.26 7.4 3.37 11.41
3/27/2021 7:00:00 AM 5.92 42.656 0.26 7.4 3.22 11.43
3/27/2021 7:15:00 AM 5.93 42.674 0.26 7.41 3.23 11.47
3/27/2021 7:30:00 AM 5.94 42.692 0.259 7.41 3.54 11.51
3/27/2021 7:45:00 AM 5.95 42.71 0.26 7.44 3.35 11.62
3/27/2021 8:00:00 AM 5.97 42.746 0.259 7.47 3.25 11.77
3/27/2021 8:15:00 AM 5.99 42.782 0.258 7.51 3.23 11.88
3/27/2021 8:30:00 AM 6.04 42.872 0.257 7.55 3.19 12.05
3/27/2021 8:45:00 AM 6.08 42.944 0.257 7.57 3.37 12.08
3/27/2021 9:00:00 AM 6.12 43.016 0.256 7.61 3.29 12.2
3/27/2021 9:15:00 AM 6.2 43.16 0.256 7.67 3.31 12.34
3/27/2021 9:30:00 AM 6.28 43.304 0.255 7.74 3.32 12.51
3/27/2021 9:45:00 AM 6.36 43.448 0.255 7.8 3.2 12.63
3/27/2021 10:00:00 AM 6.45 43.61 0.253 7.88 3.21 12.75
3/27/2021 10:15:00 AM 6.61 43.898 0.252 7.96 3.33 12.84
3/27/2021 10:30:00 AM 6.74 44.132 0.252 8.03 3.66 12.88
3/27/2021 10:45:00 AM 6.84 44.312 0.251 8.1 3.2 12.9
3/27/2021 11:00:00 AM 6.97 44.546 0.25 8.16 3.18 12.91
3/27/2021 11:15:00 AM 7.12 44.816 0.249 8.2 3.24 12.9
3/27/2021 11:30:00 AM 7.31 45.158 0.249 8.25 3.06 12.89
3/27/2021 11:45:00 AM 7.49 45.482 0.248 8.29 3.26 12.86
3/27/2021 12:00:00 PM 7.72 45.896 0.248 8.34 3.22 12.86
3/27/2021 12:15:00 PM 7.93 46.274 0.246 8.38 3.1 12.84
3/27/2021 12:30:00 PM 8.2 46.76 0.245 8.43 3.11 12.78
3/27/2021 12:45:00 PM 8.43 47.174 0.246 8.44 3.1 12.72
3/27/2021 1:00:00 PM 8.57 47.426 0.245 8.46 3.09 12.67
3/27/2021 1:15:00 PM 8.85 47.93 0.244 8.52 2.99 12.64
3/27/2021 1:30:00 PM 8.97 48.146 0.244 8.52 3 12.55
3/27/2021 1:45:00 PM 9.13 48.434 0.244 8.54 3.12 12.5
3/27/2021 2:00:00 PM 9.28 48.704 0.244 8.55 3 12.44
3/27/2021 2:15:00 PM 9.5 49.1 0.243 8.59 3.09 12.42
3/27/2021 2:30:00 PM 9.66 49.388 0.243 8.62 3.1 12.37
3/27/2021 2:45:00 PM 9.79 49.622 0.242 8.63 3.02 12.3
3/27/2021 3:00:00 PM 9.93 49.874 0.242 8.64 3.01 12.28
3/27/2021 3:15:00 PM 10.07 50.126 0.241 8.66 2.95 12.23
3/27/2021 3:30:00 PM 10.14 50.252 0.24 8.67 3.01 12.18
3/27/2021 3:45:00 PM 10.17 50.306 0.239 8.66 2.98 12.13
3/27/2021 4:00:00 PM 10.2 50.36 0.239 8.68 3.18 12.13
3/27/2021 4:15:00 PM 10.2 50.36 0.238 8.68 3.12 12.1
3/27/2021 4:30:00 PM 10.18 50.324 0.237 8.66 3.06 12.05
3/27/2021 4:45:00 PM 10.15 50.27 0.237 8.65 3.14 11.99
3/27/2021 5:00:00 PM 10.11 50.198 0.237 8.62 3.26 11.94
3/27/2021 5:15:00 PM 10.06 50.108 0.237 8.58 3.03 11.88
3/27/2021 5:30:00 PM 10 50 0.237 8.52 2.96 11.82
3/27/2021 5:45:00 PM 9.94 49.892 0.237 8.44 3.15 11.74
3/27/2021 6:00:00 PM 9.88 49.784 0.237 8.36 2.99 11.68
3/27/2021 6:15:00 PM 9.81 49.658 0.237 8.24 2.99 11.57
3/27/2021 6:30:00 PM 9.76 49.568 0.236 8.13 3.18 11.45
3/27/2021 6:45:00 PM 9.71 49.478 0.236 8.02 2.98 11.32
3/27/2021 7:00:00 PM 9.67 49.406 0.236 7.9 3.15 11.15
3/27/2021 7:15:00 PM 9.64 49.352 0.236 7.8 2.98 10.98
3/27/2021 7:30:00 PM 9.6 49.28 0.236 7.7 2.99 10.82
3/27/2021 7:45:00 PM 9.56 49.208 0.236 7.64 2.99 10.67
3/27/2021 8:00:00 PM 9.49 49.082 0.236 7.58 3.16 10.56
3/27/2021 8:15:00 PM 9.42 48.956 0.235 7.55 3.03 10.49
3/27/2021 8:30:00 PM 9.35 48.83 0.236 7.51 3.13 10.44
3/27/2021 8:45:00 PM 9.29 48.722 0.236 7.49 3.05 10.41
3/27/2021 9:00:00 PM 9.23 48.614 0.236 7.47 3.03 10.36
3/27/2021 9:15:00 PM 9.17 48.506 0.237 7.46 3.04 10.37
3/27/2021 9:30:00 PM 9.1 48.38 0.237 7.44 3.02 10.37
3/27/2021 9:45:00 PM 9.02 48.236 0.236 7.44 3.09 10.37
3/27/2021 10:00:00 PM 8.95 48.11 0.236 7.43 3.04 10.38
3/27/2021 10:15:00 PM 8.89 48.002 0.236 7.42 2.96 10.37
3/27/2021 10:30:00 PM 8.82 47.876 0.236 7.41 3.36 10.38
3/27/2021 10:45:00 PM 8.76 47.768 0.237 7.41 3.09 10.39
3/27/2021 11:00:00 PM 8.71 47.678 0.236 7.41 2.96 10.41
3/27/2021 11:15:00 PM 8.65 47.57 0.236 7.4 3.11 10.42
3/27/2021 11:30:00 PM 8.59 47.462 0.236 7.39 3.07 10.43
3/27/2021 11:45:00 PM 8.53 47.354 0.235 7.4 3.05 10.46
3/28/2021 12:00:00 AM 8.47 47.246 0.235 7.38 3.09 10.47
3/28/2021 12:15:00 AM 8.41 47.138 0.236 7.39 2.98 10.49
3/28/2021 12:30:00 AM 8.35 47.03 0.236 7.39 3.11 10.5
3/28/2021 12:45:00 AM 8.29 46.922 0.236 7.39 3.02 10.53
3/28/2021 1:00:00 AM 8.23 46.814 0.236 7.38 3.03 10.52
3/28/2021 1:15:00 AM 8.18 46.724 0.235 7.39 3.05 10.55
3/28/2021 1:30:00 AM 8.12 46.616 0.235 7.37 3.16 10.55
3/28/2021 1:45:00 AM 8.06 46.508 0.235 7.38 3.02 10.57
3/28/2021 2:00:00 AM 8.01 46.418 0.236 7.38 3.01 10.59
3/28/2021 2:15:00 AM 7.96 46.328 0.236 7.38 3.02 10.61
3/28/2021 2:30:00 AM 7.92 46.256 0.237 7.37 3.09 10.62
3/28/2021 2:45:00 AM 7.87 46.166 0.237 7.38 3.04 10.63
3/28/2021 3:00:00 AM 7.84 46.112 0.237 7.38 3.06 10.65
3/28/2021 3:15:00 AM 7.8 46.04 0.237 7.38 3.11 10.65
3/28/2021 3:30:00 AM 7.76 45.968 0.237 7.38 3 10.67
3/28/2021 3:45:00 AM 7.71 45.878 0.237 7.38 2.97 10.67
3/28/2021 4:00:00 AM 7.66 45.788 0.237 7.38 3.01 10.68
3/28/2021 4:15:00 AM 7.63 45.734 0.237 7.38 3.07 10.7
3/28/2021 4:30:00 AM 7.61 45.698 0.237 7.37 2.97 10.7
3/28/2021 4:45:00 AM 7.6 45.68 0.237 7.38 3.11 10.7
3/28/2021 5:00:00 AM 7.59 45.662 0.237 7.38 3.24 10.72
3/28/2021 5:15:00 AM 7.59 45.662 0.237 7.38 3.28 10.71
3/28/2021 5:30:00 AM 7.62 45.716 0.237 7.38 3.02 10.71
3/28/2021 5:45:00 AM 7.66 45.788 0.237 7.38 2.94 10.7
3/28/2021 6:00:00 AM 7.71 45.878 0.236 7.38 3.05 10.67
3/28/2021 6:15:00 AM 7.77 45.986 0.235 7.38 3.07 10.66
3/28/2021 6:30:00 AM 7.84 46.112 0.235 7.38 3.46 10.63
3/28/2021 6:45:00 AM 7.91 46.238 0.236 7.39 3.04 10.61
3/28/2021 7:00:00 AM 7.98 46.364 0.235 7.39 3.03 10.59
3/28/2021 7:15:00 AM 8.04 46.472 0.235 7.4 3.07 10.59
3/28/2021 7:30:00 AM 8.09 46.562 0.235 7.4 2.99 10.56
3/28/2021 7:45:00 AM 8.15 46.67 0.236 7.41 2.99 10.59
3/28/2021 8:00:00 AM 8.2 46.76 0.235 7.42 3.07 10.59
3/28/2021 8:15:00 AM 8.25 46.85 0.235 7.43 3.11 10.61
3/28/2021 8:30:00 AM 8.31 46.958 0.235 7.43 3.05 10.61
3/28/2021 8:45:00 AM 8.36 47.048 0.235 7.44 3.11 10.64
3/28/2021 9:00:00 AM 8.41 47.138 0.235 7.46 3.14 10.67
3/28/2021 9:15:00 AM 8.46 47.228 0.234 7.47 3.19 10.74
3/28/2021 9:30:00 AM 8.5 47.3 0.234 7.5 3.29 10.83
3/28/2021 9:45:00 AM 8.55 47.39 0.234 7.52 3.16 10.92
3/28/2021 10:00:00 AM 8.59 47.462 0.234 7.56 3.17 11.02
3/28/2021 10:15:00 AM 8.64 47.552 0.234 7.6 3.13 11.15
3/28/2021 10:30:00 AM 8.67 47.606 0.234 7.62 3.1 11.21
3/28/2021 10:45:00 AM 8.71 47.678 0.234 7.66 3.17 11.29
3/28/2021 11:00:00 AM 8.75 47.75 0.235 7.71 3.06 11.4
3/28/2021 11:15:00 AM 8.79 47.822 0.234 7.74 3.16 11.46
3/28/2021 11:30:00 AM 8.83 47.894 0.234 7.78 3.15 11.52
3/28/2021 11:45:00 AM 8.89 48.002 0.234 7.85 3.15 11.64
3/28/2021 12:00:00 PM 8.93 48.074 0.234 7.89 3.09 11.7
3/28/2021 12:15:00 PM 8.99 48.182 0.234 7.96 3.11 11.78
3/28/2021 12:30:00 PM 9.03 48.254 0.235 8 3.13 11.8
3/28/2021 12:45:00 PM 9.08 48.344 0.234 8.04 3.13 11.82
3/28/2021 1:00:00 PM 9.14 48.452 0.235 8.09 3.08 11.86
3/28/2021 1:15:00 PM 9.2 48.56 0.236 8.13 3.18 11.85
3/28/2021 1:30:00 PM 9.26 48.668 0.237 8.15 3.17 11.84
3/28/2021 1:45:00 PM 9.32 48.776 0.237 8.19 2.93 11.83
3/28/2021 2:00:00 PM 9.39 48.902 0.237 8.22 3.22 11.83
3/28/2021 2:15:00 PM 9.45 49.01 0.237 8.26 3.15 11.84
3/28/2021 2:30:00 PM 9.53 49.154 0.237 8.3 3.14 11.86
3/28/2021 2:45:00 PM 9.58 49.244 0.238 8.3 3.15 11.81
3/28/2021 3:00:00 PM 9.61 49.298 0.239 8.24 3.47 11.68
3/28/2021 3:15:00 PM 9.65 49.37 0.239 8.21 3.22 11.63
3/28/2021 3:30:00 PM 9.7 49.46 0.239 8.24 3.34 11.65
3/28/2021 3:45:00 PM 9.77 49.586 0.24 8.26 3.23 11.63
3/28/2021 4:00:00 PM 9.81 49.658 0.241 8.25 3.23 11.59
3/28/2021 4:15:00 PM 9.83 49.694 0.242 8.17 3.15 11.45
3/28/2021 4:30:00 PM 9.84 49.712 0.242 8.07 3.2 11.28
3/28/2021 4:45:00 PM 9.85 49.73 0.242 7.97 2.99 11.12
3/28/2021 5:00:00 PM 9.85 49.73 0.243 7.87 3.26 10.93
3/28/2021 5:15:00 PM 9.86 49.748 0.245 7.81 3.1 10.84
3/28/2021 5:30:00 PM 9.89 49.802 0.244 7.76 3.02 10.74
3/28/2021 5:45:00 PM 9.88 49.784 0.245 7.72 2.96 10.68
3/28/2021 6:00:00 PM 9.87 49.766 0.245 7.71 3.22 10.61
3/28/2021 6:15:00 PM 9.85 49.73 0.246 7.65 3.18 10.51
3/28/2021 6:30:00 PM 9.83 49.694 0.247 7.63 3.12 10.45
3/28/2021 6:45:00 PM 9.81 49.658 0.248 7.59 3.25 10.36
3/28/2021 7:00:00 PM 9.77 49.586 0.248 7.58 3.45 10.31
3/28/2021 7:15:00 PM 9.73 49.514 0.25 7.54 4.08 10.27
3/28/2021 7:30:00 PM 9.68 49.424 0.247 7.53 3.49 10.23
3/28/2021 7:45:00 PM 9.63 49.334 0.251 7.51 3.45 10.19
3/28/2021 8:00:00 PM 9.57 49.226 0.251 7.5 3.42 10.15
3/28/2021 8:15:00 PM 9.52 49.136 0.254 7.49 3.45 10.14
3/28/2021 8:30:00 PM 9.49 49.082 0.255 7.48 3.35 10.11
3/28/2021 8:45:00 PM 9.44 48.992 0.256 7.47 3.55 10.14
3/28/2021 9:00:00 PM 9.4 48.92 0.257 7.47 3.77 10.15
3/28/2021 9:15:00 PM 9.36 48.848 0.259 7.46 3.95 10.14
3/28/2021 9:30:00 PM 9.3 48.74 0.26 7.46 4.08 10.16
3/28/2021 9:45:00 PM 9.23 48.614 0.261 7.45 3.89 10.16
3/28/2021 10:00:00 PM 9.15 48.47 0.261 7.45 3.85 10.2
3/28/2021 10:15:00 PM 9.05 48.29 0.262 7.45 3.73 10.22
3/28/2021 10:30:00 PM 8.96 48.128 0.263 7.45 3.82 10.26
3/28/2021 10:45:00 PM 8.86 47.948 0.264 7.45 3.66 10.29
3/28/2021 11:00:00 PM 8.75 47.75 0.265 7.44 3.64 10.34
3/28/2021 11:15:00 PM 8.62 47.516 0.267 7.45 3.93 10.37
3/28/2021 11:30:00 PM 8.5 47.3 0.266 7.45 4.04 10.42
3/28/2021 11:45:00 PM 8.39 47.102 0.267 7.45 3.94 10.47
3/29/2021 12:00:00 AM 8.25 46.85 0.267 7.45 3.85 10.5
3/29/2021 12:15:00 AM 8.12 46.616 0.266 7.45 3.78 10.53
3/29/2021 12:30:00 AM 8 46.4 0.267 7.45 4.25 10.53
3/29/2021 12:45:00 AM 7.9 46.22 0.267 7.45 3.93 10.62
3/29/2021 1:00:00 AM 7.79 46.022 0.266 7.44 3.71 10.63
3/29/2021 1:15:00 AM 7.67 45.806 0.266 7.44 4.04 10.69
3/29/2021 1:30:00 AM 7.54 45.572 0.265 7.45 3.74 10.73
3/29/2021 1:45:00 AM 7.42 45.356 0.266 7.45 4.14 10.77
3/29/2021 2:00:00 AM 7.31 45.158 0.266 7.45 3.9 10.81
3/29/2021 2:15:00 AM 7.18 44.924 0.267 7.45 3.83 10.86
3/29/2021 2:30:00 AM 7.07 44.726 0.266 7.44 3.58 10.9
3/29/2021 2:45:00 AM 6.93 44.474 0.265 7.44 4.03 10.95
3/29/2021 3:00:00 AM 6.82 44.276 0.264 7.44 3.82 10.98
3/29/2021 3:15:00 AM 6.7 44.06 0.263 7.44 3.91 11.02
3/29/2021 3:30:00 AM 6.59 43.862 0.262 7.44 3.81 11.05
3/29/2021 3:45:00 AM 6.5 43.7 0.261 7.44 3.9 11.12
3/29/2021 4:00:00 AM 6.4 43.52 0.26 7.44 3.68 11.15
3/29/2021 4:15:00 AM 6.32 43.376 0.259 7.44 3.9 11.17
3/29/2021 4:30:00 AM 6.25 43.25 0.258 7.44 3.82 11.17
3/29/2021 4:45:00 AM 6.2 43.16 0.257 7.44 3.77 11.21
3/29/2021 5:00:00 AM 6.15 43.07 0.255 7.44 3.89 11.22
3/29/2021 5:15:00 AM 6.1 42.98 0.255 7.44 3.77 11.25
3/29/2021 5:30:00 AM 6.05 42.89 0.254 7.44 3.68 11.29
3/29/2021 5:45:00 AM 6 42.8 0.254 7.44 3.84 11.31
3/29/2021 6:00:00 AM 5.94 42.692 0.253 7.43 3.81 11.32
3/29/2021 6:15:00 AM 5.87 42.566 0.254 7.43 3.76 11.35
3/29/2021 6:30:00 AM 5.81 42.458 0.254 7.43 3.67 11.38
3/29/2021 6:45:00 AM 5.75 42.35 0.254 7.44 3.72 11.37
3/29/2021 7:00:00 AM 5.71 42.278 0.254 7.44 3.68 11.41
3/29/2021 7:15:00 AM 5.67 42.206 0.254 7.44 3.81 11.46
3/29/2021 7:30:00 AM 5.64 42.152 0.253 7.45 3.72 11.53
3/29/2021 7:45:00 AM 5.61 42.098 0.254 7.47 3.76 11.61
3/29/2021 8:00:00 AM 5.59 42.062 0.254 7.48 3.65 11.7
3/29/2021 8:15:00 AM 5.57 42.026 0.254 7.5 3.89 11.76
3/29/2021 8:30:00 AM 5.57 42.026 0.255 7.52 3.52 11.85
3/29/2021 8:45:00 AM 5.56 42.008 0.254 7.54 3.73 11.89
3/29/2021 9:00:00 AM 5.55 41.99 0.254 7.55 3.89 11.96
3/29/2021 9:15:00 AM 5.54 41.972 0.254 7.57 3.7 12.02
3/29/2021 9:30:00 AM 5.52 41.936 0.254 7.58 3.68 12.06
3/29/2021 9:45:00 AM 5.52 41.936 0.254 7.6 3.6 12.14
3/29/2021 10:00:00 AM 5.54 41.972 0.253 7.63 3.62 12.2
3/29/2021 10:15:00 AM 5.59 42.062 0.253 7.67 3.38 12.34
3/29/2021 10:30:00 AM 5.71 42.278 0.253 7.73 3.34 12.5
3/29/2021 10:45:00 AM 5.78 42.404 0.252 7.79 3.46 12.59
3/29/2021 11:00:00 AM 5.84 42.512 0.252 7.85 3.24 12.65
3/29/2021 11:15:00 AM 5.93 42.674 0.251 7.89 3.34 12.71
3/29/2021 11:30:00 AM 6 42.8 0.251 7.93 3.3 12.74
3/29/2021 11:45:00 AM 6.16 43.088 0.251 7.98 3.4 12.79
3/29/2021 12:00:00 PM 6.35 43.43 0.251 8.03 3.56 12.83
3/29/2021 12:15:00 PM 6.49 43.682 0.251 8.07 3.47 12.83
3/29/2021 12:30:00 PM 6.54 43.772 0.251 8.09 3.4 12.79
3/29/2021 12:45:00 PM 6.69 44.042 0.252 8.12 3.89 12.78
3/29/2021 1:00:00 PM 6.85 44.33 0.252 8.13 4.2 12.73
3/29/2021 1:15:00 PM 7.02 44.636 0.252 8.16 3.62 12.72
3/29/2021 1:30:00 PM 7.22 44.996 0.252 8.16 3.47 12.67
3/29/2021 1:45:00 PM 7.41 45.338 0.252 8.18 3.58 12.6
3/29/2021 2:00:00 PM 7.56 45.608 0.252 8.19 3.47 12.56
3/29/2021 2:15:00 PM 7.7 45.86 0.252 8.21 3.5 12.54
3/29/2021 2:30:00 PM 7.83 46.094 0.252 8.22 3.7 12.5
3/29/2021 2:45:00 PM 7.95 46.31 0.251 8.21 3.61 12.42
3/29/2021 3:00:00 PM 8.05 46.49 0.251 8.22 3.41 12.38
3/29/2021 3:15:00 PM 8.13 46.634 0.249 8.21 3.53 12.35
3/29/2021 3:30:00 PM 8.17 46.706 0.25 8.21 3.55 12.28
3/29/2021 3:45:00 PM 8.21 46.778 0.251 8.2 3.68 12.24
3/29/2021 4:00:00 PM 8.23 46.814 0.251 8.18 3.36 12.2
3/29/2021 4:15:00 PM 8.22 46.796 0.252 8.17 3.86 12.16
3/29/2021 4:30:00 PM 8.2 46.76 0.251 8.15 3.66 12.14
3/29/2021 4:45:00 PM 8.17 46.706 0.251 8.12 3.31 12.07
3/29/2021 5:00:00 PM 8.12 46.616 0.252 8.09 3.34 12.06
3/29/2021 5:15:00 PM 8.05 46.49 0.251 8.05 3.3 12
3/29/2021 5:30:00 PM 7.98 46.364 0.251 8.01 3.24 11.96
3/29/2021 5:45:00 PM 7.89 46.202 0.251 7.97 3.43 11.92
3/29/2021 6:00:00 PM 7.78 46.004 0.251 7.91 3.59 11.86
3/29/2021 6:15:00 PM 7.66 45.788 0.252 7.86 3.43 11.77
3/29/2021 6:30:00 PM 7.55 45.59 0.253 7.8 3.38 11.65
3/29/2021 6:45:00 PM 7.43 45.374 0.254 7.73 3.49 11.59
3/29/2021 7:00:00 PM 7.32 45.176 0.254 7.69 3.59 11.53
3/29/2021 7:15:00 PM 7.21 44.978 0.254 7.64 4 11.46
3/29/2021 7:30:00 PM 7.12 44.816 0.254 7.6 4.06 11.39
3/29/2021 7:45:00 PM 7.02 44.636 0.255 7.57 3.55 11.34
3/29/2021 8:00:00 PM 6.92 44.456 0.254 7.54 3.74 11.29
3/29/2021 8:15:00 PM 6.82 44.276 0.254 7.52 3.53 11.26
3/29/2021 8:30:00 PM 6.73 44.114 0.254 7.49 3.66 11.24
3/29/2021 8:45:00 PM 6.64 43.952 0.254 7.49 3.5 11.26
3/29/2021 9:00:00 PM 6.56 43.808 0.254 7.48 3.68 11.23
3/29/2021 9:15:00 PM 6.49 43.682 0.254 7.46 3.66 11.26
3/29/2021 9:30:00 PM 6.41 43.538 0.253 7.45 3.64 11.26
3/29/2021 9:45:00 PM 6.35 43.43 0.253 7.45 3.55 11.25
3/29/2021 10:00:00 PM 6.29 43.322 0.252 7.45 3.51 11.26
3/29/2021 10:15:00 PM 6.24 43.232 0.253 7.44 3.54 11.28
3/29/2021 10:30:00 PM 6.19 43.142 0.253 7.44 3.43 11.29
3/29/2021 10:45:00 PM 6.13 43.034 0.253 7.44 3.35 11.29
3/29/2021 11:00:00 PM 6.08 42.944 0.252 7.43 3.39 11.32
3/29/2021 11:15:00 PM 6.03 42.854 0.252 7.43 3.37 11.34
3/29/2021 11:30:00 PM 5.98 42.764 0.252 7.43 3.32 11.34
3/29/2021 11:45:00 PM 5.94 42.692 0.252 7.43 3.4 11.34
3/30/2021 12:00:00 AM 5.9 42.62 0.252 7.42 3.39 11.37
3/30/2021 12:15:00 AM 5.86 42.548 0.252 7.41 3.24 11.39
3/30/2021 12:30:00 AM 5.82 42.476 0.251 7.42 3.23 11.41
3/30/2021 12:45:00 AM 5.79 42.422 0.252 7.42 3.31 11.42
3/30/2021 1:00:00 AM 5.75 42.35 0.251 7.42 3.28 11.43
3/30/2021 1:15:00 AM 5.72 42.296 0.251 7.42 3.33 11.44
3/30/2021 1:30:00 AM 5.69 42.242 0.25 7.41 3.63 11.45
3/30/2021 1:45:00 AM 5.66 42.188 0.251 7.42 3.42 11.46
3/30/2021 2:00:00 AM 5.63 42.134 0.251 7.41 3.37 11.44
3/30/2021 2:15:00 AM 5.6 42.08 0.251 7.41 3.42 11.47
3/30/2021 2:30:00 AM 5.58 42.044 0.25 7.41 3.51 11.47
3/30/2021 2:45:00 AM 5.55 41.99 0.25 7.41 3.41 11.47
3/30/2021 3:00:00 AM 5.52 41.936 0.25 7.41 3.37 11.47
3/30/2021 3:15:00 AM 5.5 41.9 0.25 7.41 3.6 11.5
3/30/2021 3:30:00 AM 5.47 41.846 0.25 7.41 3.65 11.5
3/30/2021 3:45:00 AM 5.44 41.792 0.25 7.41 3.44 11.53
3/30/2021 4:00:00 AM 5.42 41.756 0.25 7.41 3.26 11.51
3/30/2021 4:15:00 AM 5.39 41.702 0.25 7.41 3.47 11.54
3/30/2021 4:30:00 AM 5.36 41.648 0.25 7.41 3.45 11.55
3/30/2021 4:45:00 AM 5.33 41.594 0.25 7.41 3.57 11.55
3/30/2021 5:00:00 AM 5.31 41.558 0.249 7.4 3.67 11.56
3/30/2021 5:15:00 AM 5.28 41.504 0.249 7.41 3.22 11.59
3/30/2021 5:30:00 AM 5.25 41.45 0.249 7.41 3.2 11.58
3/30/2021 5:45:00 AM 5.23 41.414 0.249 7.41 3.13 11.58
3/30/2021 6:00:00 AM 5.2 41.36 0.249 7.41 3.26 11.61
3/30/2021 6:15:00 AM 5.17 41.306 0.249 7.41 3.39 11.63
3/30/2021 6:30:00 AM 5.15 41.27 0.249 7.4 3.14 11.62
3/30/2021 6:45:00 AM 5.12 41.216 0.249 7.41 3.37 11.64
3/30/2021 7:00:00 AM 5.1 41.18 0.249 7.41 3.99 11.68
3/30/2021 7:15:00 AM 5.09 41.162 0.248 7.42 3.1 11.72
3/30/2021 7:30:00 AM 5.08 41.144 0.248 7.43 3.11 11.76
3/30/2021 7:45:00 AM 5.08 41.144 0.247 7.45 3.08 11.83
3/30/2021 8:00:00 AM 5.1 41.18 0.247 7.47 3.03 11.95
3/30/2021 8:15:00 AM 5.14 41.252 0.246 7.5 3.12 12.08
3/30/2021 8:30:00 AM 5.19 41.342 0.246 7.53 3.04 12.2
3/30/2021 8:45:00 AM 5.26 41.468 0.246 7.56 3.11 12.29
3/30/2021 9:00:00 AM 5.35 41.63 0.245 7.59 3.11 12.36
3/30/2021 9:15:00 AM 5.46 41.828 0.245 7.63 2.94 12.45
3/30/2021 9:30:00 AM 5.6 42.08 0.244 7.66 2.97 12.49
3/30/2021 9:45:00 AM 5.74 42.332 0.245 7.7 2.97 12.57
3/30/2021 10:00:00 AM 5.89 42.602 0.245 7.74 3 12.63
3/30/2021 10:15:00 AM 6.06 42.908 0.244 7.78 2.97 12.66
3/30/2021 10:30:00 AM 6.23 43.214 0.243 7.82 2.94 12.67
3/30/2021 10:45:00 AM 6.41 43.538 0.243 7.86 2.97 12.68
3/30/2021 11:00:00 AM 6.63 43.934 0.243 7.89 2.93 12.65
3/30/2021 11:15:00 AM 6.86 44.348 0.242 7.93 2.95 12.66
3/30/2021 11:30:00 AM 7.11 44.798 0.241 7.96 3.02 12.64
3/30/2021 11:45:00 AM 7.37 45.266 0.242 7.99 2.92 12.6
3/30/2021 12:00:00 PM 7.63 45.734 0.243 8.03 2.9 12.54
3/30/2021 12:15:00 PM 7.89 46.202 0.243 8.05 3.05 12.52
3/30/2021 12:30:00 PM 8.15 46.67 0.243 8.08 2.86 12.46
3/30/2021 12:45:00 PM 8.4 47.12 0.241 8.11 2.95 12.43
3/30/2021 1:00:00 PM 8.66 47.588 0.241 8.14 2.83 12.35
3/30/2021 1:15:00 PM 8.94 48.092 0.24 8.15 3.1 12.3
3/30/2021 1:30:00 PM 9.2 48.56 0.241 8.19 2.84 12.24
3/30/2021 1:45:00 PM 9.44 48.992 0.242 8.2 2.81 12.16
3/30/2021 2:00:00 PM 9.69 49.442 0.241 8.23 2.79 12.1
3/30/2021 2:15:00 PM 9.91 49.838 0.241 8.24 3.04 12.04
3/30/2021 2:30:00 PM 10.11 50.198 0.241 8.25 2.93 11.96
3/30/2021 2:45:00 PM 10.28 50.504 0.241 8.26 2.9 11.9
3/30/2021 3:00:00 PM 10.42 50.756 0.241 8.26 2.93 11.85
3/30/2021 3:15:00 PM 10.54 50.972 0.241 8.26 2.83 11.78
3/30/2021 3:30:00 PM 10.62 51.116 0.24 8.26 2.9 11.73
3/30/2021 3:45:00 PM 10.68 51.224 0.241 8.27 2.97 11.67
3/30/2021 4:00:00 PM 10.72 51.296 0.242 8.25 2.88 11.61
3/30/2021 4:15:00 PM 10.74 51.332 0.242 8.24 2.92 11.57
3/30/2021 4:30:00 PM 10.74 51.332 0.242 8.22 2.93 11.51
3/30/2021 4:45:00 PM 10.72 51.296 0.242 8.2 2.94 11.46
3/30/2021 5:00:00 PM 10.68 51.224 0.242 8.17 2.9 11.41
3/30/2021 5:15:00 PM 10.62 51.116 0.242 8.14 3 11.38
3/30/2021 5:30:00 PM 10.56 51.008 0.243 8.09 3.14 11.31
3/30/2021 5:45:00 PM 10.44 50.792 0.243 8.01 2.99 11.2
3/30/2021 6:00:00 PM 10.37 50.666 0.243 7.98 2.95 11.2
3/30/2021 6:15:00 PM 10.26 50.468 0.243 7.94 2.92 11.14
3/30/2021 6:30:00 PM 10.14 50.252 0.243 7.89 3.03 11.08
3/30/2021 6:45:00 PM 10.01 50.018 0.243 7.81 2.9 10.98
3/30/2021 7:00:00 PM 9.88 49.784 0.244 7.76 2.85 10.88
3/30/2021 7:15:00 PM 9.75 49.55 0.244 7.7 2.94 10.77
3/30/2021 7:30:00 PM 9.62 49.316 0.243 7.65 2.91 10.66
3/30/2021 7:45:00 PM 9.51 49.118 0.244 7.61 3 10.58
3/30/2021 8:00:00 PM 9.4 48.92 0.244 7.57 2.97 10.5
3/30/2021 8:15:00 PM 9.3 48.74 0.244 7.55 3.34 10.47
3/30/2021 8:30:00 PM 9.21 48.578 0.245 7.52 2.95 10.46
3/30/2021 8:45:00 PM 9.11 48.398 0.244 7.51 2.95 10.45
3/30/2021 9:00:00 PM 9.02 48.236 0.244 7.49 2.99 10.45
3/30/2021 9:15:00 PM 8.93 48.074 0.244 7.49 3.06 10.46
3/30/2021 9:30:00 PM 8.86 47.948 0.245 7.47 2.89 10.45
3/30/2021 9:45:00 PM 8.79 47.822 0.245 7.47 3.01 10.46
3/30/2021 10:00:00 PM 8.72 47.696 0.245 7.47 3.05 10.46
3/30/2021 10:15:00 PM 8.65 47.57 0.244 7.46 3 10.49
3/30/2021 10:30:00 PM 8.58 47.444 0.244 7.45 3.15 10.52
3/30/2021 10:45:00 PM 8.51 47.318 0.245 7.45 3.14 10.53
3/30/2021 11:00:00 PM 8.45 47.21 0.245 7.45 2.96 10.54
3/30/2021 11:15:00 PM 8.39 47.102 0.246 7.43 3.01 10.56
3/30/2021 11:30:00 PM 8.34 47.012 0.246 7.44 3.16 10.59
3/30/2021 11:45:00 PM 8.3 46.94 0.244 7.44 2.98 10.6
3/31/2021 12:00:00 AM 8.26 46.868 0.245 7.44 2.9 10.58
3/31/2021 12:15:00 AM 8.23 46.814 0.245 7.44 2.97 10.6
3/31/2021 12:30:00 AM 8.21 46.778 0.245 7.43 2.8 10.59
3/31/2021 12:45:00 AM 8.17 46.706 0.246 7.43 2.82 10.61
3/31/2021 1:00:00 AM 8.15 46.67 0.245 7.43 2.84 10.61
3/31/2021 1:15:00 AM 8.12 46.616 0.245 7.43 2.91 10.62
3/31/2021 1:30:00 AM 8.1 46.58 0.245 7.43 2.8 10.63
3/31/2021 1:45:00 AM 8.08 46.544 0.245 7.43 2.82 10.63
3/31/2021 2:00:00 AM 8.07 46.526 0.244 7.43 2.97 10.64
3/31/2021 2:15:00 AM 8.06 46.508 0.244 7.41 2.99 10.63
3/31/2021 2:30:00 AM 8.06 46.508 0.244 7.42 2.9 10.63
3/31/2021 2:45:00 AM 8.04 46.472 0.244 7.42 2.97 10.64
3/31/2021 3:00:00 AM 8.03 46.454 0.244 7.42 2.89 10.63
3/31/2021 3:15:00 AM 8.03 46.454 0.244 7.42 2.75 10.64
3/31/2021 3:30:00 AM 8.02 46.436 0.244 7.41 2.79 10.65
3/31/2021 3:45:00 AM 8.01 46.418 0.243 7.41 2.7 10.64
3/31/2021 4:00:00 AM 8 46.4 0.244 7.42 2.74 10.64
3/31/2021 4:15:00 AM 7.99 46.382 0.244 7.42 2.88 10.64
3/31/2021 4:30:00 AM 7.99 46.382 0.244 7.41 2.72 10.64
3/31/2021 4:45:00 AM 7.97 46.346 0.245 7.42 2.7 10.64
3/31/2021 5:00:00 AM 7.95 46.31 0.245 7.41 2.79 10.63
3/31/2021 5:15:00 AM 7.92 46.256 0.245 7.41 2.97 10.65
3/31/2021 5:30:00 AM 7.89 46.202 0.245 7.41 2.72 10.66
3/31/2021 5:45:00 AM 7.86 46.148 0.245 7.41 2.75 10.66
3/31/2021 6:00:00 AM 7.82 46.076 0.246 7.41 2.75 10.68
3/31/2021 6:15:00 AM 7.79 46.022 0.245 7.41 2.86 10.68
3/31/2021 6:30:00 AM 7.76 45.968 0.245 7.41 2.84 10.71
3/31/2021 6:45:00 AM 7.74 45.932 0.245 7.41 2.8 10.7
3/31/2021 7:00:00 AM 7.72 45.896 0.246 7.4 2.82 10.72
3/31/2021 7:15:00 AM 7.71 45.878 0.246 7.42 2.84 10.76
3/31/2021 7:30:00 AM 7.71 45.878 0.245 7.43 2.84 10.81
3/31/2021 7:45:00 AM 7.72 45.896 0.245 7.44 2.79 10.89
3/31/2021 8:00:00 AM 7.74 45.932 0.245 7.46 2.79 10.96
3/31/2021 8:15:00 AM 7.76 45.968 0.245 7.48 2.83 11.04
3/31/2021 8:30:00 AM 7.79 46.022 0.245 7.5 2.82 11.15
3/31/2021 8:45:00 AM 7.84 46.112 0.245 7.53 2.87 11.25
3/31/2021 9:00:00 AM 7.9 46.22 0.245 7.57 2.8 11.38
3/31/2021 9:15:00 AM 7.97 46.346 0.245 7.61 2.93 11.47
3/31/2021 9:30:00 AM 8.05 46.49 0.246 7.65 2.8 11.58
3/31/2021 9:45:00 AM 8.12 46.616 0.246 7.68 2.86 11.62
3/31/2021 10:00:00 AM 8.19 46.742 0.246 7.71 2.85 11.65
3/31/2021 10:15:00 AM 8.27 46.886 0.245 7.74 2.87 11.71
3/31/2021 10:30:00 AM 8.37 47.066 0.245 7.78 2.86 11.77
3/31/2021 10:45:00 AM 8.46 47.228 0.245 7.81 2.94 11.82
3/31/2021 11:00:00 AM 8.53 47.354 0.245 7.83 2.72 11.82
3/31/2021 11:15:00 AM 8.61 47.498 0.246 7.85 2.79 11.78
3/31/2021 11:30:00 AM 8.68 47.624 0.246 7.85 2.94 11.78
3/31/2021 11:45:00 AM 8.75 47.75 0.246 7.88 2.75 11.78
3/31/2021 12:00:00 PM 8.81 47.858 0.245 7.88 2.76 11.71
3/31/2021 12:15:00 PM 8.87 47.966 0.246 7.89 2.8 11.71
3/31/2021 12:30:00 PM 8.95 48.11 0.246 7.9